PWSweather.com
Personal Weather Stations
Station Observations
KCAKERNV93238
Kernville Downtown, Kernville, CA 93238

Kernville DowntownKernville, CA 93238

Lat: 35.754209, Lon: -118.42456

Elevation: 2664

Station Type: Ambient Weather 2902A

www.natureali.org

High Low Average
Temperature 50.0°F10.0°C 33.3°F0.7°C 42.3°F5.7°C
Dew Point 40.1°F4.5°C 23.2°F-4.9°C 30.9°F-0.6°C
Winds 17.4 mph 28.0 kmh Calm Calm 3.0 mph S4.8 kmh S
Wind Gusts 27.3 mph43.9 kmh -- 4.0 mph6.4 kmh
Humidity 93% 40% 67%
Pressure 29.94 in1013.9 mb 29.84 in1010.5 mb -
Precipitation 0.16 in4.1 mm - -
Hour Temp Dew Point Humidity Winds Wind Gusts Pressure Precip Precip Rate Daily Precip Total
12:00 AM 42.4°F5.8°C 36.4°F2.4°C 79% 2.0 mph ESE3.2 kmh ESE 3.4 mph5.5 kmh 29.84 in1010.5 mb 0.00 in0.0 mm 0.00 in0.0 mm 0.01 in0.3 mm
12:03 AM 42.4°F5.8°C 36.4°F2.4°C 79% 1.3 mph E2.1 kmh E 2.2 mph3.5 kmh 29.84 in1010.5 mb 0.00 in0.0 mm 0.00 in0.0 mm 0.01 in0.3 mm
12:04 AM 42.4°F5.8°C 36.7°F2.6°C 80% 0.9 mph E1.4 kmh E 1.1 mph1.8 kmh 29.84 in1010.5 mb 0.00 in0.0 mm 0.00 in0.0 mm 0.01 in0.3 mm
12:05 AM 42.4°F5.8°C 37.0°F2.8°C 81% 1.6 mph E2.6 kmh E 2.2 mph3.5 kmh 29.84 in1010.5 mb 0.00 in0.0 mm 0.00 in0.0 mm 0.01 in0.3 mm
12:06 AM 42.4°F5.8°C 37.0°F2.8°C 81% 0.9 mph E1.4 kmh E 1.1 mph1.8 kmh 29.84 in1010.5 mb 0.00 in0.0 mm 0.00 in0.0 mm 0.01 in0.3 mm
12:07 AM 42.4°F5.8°C 37.0°F2.8°C 81% 1.8 mph E2.9 kmh E 2.2 mph3.5 kmh 29.85 in1010.8 mb 0.00 in0.0 mm 0.00 in0.0 mm 0.01 in0.3 mm
12:08 AM 42.3°F5.7°C 36.9°F2.7°C 81% 0.9 mph E1.4 kmh E 1.1 mph1.8 kmh 29.83 in1010.2 mb 0.00 in0.0 mm 0.00 in0.0 mm 0.01 in0.3 mm
12:09 AM 42.3°F5.7°C 36.9°F2.7°C 81% 0.9 mph E1.4 kmh E 1.1 mph1.8 kmh 29.85 in1010.8 mb 0.00 in0.0 mm 0.00 in0.0 mm 0.01 in0.3 mm
12:10 AM 42.3°F5.7°C 37.2°F2.9°C 82% 0.9 mph E1.4 kmh E 1.1 mph1.8 kmh 29.84 in1010.5 mb 0.00 in0.0 mm 0.00 in0.0 mm 0.01 in0.3 mm
12:11 AM 42.3°F5.7°C 37.2°F2.9°C 82% 2.2 mph E3.5 kmh E 3.4 mph5.5 kmh 29.84 in1010.5 mb 0.00 in0.0 mm 0.00 in0.0 mm 0.01 in0.3 mm
12:12 AM 42.3°F5.7°C 37.2°F2.9°C 82% 1.6 mph E2.6 kmh E 2.2 mph3.5 kmh 29.84 in1010.5 mb 0.00 in0.0 mm 0.00 in0.0 mm 0.01 in0.3 mm
12:13 AM 42.1°F5.6°C 36.7°F2.6°C 81% 2.0 mph ESE3.2 kmh ESE 2.2 mph3.5 kmh 29.84 in1010.5 mb 0.00 in0.0 mm 0.00 in0.0 mm 0.01 in0.3 mm
12:14 AM 42.1°F5.6°C 36.7°F2.6°C 81% 1.3 mph E2.1 kmh E 2.2 mph3.5 kmh 29.83 in1010.2 mb 0.00 in0.0 mm 0.00 in0.0 mm 0.01 in0.3 mm
12:15 AM 42.1°F5.6°C 36.7°F2.6°C 81% 1.3 mph E2.1 kmh E 2.2 mph3.5 kmh 29.84 in1010.5 mb 0.00 in0.0 mm 0.00 in0.0 mm 0.01 in0.3 mm
12:16 AM 42.1°F5.6°C 36.4°F2.4°C 80% 1.1 mph E1.8 kmh E 1.1 mph1.8 kmh 29.84 in1010.5 mb 0.00 in0.0 mm 0.00 in0.0 mm 0.01 in0.3 mm
12:17 AM 42.1°F5.6°C 36.7°F2.6°C 81% 1.8 mph E2.9 kmh E 3.4 mph5.5 kmh 29.84 in1010.5 mb 0.00 in0.0 mm 0.00 in0.0 mm 0.01 in0.3 mm
12:18 AM 42.1°F5.6°C 36.4°F2.4°C 80% 0.7 mph E1.1 kmh E 1.1 mph1.8 kmh 29.84 in1010.5 mb 0.00 in0.0 mm 0.00 in0.0 mm 0.01 in0.3 mm
12:19 AM 42.1°F5.6°C 36.7°F2.6°C 81% 0.9 mph E1.4 kmh E 1.1 mph1.8 kmh 29.84 in1010.5 mb 0.00 in0.0 mm 0.00 in0.0 mm 0.01 in0.3 mm
12:20 AM 42.1°F5.6°C 36.4°F2.4°C 80% 1.3 mph E2.1 kmh E 2.2 mph3.5 kmh 29.84 in1010.5 mb 0.00 in0.0 mm 0.00 in0.0 mm 0.01 in0.3 mm
12:21 AM 42.1°F5.6°C 36.7°F2.6°C 81% 0.7 mph E1.1 kmh E 1.1 mph1.8 kmh 29.84 in1010.5 mb 0.00 in0.0 mm 0.00 in0.0 mm 0.01 in0.3 mm
12:22 AM 42.1°F5.6°C 36.7°F2.6°C 81% 0.4 mph E0.6 kmh E 1.1 mph1.8 kmh 29.84 in1010.5 mb 0.00 in0.0 mm 0.00 in0.0 mm 0.01 in0.3 mm
12:23 AM 42.1°F5.6°C 36.4°F2.4°C 80% 0.4 mph E0.6 kmh E 1.1 mph1.8 kmh 29.84 in1010.5 mb 0.00 in0.0 mm 0.00 in0.0 mm 0.01 in0.3 mm
12:24 AM 42.1°F5.6°C 36.7°F2.6°C 81% 1.3 mph E2.1 kmh E 2.2 mph3.5 kmh 29.84 in1010.5 mb 0.00 in0.0 mm 0.00 in0.0 mm 0.01 in0.3 mm
12:25 AM 42.1°F5.6°C 36.7°F2.6°C 81% 0.4 mph E0.6 kmh E 1.1 mph1.8 kmh 29.84 in1010.5 mb 0.00 in0.0 mm 0.00 in0.0 mm 0.01 in0.3 mm
12:27 AM 42.3°F5.7°C 36.9°F2.7°C 81% Calm Calm -- 29.84 in1010.5 mb 0.00 in0.0 mm 0.00 in0.0 mm 0.01 in0.3 mm
12:28 AM 42.3°F5.7°C 36.6°F2.6°C 80% 1.6 mph E2.6 kmh E 2.2 mph3.5 kmh 29.85 in1010.8 mb 0.00 in0.0 mm 0.00 in0.0 mm 0.01 in0.3 mm
12:29 AM 42.3°F5.7°C 36.6°F2.6°C 80% 1.6 mph E2.6 kmh E 2.2 mph3.5 kmh 29.84 in1010.5 mb 0.00 in0.0 mm 0.00 in0.0 mm 0.01 in0.3 mm
12:30 AM 42.3°F5.7°C 36.9°F2.7°C 81% 0.9 mph E1.4 kmh E 1.1 mph1.8 kmh 29.84 in1010.5 mb 0.00 in0.0 mm 0.00 in0.0 mm 0.01 in0.3 mm
12:31 AM 42.3°F5.7°C 36.9°F2.7°C 81% 0.4 mph E0.6 kmh E 1.1 mph1.8 kmh 29.84 in1010.5 mb 0.00 in0.0 mm 0.00 in0.0 mm 0.01 in0.3 mm
12:32 AM 42.3°F5.7°C 36.6°F2.6°C 80% 0.9 mph E1.4 kmh E 1.1 mph1.8 kmh 29.84 in1010.5 mb 0.00 in0.0 mm 0.00 in0.0 mm 0.01 in0.3 mm
12:33 AM 42.3°F5.7°C 36.6°F2.6°C 80% Calm Calm -- 29.84 in1010.5 mb 0.00 in0.0 mm 0.00 in0.0 mm 0.01 in0.3 mm
12:34 AM 42.3°F5.7°C 36.9°F2.7°C 81% 0.4 mph E0.6 kmh E 1.1 mph1.8 kmh 29.84 in1010.5 mb 0.00 in0.0 mm 0.00 in0.0 mm 0.01 in0.3 mm
12:35 AM 42.3°F5.7°C 36.6°F2.6°C 80% Calm Calm -- 29.84 in1010.5 mb 0.00 in0.0 mm 0.00 in0.0 mm 0.01 in0.3 mm
12:38 AM 42.3°F5.7°C 36.6°F2.6°C 80% Calm Calm -- 29.85 in1010.8 mb 0.00 in0.0 mm 0.00 in0.0 mm 0.01 in0.3 mm
12:39 AM 42.3°F5.7°C 36.6°F2.6°C 80% 1.1 mph E1.8 kmh E 1.1 mph1.8 kmh 29.85 in1010.8 mb 0.00 in0.0 mm 0.00 in0.0 mm 0.01 in0.3 mm
12:41 AM 42.1°F5.6°C 36.4°F2.4°C 80% 0.7 mph E1.1 kmh E 1.1 mph1.8 kmh 29.85 in1010.8 mb 0.00 in0.0 mm 0.00 in0.0 mm 0.01 in0.3 mm
12:42 AM 42.1°F5.6°C 36.4°F2.4°C 80% 0.7 mph E1.1 kmh E 1.1 mph1.8 kmh 29.85 in1010.8 mb 0.00 in0.0 mm 0.00 in0.0 mm 0.01 in0.3 mm
12:44 AM 42.1°F5.6°C 36.7°F2.6°C 81% 2.0 mph E3.2 kmh E 3.4 mph5.5 kmh 29.84 in1010.5 mb 0.00 in0.0 mm 0.00 in0.0 mm 0.01 in0.3 mm
12:45 AM 42.1°F5.6°C 36.7°F2.6°C 81% 1.1 mph E1.8 kmh E 1.1 mph1.8 kmh 29.85 in1010.8 mb 0.00 in0.0 mm 0.00 in0.0 mm 0.01 in0.3 mm
12:46 AM 42.1°F5.6°C 36.4°F2.4°C 80% 1.3 mph E2.1 kmh E 2.2 mph3.5 kmh 29.85 in1010.8 mb 0.00 in0.0 mm 0.00 in0.0 mm 0.01 in0.3 mm
12:47 AM 42.1°F5.6°C 36.4°F2.4°C 80% 0.9 mph E1.4 kmh E 1.1 mph1.8 kmh 29.85 in1010.8 mb 0.00 in0.0 mm 0.00 in0.0 mm 0.01 in0.3 mm
12:48 AM 42.1°F5.6°C 36.4°F2.4°C 80% 1.6 mph E2.6 kmh E 2.2 mph3.5 kmh 29.84 in1010.5 mb 0.00 in0.0 mm 0.00 in0.0 mm 0.01 in0.3 mm
12:50 AM 42.1°F5.6°C 36.4°F2.4°C 80% 0.2 mph E0.3 kmh E 1.1 mph1.8 kmh 29.84 in1010.5 mb 0.00 in0.0 mm 0.00 in0.0 mm 0.01 in0.3 mm
12:51 AM 42.1°F5.6°C 36.7°F2.6°C 81% 1.8 mph E2.9 kmh E 2.2 mph3.5 kmh 29.84 in1010.5 mb 0.00 in0.0 mm 0.00 in0.0 mm 0.01 in0.3 mm
12:52 AM 42.1°F5.6°C 36.4°F2.4°C 80% 1.1 mph E1.8 kmh E 1.1 mph1.8 kmh 29.84 in1010.5 mb 0.00 in0.0 mm 0.00 in0.0 mm 0.01 in0.3 mm
12:53 AM 42.1°F5.6°C 36.1°F2.3°C 79% 0.9 mph E1.4 kmh E 2.2 mph3.5 kmh 29.85 in1010.8 mb 0.00 in0.0 mm 0.00 in0.0 mm 0.01 in0.3 mm
12:54 AM 42.1°F5.6°C 36.4°F2.4°C 80% Calm Calm -- 29.84 in1010.5 mb 0.00 in0.0 mm 0.00 in0.0 mm 0.01 in0.3 mm
12:55 AM 42.1°F5.6°C 36.4°F2.4°C 80% 0.9 mph E1.4 kmh E 1.1 mph1.8 kmh 29.85 in1010.8 mb 0.00 in0.0 mm 0.00 in0.0 mm 0.01 in0.3 mm
12:56 AM 42.1°F5.6°C 36.4°F2.4°C 80% 1.1 mph E1.8 kmh E 1.1 mph1.8 kmh 29.84 in1010.5 mb 0.00 in0.0 mm 0.00 in0.0 mm 0.01 in0.3 mm
12:57 AM 42.1°F5.6°C 36.7°F2.6°C 81% 1.3 mph ESE2.1 kmh ESE 2.2 mph3.5 kmh 29.85 in1010.8 mb 0.00 in0.0 mm 0.00 in0.0 mm 0.01 in0.3 mm
12:58 AM 42.1°F5.6°C 36.7°F2.6°C 81% 1.6 mph E2.6 kmh E 2.2 mph3.5 kmh 29.84 in1010.5 mb 0.00 in0.0 mm 0.00 in0.0 mm 0.01 in0.3 mm
12:59 AM 42.1°F5.6°C 36.7°F2.6°C 81% 0.4 mph E0.6 kmh E 1.1 mph1.8 kmh 29.85 in1010.8 mb 0.00 in0.0 mm 0.00 in0.0 mm 0.01 in0.3 mm
01:00 AM 42.1°F5.6°C 36.7°F2.6°C 81% 0.7 mph E1.1 kmh E 1.1 mph1.8 kmh 29.84 in1010.5 mb 0.00 in0.0 mm 0.00 in0.0 mm 0.00 in0.0 mm
01:01 AM 41.9°F5.5°C 36.2°F2.3°C 80% 0.4 mph E0.6 kmh E 1.1 mph1.8 kmh 29.84 in1010.5 mb 0.00 in0.0 mm 0.00 in0.0 mm 0.00 in0.0 mm
01:02 AM 41.9°F5.5°C 36.2°F2.3°C 80% 0.9 mph E1.4 kmh E 1.1 mph1.8 kmh 29.84 in1010.5 mb 0.00 in0.0 mm 0.00 in0.0 mm 0.00 in0.0 mm
01:03 AM 41.9°F5.5°C 36.2°F2.3°C 80% 1.1 mph E1.8 kmh E 2.2 mph3.5 kmh 29.84 in1010.5 mb 0.00 in0.0 mm 0.00 in0.0 mm 0.00 in0.0 mm
01:04 AM 41.9°F5.5°C 36.2°F2.3°C 80% 0.9 mph E1.4 kmh E 2.2 mph3.5 kmh 29.85 in1010.8 mb 0.00 in0.0 mm 0.00 in0.0 mm 0.00 in0.0 mm
01:05 AM 41.9°F5.5°C 36.2°F2.3°C 80% 0.9 mph E1.4 kmh E 1.1 mph1.8 kmh 29.84 in1010.5 mb 0.00 in0.0 mm 0.00 in0.0 mm 0.00 in0.0 mm
01:06 AM 41.7°F5.4°C 36.0°F2.2°C 80% 0.7 mph E1.1 kmh E 1.1 mph1.8 kmh 29.84 in1010.5 mb 0.00 in0.0 mm 0.00 in0.0 mm 0.00 in0.0 mm
01:07 AM 41.7°F5.4°C 36.0°F2.2°C 80% 0.9 mph E1.4 kmh E 1.1 mph1.8 kmh 29.85 in1010.8 mb 0.00 in0.0 mm 0.00 in0.0 mm 0.00 in0.0 mm
01:08 AM 41.7°F5.4°C 36.0°F2.2°C 80% 2.0 mph E3.2 kmh E 2.2 mph3.5 kmh 29.84 in1010.5 mb 0.00 in0.0 mm 0.00 in0.0 mm 0.00 in0.0 mm
01:09 AM 41.7°F5.4°C 36.0°F2.2°C 80% 1.8 mph E2.9 kmh E 2.2 mph3.5 kmh 29.84 in1010.5 mb 0.00 in0.0 mm 0.00 in0.0 mm 0.00 in0.0 mm
01:10 AM 41.7°F5.4°C 36.0°F2.2°C 80% 1.3 mph E2.1 kmh E 2.2 mph3.5 kmh 29.85 in1010.8 mb 0.00 in0.0 mm 0.00 in0.0 mm 0.00 in0.0 mm
01:11 AM 41.7°F5.4°C 36.0°F2.2°C 80% 2.2 mph E3.5 kmh E 3.4 mph5.5 kmh 29.85 in1010.8 mb 0.00 in0.0 mm 0.00 in0.0 mm 0.00 in0.0 mm
01:13 AM 41.7°F5.4°C 35.7°F2.1°C 79% 0.9 mph E1.4 kmh E 1.1 mph1.8 kmh 29.85 in1010.8 mb 0.00 in0.0 mm 0.00 in0.0 mm 0.00 in0.0 mm
01:14 AM 41.9°F5.5°C 35.9°F2.2°C 79% 1.1 mph E1.8 kmh E 1.1 mph1.8 kmh 29.84 in1010.5 mb 0.00 in0.0 mm 0.00 in0.0 mm 0.00 in0.0 mm
01:15 AM 41.9°F5.5°C 35.9°F2.2°C 79% 0.7 mph E1.1 kmh E 1.1 mph1.8 kmh 29.84 in1010.5 mb 0.00 in0.0 mm 0.00 in0.0 mm 0.00 in0.0 mm
01:17 AM 41.7°F5.4°C 35.7°F2.1°C 79% 1.8 mph E2.9 kmh E 2.2 mph3.5 kmh 29.85 in1010.8 mb 0.00 in0.0 mm 0.00 in0.0 mm 0.00 in0.0 mm
01:18 AM 41.7°F5.4°C 35.7°F2.1°C 79% 2.0 mph E3.2 kmh E 3.4 mph5.5 kmh 29.84 in1010.5 mb 0.00 in0.0 mm 0.00 in0.0 mm 0.00 in0.0 mm
01:19 AM 41.7°F5.4°C 35.7°F2.1°C 79% 0.9 mph E1.4 kmh E 2.2 mph3.5 kmh 29.85 in1010.8 mb 0.00 in0.0 mm 0.00 in0.0 mm 0.00 in0.0 mm
01:20 AM 41.7°F5.4°C 35.7°F2.1°C 79% 1.3 mph ESE2.1 kmh ESE 2.2 mph3.5 kmh 29.85 in1010.8 mb 0.00 in0.0 mm 0.00 in0.0 mm 0.00 in0.0 mm
01:21 AM 41.9°F5.5°C 35.9°F2.2°C 79% 0.7 mph E1.1 kmh E 1.1 mph1.8 kmh 29.84 in1010.5 mb 0.00 in0.0 mm 0.00 in0.0 mm 0.00 in0.0 mm
01:22 AM 41.7°F5.4°C 36.0°F2.2°C 80% 3.1 mph E5.0 kmh E 3.4 mph5.5 kmh 29.84 in1010.5 mb 0.00 in0.0 mm 0.00 in0.0 mm 0.00 in0.0 mm
01:23 AM 41.7°F5.4°C 35.7°F2.1°C 79% 1.3 mph E2.1 kmh E 2.2 mph3.5 kmh 29.85 in1010.8 mb 0.00 in0.0 mm 0.00 in0.0 mm 0.00 in0.0 mm
01:24 AM 41.9°F5.5°C 35.9°F2.2°C 79% 1.8 mph ESE2.9 kmh ESE 2.2 mph3.5 kmh 29.85 in1010.8 mb 0.00 in0.0 mm 0.00 in0.0 mm 0.00 in0.0 mm
01:25 AM 41.9°F5.5°C 35.9°F2.2°C 79% 0.9 mph E1.4 kmh E 1.1 mph1.8 kmh 29.85 in1010.8 mb 0.00 in0.0 mm 0.00 in0.0 mm 0.00 in0.0 mm
01:26 AM 41.7°F5.4°C 36.0°F2.2°C 80% 0.9 mph E1.4 kmh E 2.2 mph3.5 kmh 29.85 in1010.8 mb 0.00 in0.0 mm 0.00 in0.0 mm 0.00 in0.0 mm
01:27 AM 41.7°F5.4°C 36.0°F2.2°C 80% 1.1 mph E1.8 kmh E 2.2 mph3.5 kmh 29.85 in1010.8 mb 0.00 in0.0 mm 0.00 in0.0 mm 0.00 in0.0 mm
01:28 AM 41.7°F5.4°C 36.0°F2.2°C 80% 1.8 mph E2.9 kmh E 2.2 mph3.5 kmh 29.85 in1010.8 mb 0.00 in0.0 mm 0.00 in0.0 mm 0.00 in0.0 mm
01:29 AM 41.7°F5.4°C 36.0°F2.2°C 80% 0.7 mph ESE1.1 kmh ESE 1.1 mph1.8 kmh 29.85 in1010.8 mb 0.00 in0.0 mm 0.00 in0.0 mm 0.00 in0.0 mm
01:30 AM 41.4°F5.2°C 36.0°F2.2°C 81% 1.3 mph E2.1 kmh E 2.2 mph3.5 kmh 29.85 in1010.8 mb 0.00 in0.0 mm 0.00 in0.0 mm 0.00 in0.0 mm
01:31 AM 41.4°F5.2°C 36.0°F2.2°C 81% 1.3 mph E2.1 kmh E 2.2 mph3.5 kmh 29.86 in1011.2 mb 0.00 in0.0 mm 0.00 in0.0 mm 0.00 in0.0 mm
01:32 AM 41.4°F5.2°C 36.3°F2.4°C 82% Calm Calm -- 29.85 in1010.8 mb 0.00 in0.0 mm 0.00 in0.0 mm 0.00 in0.0 mm
01:34 AM 41.4°F5.2°C 36.3°F2.4°C 82% 1.3 mph E2.1 kmh E 2.2 mph3.5 kmh 29.85 in1010.8 mb 0.00 in0.0 mm 0.00 in0.0 mm 0.00 in0.0 mm
01:35 AM 41.2°F5.1°C 36.1°F2.3°C 82% 0.2 mph E0.3 kmh E 1.1 mph1.8 kmh 29.85 in1010.8 mb 0.00 in0.0 mm 0.00 in0.0 mm 0.00 in0.0 mm
01:36 AM 41.2°F5.1°C 36.1°F2.3°C 82% 1.3 mph E2.1 kmh E 2.2 mph3.5 kmh 29.85 in1010.8 mb 0.00 in0.0 mm 0.00 in0.0 mm 0.00 in0.0 mm
01:38 AM 41.2°F5.1°C 36.1°F2.3°C 82% 1.1 mph ENE1.8 kmh ENE 2.2 mph3.5 kmh 29.86 in1011.2 mb 0.00 in0.0 mm 0.00 in0.0 mm 0.00 in0.0 mm
01:39 AM 41.2°F5.1°C 36.4°F2.4°C 83% 0.4 mph E0.6 kmh E 1.1 mph1.8 kmh 29.86 in1011.2 mb 0.00 in0.0 mm 0.00 in0.0 mm 0.00 in0.0 mm
01:41 AM 41.2°F5.1°C 36.4°F2.4°C 83% Calm Calm -- 29.85 in1010.8 mb 0.00 in0.0 mm 0.00 in0.0 mm 0.00 in0.0 mm
01:42 AM 41.2°F5.1°C 36.4°F2.4°C 83% 0.2 mph E0.3 kmh E 1.1 mph1.8 kmh 29.85 in1010.8 mb 0.00 in0.0 mm 0.00 in0.0 mm 0.00 in0.0 mm
01:43 AM 41.2°F5.1°C 36.4°F2.4°C 83% 0.7 mph E1.1 kmh E 1.1 mph1.8 kmh 29.85 in1010.8 mb 0.00 in0.0 mm 0.00 in0.0 mm 0.00 in0.0 mm
01:44 AM 41.0°F5.0°C 36.2°F2.3°C 83% 1.3 mph ESE2.1 kmh ESE 2.2 mph3.5 kmh 29.85 in1010.8 mb 0.00 in0.0 mm 0.00 in0.0 mm 0.00 in0.0 mm
01:45 AM 41.0°F5.0°C 36.2°F2.3°C 83% 0.9 mph E1.4 kmh E 1.1 mph1.8 kmh 29.84 in1010.5 mb 0.00 in0.0 mm 0.00 in0.0 mm 0.00 in0.0 mm
01:46 AM 41.0°F5.0°C 36.2°F2.3°C 83% 0.2 mph E0.3 kmh E 1.1 mph1.8 kmh 29.86 in1011.2 mb 0.00 in0.0 mm 0.00 in0.0 mm 0.00 in0.0 mm
01:47 AM 41.0°F5.0°C 36.2°F2.3°C 83% 0.9 mph E1.4 kmh E 1.1 mph1.8 kmh 29.85 in1010.8 mb 0.00 in0.0 mm 0.00 in0.0 mm 0.00 in0.0 mm
01:48 AM 41.0°F5.0°C 36.2°F2.3°C 83% 0.9 mph E1.4 kmh E 1.1 mph1.8 kmh 29.85 in1010.8 mb 0.00 in0.0 mm 0.00 in0.0 mm 0.00 in0.0 mm
01:49 AM 40.8°F4.9°C 36.3°F2.4°C 84% Calm Calm -- 29.86 in1011.2 mb 0.00 in0.0 mm 0.00 in0.0 mm 0.00 in0.0 mm
01:51 AM 40.8°F4.9°C 36.3°F2.4°C 84% 0.7 mph E1.1 kmh E 1.1 mph1.8 kmh 29.86 in1011.2 mb 0.00 in0.0 mm 0.00 in0.0 mm 0.00 in0.0 mm
01:52 AM 40.8°F4.9°C 36.3°F2.4°C 84% 1.3 mph E2.1 kmh E 2.2 mph3.5 kmh 29.85 in1010.8 mb 0.00 in0.0 mm 0.00 in0.0 mm 0.00 in0.0 mm
01:53 AM 40.8°F4.9°C 36.3°F2.4°C 84% 0.9 mph E1.4 kmh E 1.1 mph1.8 kmh 29.85 in1010.8 mb 0.00 in0.0 mm 0.00 in0.0 mm 0.00 in0.0 mm
01:54 AM 40.8°F4.9°C 36.6°F2.6°C 85% 1.1 mph E1.8 kmh E 1.1 mph1.8 kmh 29.85 in1010.8 mb 0.00 in0.0 mm 0.00 in0.0 mm 0.00 in0.0 mm
01:55 AM 40.6°F4.8°C 36.2°F2.3°C 84% 1.3 mph SE2.1 kmh SE 2.2 mph3.5 kmh 29.86 in1011.2 mb 0.00 in0.0 mm 0.00 in0.0 mm 0.00 in0.0 mm
01:56 AM 40.6°F4.8°C 36.4°F2.4°C 85% 0.2 mph E0.3 kmh E 1.1 mph1.8 kmh 29.86 in1011.2 mb 0.00 in0.0 mm 0.00 in0.0 mm 0.00 in0.0 mm
01:57 AM 40.6°F4.8°C 36.4°F2.4°C 85% 1.3 mph E2.1 kmh E 2.2 mph3.5 kmh 29.86 in1011.2 mb 0.00 in0.0 mm 0.00 in0.0 mm 0.00 in0.0 mm
01:58 AM 40.6°F4.8°C 36.2°F2.3°C 84% 1.3 mph E2.1 kmh E 2.2 mph3.5 kmh 29.86 in1011.2 mb 0.00 in0.0 mm 0.00 in0.0 mm 0.00 in0.0 mm
02:00 AM 40.5°F4.7°C 36.1°F2.3°C 84% 0.7 mph E1.1 kmh E 1.1 mph1.8 kmh 29.86 in1011.2 mb 0.00 in0.0 mm 0.00 in0.0 mm 0.00 in0.0 mm
02:01 AM 40.5°F4.7°C 36.1°F2.3°C 84% 0.9 mph E1.4 kmh E 1.1 mph1.8 kmh 29.86 in1011.2 mb 0.00 in0.0 mm 0.00 in0.0 mm 0.00 in0.0 mm
02:02 AM 40.5°F4.7°C 36.4°F2.4°C 85% 1.1 mph ESE1.8 kmh ESE 2.2 mph3.5 kmh 29.86 in1011.2 mb 0.00 in0.0 mm 0.00 in0.0 mm 0.00 in0.0 mm
02:03 AM 40.5°F4.7°C 36.1°F2.3°C 84% 1.1 mph E1.8 kmh E 1.1 mph1.8 kmh 29.86 in1011.2 mb 0.00 in0.0 mm 0.00 in0.0 mm 0.00 in0.0 mm
02:04 AM 40.5°F4.7°C 36.4°F2.4°C 85% 0.4 mph E0.6 kmh E 1.1 mph1.8 kmh 29.86 in1011.2 mb 0.00 in0.0 mm 0.00 in0.0 mm 0.00 in0.0 mm
02:05 AM 40.5°F4.7°C 36.4°F2.4°C 85% 1.8 mph E2.9 kmh E 2.2 mph3.5 kmh 29.86 in1011.2 mb 0.00 in0.0 mm 0.00 in0.0 mm 0.00 in0.0 mm
02:06 AM 40.5°F4.7°C 36.4°F2.4°C 85% 0.2 mph E0.3 kmh E 1.1 mph1.8 kmh 29.86 in1011.2 mb 0.00 in0.0 mm 0.00 in0.0 mm 0.00 in0.0 mm
02:07 AM 40.5°F4.7°C 36.1°F2.3°C 84% 0.2 mph E0.3 kmh E 1.1 mph1.8 kmh 29.86 in1011.2 mb 0.00 in0.0 mm 0.00 in0.0 mm 0.00 in0.0 mm
02:08 AM 40.5°F4.7°C 36.4°F2.4°C 85% 0.9 mph E1.4 kmh E 1.1 mph1.8 kmh 29.86 in1011.2 mb 0.00 in0.0 mm 0.00 in0.0 mm 0.00 in0.0 mm
02:09 AM 40.5°F4.7°C 36.4°F2.4°C 85% 0.9 mph E1.4 kmh E 2.2 mph3.5 kmh 29.86 in1011.2 mb 0.00 in0.0 mm 0.00 in0.0 mm 0.00 in0.0 mm
02:10 AM 40.5°F4.7°C 36.4°F2.4°C 85% Calm Calm -- 29.86 in1011.2 mb 0.00 in0.0 mm 0.00 in0.0 mm 0.00 in0.0 mm
02:11 AM 40.5°F4.7°C 36.4°F2.4°C 85% 0.9 mph E1.4 kmh E 1.1 mph1.8 kmh 29.86 in1011.2 mb 0.00 in0.0 mm 0.00 in0.0 mm 0.00 in0.0 mm
02:12 AM 40.5°F4.7°C 36.4°F2.4°C 85% 0.9 mph E1.4 kmh E 1.1 mph1.8 kmh 29.86 in1011.2 mb 0.00 in0.0 mm 0.00 in0.0 mm 0.00 in0.0 mm
02:13 AM 40.5°F4.7°C 36.1°F2.3°C 84% Calm Calm -- 29.86 in1011.2 mb 0.00 in0.0 mm 0.00 in0.0 mm 0.00 in0.0 mm
02:15 AM 40.5°F4.7°C 36.1°F2.3°C 84% 0.9 mph E1.4 kmh E 1.1 mph1.8 kmh 29.86 in1011.2 mb 0.00 in0.0 mm 0.00 in0.0 mm 0.00 in0.0 mm
02:16 AM 40.6°F4.8°C 36.2°F2.3°C 84% 0.2 mph E0.3 kmh E 1.1 mph1.8 kmh 29.86 in1011.2 mb 0.00 in0.0 mm 0.00 in0.0 mm 0.00 in0.0 mm
02:18 AM 40.6°F4.8°C 36.2°F2.3°C 84% 1.3 mph E2.1 kmh E 2.2 mph3.5 kmh 29.86 in1011.2 mb 0.00 in0.0 mm 0.00 in0.0 mm 0.00 in0.0 mm
02:19 AM 40.6°F4.8°C 36.2°F2.3°C 84% Calm Calm -- 29.86 in1011.2 mb 0.00 in0.0 mm 0.00 in0.0 mm 0.00 in0.0 mm
02:20 AM 40.6°F4.8°C 36.2°F2.3°C 84% Calm Calm -- 29.86 in1011.2 mb 0.00 in0.0 mm 0.00 in0.0 mm 0.00 in0.0 mm
02:21 AM 40.6°F4.8°C 36.2°F2.3°C 84% 0.2 mph E0.3 kmh E 1.1 mph1.8 kmh 29.86 in1011.2 mb 0.00 in0.0 mm 0.00 in0.0 mm 0.00 in0.0 mm
02:23 AM 40.6°F4.8°C 36.2°F2.3°C 84% 0.9 mph E1.4 kmh E 1.1 mph1.8 kmh 29.86 in1011.2 mb 0.00 in0.0 mm 0.00 in0.0 mm 0.00 in0.0 mm
02:24 AM 40.5°F4.7°C 36.1°F2.3°C 84% 0.7 mph E1.1 kmh E 1.1 mph1.8 kmh 29.86 in1011.2 mb 0.00 in0.0 mm 0.00 in0.0 mm 0.00 in0.0 mm
02:25 AM 40.5°F4.7°C 36.1°F2.3°C 84% 1.1 mph ESE1.8 kmh ESE 1.1 mph1.8 kmh 29.85 in1010.8 mb 0.00 in0.0 mm 0.00 in0.0 mm 0.00 in0.0 mm
02:26 AM 40.5°F4.7°C 36.1°F2.3°C 84% 0.9 mph ESE1.4 kmh ESE 1.1 mph1.8 kmh 29.86 in1011.2 mb 0.00 in0.0 mm 0.00 in0.0 mm 0.00 in0.0 mm
02:27 AM 40.5°F4.7°C 36.4°F2.4°C 85% 0.9 mph E1.4 kmh E 1.1 mph1.8 kmh 29.86 in1011.2 mb 0.00 in0.0 mm 0.00 in0.0 mm 0.00 in0.0 mm
02:28 AM 40.5°F4.7°C 36.1°F2.3°C 84% 2.0 mph ESE3.2 kmh ESE 2.2 mph3.5 kmh 29.86 in1011.2 mb 0.00 in0.0 mm 0.00 in0.0 mm 0.00 in0.0 mm
02:29 AM 40.5°F4.7°C 36.1°F2.3°C 84% 1.3 mph ESE2.1 kmh ESE 2.2 mph3.5 kmh 29.85 in1010.8 mb 0.00 in0.0 mm 0.00 in0.0 mm 0.00 in0.0 mm
02:30 AM 40.5°F4.7°C 36.1°F2.3°C 84% Calm Calm -- 29.86 in1011.2 mb 0.00 in0.0 mm 0.00 in0.0 mm 0.00 in0.0 mm
02:31 AM 40.5°F4.7°C 36.4°F2.4°C 85% Calm Calm -- 29.85 in1010.8 mb 0.00 in0.0 mm 0.00 in0.0 mm 0.00 in0.0 mm
02:32 AM 40.5°F4.7°C 36.4°F2.4°C 85% Calm Calm -- 29.85 in1010.8 mb 0.00 in0.0 mm 0.00 in0.0 mm 0.00 in0.0 mm
02:33 AM 40.5°F4.7°C 36.6°F2.6°C 86% Calm Calm -- 29.86 in1011.2 mb 0.00 in0.0 mm 0.00 in0.0 mm 0.00 in0.0 mm
02:34 AM 40.5°F4.7°C 36.6°F2.6°C 86% Calm Calm -- 29.86 in1011.2 mb 0.00 in0.0 mm 0.00 in0.0 mm 0.00 in0.0 mm
02:35 AM 40.5°F4.7°C 36.6°F2.6°C 86% Calm Calm -- 29.86 in1011.2 mb 0.00 in0.0 mm 0.00 in0.0 mm 0.00 in0.0 mm
02:36 AM 40.5°F4.7°C 36.6°F2.6°C 86% Calm Calm -- 29.86 in1011.2 mb 0.00 in0.0 mm 0.00 in0.0 mm 0.00 in0.0 mm
02:38 AM 40.5°F4.7°C 36.6°F2.6°C 86% 1.3 mph ESE2.1 kmh ESE 2.2 mph3.5 kmh 29.86 in1011.2 mb 0.00 in0.0 mm 0.00 in0.0 mm 0.00 in0.0 mm
02:39 AM 40.5°F4.7°C 37.2°F2.9°C 88% 0.2 mph ESE0.3 kmh ESE 1.1 mph1.8 kmh 29.85 in1010.8 mb 0.00 in0.0 mm 0.00 in0.0 mm 0.00 in0.0 mm
02:41 AM 40.5°F4.7°C 37.2°F2.9°C 88% 2.2 mph SSE3.5 kmh SSE 2.2 mph3.5 kmh 29.86 in1011.2 mb 0.00 in0.0 mm 0.00 in0.0 mm 0.00 in0.0 mm
02:42 AM 40.5°F4.7°C 36.9°F2.7°C 87% 0.2 mph SE0.3 kmh SE 1.1 mph1.8 kmh 29.86 in1011.2 mb 0.00 in0.0 mm 0.00 in0.0 mm 0.00 in0.0 mm
02:43 AM 40.5°F4.7°C 37.2°F2.9°C 88% Calm Calm -- 29.86 in1011.2 mb 0.00 in0.0 mm 0.00 in0.0 mm 0.00 in0.0 mm
02:44 AM 40.5°F4.7°C 37.2°F2.9°C 88% 1.1 mph ENE1.8 kmh ENE 2.2 mph3.5 kmh 29.85 in1010.8 mb 0.00 in0.0 mm 0.00 in0.0 mm 0.00 in0.0 mm
02:45 AM 40.5°F4.7°C 36.9°F2.7°C 87% 2.5 mph N4.0 kmh N 3.4 mph5.5 kmh 29.86 in1011.2 mb 0.00 in0.0 mm 0.00 in0.0 mm 0.00 in0.0 mm
02:46 AM 40.5°F4.7°C 36.9°F2.7°C 87% 2.2 mph NNE3.5 kmh NNE 2.2 mph3.5 kmh 29.86 in1011.2 mb 0.00 in0.0 mm 0.00 in0.0 mm 0.00 in0.0 mm
02:47 AM 40.5°F4.7°C 36.4°F2.4°C 85% 1.3 mph NNE2.1 kmh NNE 2.2 mph3.5 kmh 29.86 in1011.2 mb 0.00 in0.0 mm 0.00 in0.0 mm 0.00 in0.0 mm
02:49 AM 40.5°F4.7°C 36.6°F2.6°C 86% 1.1 mph NE1.8 kmh NE 1.1 mph1.8 kmh 29.86 in1011.2 mb 0.00 in0.0 mm 0.00 in0.0 mm 0.00 in0.0 mm
02:51 AM 40.5°F4.7°C 36.6°F2.6°C 86% 0.7 mph NE1.1 kmh NE 1.1 mph1.8 kmh 29.85 in1010.8 mb 0.00 in0.0 mm 0.00 in0.0 mm 0.00 in0.0 mm
02:52 AM 40.3°F4.6°C 36.2°F2.3°C 85% Calm Calm -- 29.86 in1011.2 mb 0.00 in0.0 mm 0.00 in0.0 mm 0.00 in0.0 mm
02:53 AM 40.3°F4.6°C 36.7°F2.6°C 87% Calm Calm -- 29.86 in1011.2 mb 0.00 in0.0 mm 0.00 in0.0 mm 0.00 in0.0 mm
02:54 AM 40.3°F4.6°C 36.7°F2.6°C 87% Calm Calm -- 29.86 in1011.2 mb 0.00 in0.0 mm 0.00 in0.0 mm 0.00 in0.0 mm
02:55 AM 40.5°F4.7°C 36.9°F2.7°C 87% Calm Calm -- 29.86 in1011.2 mb 0.00 in0.0 mm 0.00 in0.0 mm 0.00 in0.0 mm
02:56 AM 40.5°F4.7°C 36.9°F2.7°C 87% Calm Calm -- 29.85 in1010.8 mb 0.00 in0.0 mm 0.00 in0.0 mm 0.00 in0.0 mm
02:58 AM 40.3°F4.6°C 36.7°F2.6°C 87% Calm Calm -- 29.86 in1011.2 mb 0.00 in0.0 mm 0.00 in0.0 mm 0.00 in0.0 mm
02:59 AM 40.3°F4.6°C 36.5°F2.5°C 86% 0.7 mph NE1.1 kmh NE 1.1 mph1.8 kmh 29.86 in1011.2 mb 0.00 in0.0 mm 0.00 in0.0 mm 0.00 in0.0 mm
03:00 AM 40.3°F4.6°C 36.7°F2.6°C 87% Calm Calm -- 29.85 in1010.8 mb 0.00 in0.0 mm 0.00 in0.0 mm 0.00 in0.0 mm
03:01 AM 40.3°F4.6°C 36.7°F2.6°C 87% Calm Calm -- 29.85 in1010.8 mb 0.00 in0.0 mm 0.00 in0.0 mm 0.00 in0.0 mm
03:02 AM 40.3°F4.6°C 36.7°F2.6°C 87% Calm Calm -- 29.85 in1010.8 mb 0.00 in0.0 mm 0.00 in0.0 mm 0.00 in0.0 mm
03:04 AM 40.3°F4.6°C 36.5°F2.5°C 86% Calm Calm -- 29.86 in1011.2 mb 0.00 in0.0 mm 0.00 in0.0 mm 0.00 in0.0 mm
03:05 AM 40.1°F4.5°C 36.0°F2.2°C 85% Calm Calm -- 29.86 in1011.2 mb 0.07 in1.8 mm 4.20 in106.7 mm 0.01 in0.3 mm
03:06 AM 40.1°F4.5°C 35.7°F2.1°C 84% 0.9 mph ENE1.4 kmh ENE 1.1 mph1.8 kmh 29.86 in1011.2 mb 0.07 in1.8 mm 0.00 in0.0 mm 0.01 in0.3 mm
03:07 AM 39.9°F4.4°C 35.5°F1.9°C 84% 0.9 mph E1.4 kmh E 1.1 mph1.8 kmh 29.86 in1011.2 mb 0.07 in1.8 mm 0.00 in0.0 mm 0.01 in0.3 mm
03:08 AM 39.7°F4.3°C 35.6°F2.0°C 85% 0.2 mph E0.3 kmh E 1.1 mph1.8 kmh 29.85 in1010.8 mb 0.07 in1.8 mm 0.00 in0.0 mm 0.01 in0.3 mm
03:09 AM 39.7°F4.3°C 35.3°F1.8°C 84% 0.2 mph E0.3 kmh E 1.1 mph1.8 kmh 29.86 in1011.2 mb 0.07 in1.8 mm 0.00 in0.0 mm 0.01 in0.3 mm
03:10 AM 39.7°F4.3°C 35.9°F2.2°C 86% Calm Calm -- 29.85 in1010.8 mb 0.12 in3.0 mm 3.00 in76.2 mm 0.02 in0.5 mm
03:12 AM 39.7°F4.3°C 35.9°F2.2°C 86% Calm Calm -- 29.85 in1010.8 mb 0.12 in3.0 mm 0.00 in0.0 mm 0.02 in0.5 mm
03:13 AM 39.7°F4.3°C 35.9°F2.2°C 86% 0.2 mph E0.3 kmh E 1.1 mph1.8 kmh 29.85 in1010.8 mb 0.12 in3.0 mm 0.00 in0.0 mm 0.02 in0.5 mm
03:14 AM 39.7°F4.3°C 35.9°F2.2°C 86% 0.7 mph E1.1 kmh E 1.1 mph1.8 kmh 29.86 in1011.2 mb 0.12 in3.0 mm 0.00 in0.0 mm 0.03 in0.8 mm
03:15 AM 39.6°F4.2°C 36.1°F2.3°C 87% Calm Calm -- 29.86 in1011.2 mb 0.12 in3.0 mm 0.00 in0.0 mm 0.03 in0.8 mm
03:16 AM 39.6°F4.2°C 36.1°F2.3°C 87% 0.2 mph E0.3 kmh E 1.1 mph1.8 kmh 29.85 in1010.8 mb 0.12 in3.0 mm 0.00 in0.0 mm 0.03 in0.8 mm
03:17 AM 39.6°F4.2°C 36.1°F2.3°C 87% 0.9 mph E1.4 kmh E 1.1 mph1.8 kmh 29.86 in1011.2 mb 0.12 in3.0 mm 0.00 in0.0 mm 0.03 in0.8 mm
03:18 AM 39.4°F4.1°C 35.9°F2.2°C 87% 0.2 mph ENE0.3 kmh ENE 1.1 mph1.8 kmh 29.85 in1010.8 mb 0.12 in3.0 mm 0.00 in0.0 mm 0.03 in0.8 mm
03:19 AM 39.4°F4.1°C 35.6°F2.0°C 86% 0.2 mph ENE0.3 kmh ENE 1.1 mph1.8 kmh 29.85 in1010.8 mb 0.12 in3.0 mm 0.00 in0.0 mm 0.03 in0.8 mm
03:20 AM 39.4°F4.1°C 35.3°F1.8°C 85% Calm Calm -- 29.85 in1010.8 mb 0.07 in1.8 mm 0.00 in0.0 mm 0.03 in0.8 mm
03:21 AM 39.4°F4.1°C 35.3°F1.8°C 85% Calm Calm -- 29.85 in1010.8 mb 0.07 in1.8 mm 0.00 in0.0 mm 0.03 in0.8 mm
03:22 AM 39.4°F4.1°C 36.1°F2.3°C 88% Calm Calm -- 29.86 in1011.2 mb 0.12 in3.0 mm 3.00 in76.2 mm 0.04 in1.0 mm
03:23 AM 39.4°F4.1°C 36.4°F2.4°C 89% Calm Calm -- 29.86 in1011.2 mb 0.12 in3.0 mm 0.00 in0.0 mm 0.04 in1.0 mm
03:24 AM 39.4°F4.1°C 36.4°F2.4°C 89% Calm Calm -- 29.85 in1010.8 mb 0.05 in1.3 mm 0.00 in0.0 mm 0.04 in1.0 mm
03:25 AM 39.4°F4.1°C 36.7°F2.6°C 90% Calm Calm -- 29.86 in1011.2 mb 0.05 in1.3 mm 0.00 in0.0 mm 0.04 in1.0 mm
03:26 AM 39.2°F4.0°C 36.5°F2.5°C 90% Calm Calm -- 29.85 in1010.8 mb 0.05 in1.3 mm 0.00 in0.0 mm 0.04 in1.0 mm
03:27 AM 39.2°F4.0°C 36.2°F2.3°C 89% 0.9 mph ENE1.4 kmh ENE 1.1 mph1.8 kmh 29.86 in1011.2 mb 0.05 in1.3 mm 0.00 in0.0 mm 0.04 in1.0 mm
03:28 AM 39.2°F4.0°C 36.2°F2.3°C 89% Calm Calm -- 29.85 in1010.8 mb 0.05 in1.3 mm 0.00 in0.0 mm 0.04 in1.0 mm
03:29 AM 39.0°F3.9°C 35.8°F2.1°C 88% Calm Calm -- 29.85 in1010.8 mb 0.05 in1.3 mm 0.00 in0.0 mm 0.04 in1.0 mm
03:30 AM 39.0°F3.9°C 35.8°F2.1°C 88% Calm Calm -- 29.85 in1010.8 mb 0.05 in1.3 mm 0.00 in0.0 mm 0.04 in1.0 mm
03:31 AM 39.0°F3.9°C 35.5°F1.9°C 87% Calm Calm -- 29.85 in1010.8 mb 0.05 in1.3 mm 0.00 in0.0 mm 0.04 in1.0 mm
03:33 AM 39.0°F3.9°C 36.0°F2.2°C 89% Calm Calm -- 29.85 in1010.8 mb 0.00 in0.0 mm 0.00 in0.0 mm 0.04 in1.0 mm
03:34 AM 39.0°F3.9°C 36.0°F2.2°C 89% 0.2 mph ENE0.3 kmh ENE 1.1 mph1.8 kmh 29.86 in1011.2 mb 0.00 in0.0 mm 0.00 in0.0 mm 0.04 in1.0 mm
03:35 AM 39.0°F3.9°C 36.0°F2.2°C 89% 0.9 mph E1.4 kmh E 1.1 mph1.8 kmh 29.85 in1010.8 mb 0.00 in0.0 mm 0.00 in0.0 mm 0.04 in1.0 mm
03:36 AM 39.0°F3.9°C 35.8°F2.1°C 88% 1.8 mph S2.9 kmh S 2.2 mph3.5 kmh 29.85 in1010.8 mb 0.00 in0.0 mm 0.00 in0.0 mm 0.04 in1.0 mm
03:37 AM 39.0°F3.9°C 35.5°F1.9°C 87% 2.2 mph SW3.5 kmh SW 3.4 mph5.5 kmh 29.85 in1010.8 mb 0.00 in0.0 mm 0.00 in0.0 mm 0.04 in1.0 mm
03:38 AM 38.8°F3.8°C 35.6°F2.0°C 88% 1.1 mph SE1.8 kmh SE 1.1 mph1.8 kmh 29.85 in1010.8 mb 0.00 in0.0 mm 0.00 in0.0 mm 0.04 in1.0 mm
03:39 AM 38.7°F3.7°C 35.7°F2.1°C 89% Calm Calm -- 29.85 in1010.8 mb 0.00 in0.0 mm 0.00 in0.0 mm 0.04 in1.0 mm
03:40 AM 38.7°F3.7°C 35.5°F1.9°C 88% Calm Calm -- 29.85 in1010.8 mb 0.00 in0.0 mm 0.00 in0.0 mm 0.04 in1.0 mm
03:41 AM 38.7°F3.7°C 35.5°F1.9°C 88% 0.2 mph ESE0.3 kmh ESE 1.1 mph1.8 kmh 29.85 in1010.8 mb 0.07 in1.8 mm 4.20 in106.7 mm 0.05 in1.3 mm
03:42 AM 38.7°F3.7°C 35.7°F2.1°C 89% Calm Calm -- 29.85 in1010.8 mb 0.07 in1.8 mm 0.00 in0.0 mm 0.05 in1.3 mm
03:43 AM 38.7°F3.7°C 35.7°F2.1°C 89% Calm Calm -- 29.85 in1010.8 mb 0.07 in1.8 mm 0.00 in0.0 mm 0.05 in1.3 mm
03:44 AM 38.7°F3.7°C 35.7°F2.1°C 89% Calm Calm -- 29.86 in1011.2 mb 0.07 in1.8 mm 0.00 in0.0 mm 0.05 in1.3 mm
03:46 AM 38.7°F3.7°C 36.0°F2.2°C 90% Calm Calm -- 29.85 in1010.8 mb 0.07 in1.8 mm 0.00 in0.0 mm 0.05 in1.3 mm
03:47 AM 38.7°F3.7°C 36.0°F2.2°C 90% 0.9 mph ESE1.4 kmh ESE 1.1 mph1.8 kmh 29.86 in1011.2 mb 0.07 in1.8 mm 0.00 in0.0 mm 0.05 in1.3 mm
03:48 AM 38.7°F3.7°C 36.0°F2.2°C 90% 1.3 mph SE2.1 kmh SE 2.2 mph3.5 kmh 29.85 in1010.8 mb 0.07 in1.8 mm 0.00 in0.0 mm 0.05 in1.3 mm
03:50 AM 38.8°F3.8°C 35.3°F1.8°C 87% Calm Calm -- 29.85 in1010.8 mb 0.00 in0.0 mm 0.00 in0.0 mm 0.05 in1.3 mm
03:51 AM 38.8°F3.8°C 35.6°F2.0°C 88% Calm Calm -- 29.85 in1010.8 mb 0.00 in0.0 mm 0.00 in0.0 mm 0.05 in1.3 mm
03:52 AM 38.8°F3.8°C 35.6°F2.0°C 88% Calm Calm -- 29.85 in1010.8 mb 0.00 in0.0 mm 0.00 in0.0 mm 0.05 in1.3 mm
03:53 AM 38.8°F3.8°C 35.8°F2.1°C 89% 0.2 mph ESE0.3 kmh ESE 1.1 mph1.8 kmh 29.85 in1010.8 mb 0.00 in0.0 mm 0.00 in0.0 mm 0.05 in1.3 mm
03:54 AM 38.8°F3.8°C 36.1°F2.3°C 90% Calm Calm -- 29.84 in1010.5 mb 0.00 in0.0 mm 0.00 in0.0 mm 0.05 in1.3 mm
03:55 AM 38.8°F3.8°C 36.4°F2.4°C 91% 0.4 mph ESE0.6 kmh ESE 1.1 mph1.8 kmh 29.86 in1011.2 mb 0.00 in0.0 mm 0.00 in0.0 mm 0.05 in1.3 mm
03:56 AM 38.8°F3.8°C 36.4°F2.4°C 91% 0.7 mph ESE1.1 kmh ESE 1.1 mph1.8 kmh 29.85 in1010.8 mb 0.05 in1.3 mm 3.00 in76.2 mm 0.06 in1.5 mm
03:57 AM 38.8°F3.8°C 36.1°F2.3°C 90% 0.9 mph ESE1.4 kmh ESE 1.1 mph1.8 kmh 29.85 in1010.8 mb 0.05 in1.3 mm 0.00 in0.0 mm 0.06 in1.5 mm
03:58 AM 38.8°F3.8°C 35.8°F2.1°C 89% 0.2 mph ESE0.3 kmh ESE 1.1 mph1.8 kmh 29.85 in1010.8 mb 0.05 in1.3 mm 0.00 in0.0 mm 0.06 in1.5 mm
03:59 AM 38.8°F3.8°C 35.8°F2.1°C 89% Calm Calm -- 29.85 in1010.8 mb 0.05 in1.3 mm 0.00 in0.0 mm 0.06 in1.5 mm
04:00 AM 38.8°F3.8°C 35.8°F2.1°C 89% Calm Calm -- 29.85 in1010.8 mb 0.05 in1.3 mm 0.00 in0.0 mm 0.06 in1.5 mm
04:01 AM 38.8°F3.8°C 35.8°F2.1°C 89% Calm Calm -- 29.85 in1010.8 mb 0.05 in1.3 mm 0.00 in0.0 mm 0.06 in1.5 mm
04:02 AM 38.8°F3.8°C 36.1°F2.3°C 90% Calm Calm -- 29.84 in1010.5 mb 0.05 in1.3 mm 0.00 in0.0 mm 0.06 in1.5 mm
04:03 AM 38.8°F3.8°C 36.1°F2.3°C 90% Calm Calm -- 29.85 in1010.8 mb 0.05 in1.3 mm 0.00 in0.0 mm 0.06 in1.5 mm
04:04 AM 38.8°F3.8°C 36.1°F2.3°C 90% Calm Calm -- 29.85 in1010.8 mb 0.05 in1.3 mm 0.00 in0.0 mm 0.06 in1.5 mm
04:05 AM 38.8°F3.8°C 36.1°F2.3°C 90% Calm Calm -- 29.85 in1010.8 mb 0.00 in0.0 mm 0.00 in0.0 mm 0.06 in1.5 mm
04:06 AM 38.7°F3.7°C 36.0°F2.2°C 90% Calm Calm -- 29.86 in1011.2 mb 0.00 in0.0 mm 0.00 in0.0 mm 0.06 in1.5 mm
04:07 AM 38.7°F3.7°C 35.7°F2.1°C 89% 1.8 mph SE2.9 kmh SE 2.2 mph3.5 kmh 29.85 in1010.8 mb 0.00 in0.0 mm 0.00 in0.0 mm 0.06 in1.5 mm
04:08 AM 38.7°F3.7°C 35.7°F2.1°C 89% 1.1 mph SE1.8 kmh SE 1.1 mph1.8 kmh 29.85 in1010.8 mb 0.00 in0.0 mm 0.00 in0.0 mm 0.06 in1.5 mm
04:09 AM 38.8°F3.8°C 35.8°F2.1°C 89% 0.4 mph ESE0.6 kmh ESE 1.1 mph1.8 kmh 29.85 in1010.8 mb 0.00 in0.0 mm 0.00 in0.0 mm 0.06 in1.5 mm
04:10 AM 38.8°F3.8°C 35.8°F2.1°C 89% 0.2 mph ESE0.3 kmh ESE 1.1 mph1.8 kmh 29.85 in1010.8 mb 0.00 in0.0 mm 0.00 in0.0 mm 0.06 in1.5 mm
04:11 AM 38.8°F3.8°C 35.6°F2.0°C 88% 1.1 mph ESE1.8 kmh ESE 1.1 mph1.8 kmh 29.85 in1010.8 mb 0.00 in0.0 mm 0.00 in0.0 mm 0.06 in1.5 mm
04:13 AM 39.0°F3.9°C 35.8°F2.1°C 88% 0.7 mph ESE1.1 kmh ESE 1.1 mph1.8 kmh 29.85 in1010.8 mb 0.00 in0.0 mm 0.00 in0.0 mm 0.06 in1.5 mm
04:14 AM 39.0°F3.9°C 35.8°F2.1°C 88% 1.3 mph ESE2.1 kmh ESE 2.2 mph3.5 kmh 29.85 in1010.8 mb 0.07 in1.8 mm 4.20 in106.7 mm 0.07 in1.8 mm
04:15 AM 39.0°F3.9°C 35.8°F2.1°C 88% 0.7 mph ESE1.1 kmh ESE 1.1 mph1.8 kmh 29.85 in1010.8 mb 0.07 in1.8 mm 0.00 in0.0 mm 0.07 in1.8 mm
04:16 AM 39.0°F3.9°C 35.8°F2.1°C 88% Calm Calm -- 29.85 in1010.8 mb 0.07 in1.8 mm 0.00 in0.0 mm 0.07 in1.8 mm
04:17 AM 39.0°F3.9°C 35.8°F2.1°C 88% 0.7 mph ESE1.1 kmh ESE 1.1 mph1.8 kmh 29.85 in1010.8 mb 0.07 in1.8 mm 0.00 in0.0 mm 0.07 in1.8 mm
04:18 AM 39.0°F3.9°C 35.8°F2.1°C 88% 0.2 mph ESE0.3 kmh ESE 1.1 mph1.8 kmh 29.85 in1010.8 mb 0.07 in1.8 mm 0.00 in0.0 mm 0.07 in1.8 mm
04:19 AM 39.0°F3.9°C 35.8°F2.1°C 88% 1.1 mph SE1.8 kmh SE 1.1 mph1.8 kmh 29.86 in1011.2 mb 0.07 in1.8 mm 0.00 in0.0 mm 0.07 in1.8 mm
04:20 AM 39.0°F3.9°C 35.8°F2.1°C 88% Calm Calm -- 29.85 in1010.8 mb 0.07 in1.8 mm 0.00 in0.0 mm 0.07 in1.8 mm
04:22 AM 38.8°F3.8°C 35.8°F2.1°C 89% 0.7 mph SE1.1 kmh SE 1.1 mph1.8 kmh 29.86 in1011.2 mb 0.07 in1.8 mm 0.00 in0.0 mm 0.07 in1.8 mm
04:25 AM 38.8°F3.8°C 35.8°F2.1°C 89% Calm Calm -- 29.86 in1011.2 mb 0.00 in0.0 mm 0.00 in0.0 mm 0.07 in1.8 mm
04:26 AM 38.7°F3.7°C 36.0°F2.2°C 90% 0.2 mph ESE0.3 kmh ESE 1.1 mph1.8 kmh 29.86 in1011.2 mb 0.00 in0.0 mm 0.00 in0.0 mm 0.07 in1.8 mm
04:27 AM 38.8°F3.8°C 36.4°F2.4°C 91% Calm Calm -- 29.86 in1011.2 mb 0.00 in0.0 mm 0.00 in0.0 mm 0.07 in1.8 mm
04:28 AM 38.8°F3.8°C 36.4°F2.4°C 91% Calm Calm -- 29.86 in1011.2 mb 0.00 in0.0 mm 0.00 in0.0 mm 0.07 in1.8 mm
04:29 AM 38.8°F3.8°C 36.1°F2.3°C 90% 0.4 mph ESE0.6 kmh ESE 1.1 mph1.8 kmh 29.86 in1011.2 mb 0.00 in0.0 mm 0.00 in0.0 mm 0.07 in1.8 mm
04:30 AM 38.7°F3.7°C 36.0°F2.2°C 90% 0.9 mph ESE1.4 kmh ESE 1.1 mph1.8 kmh 29.85 in1010.8 mb 0.00 in0.0 mm 0.00 in0.0 mm 0.07 in1.8 mm
04:31 AM 38.7°F3.7°C 36.0°F2.2°C 90% 0.9 mph ESE1.4 kmh ESE 1.1 mph1.8 kmh 29.86 in1011.2 mb 0.00 in0.0 mm 0.00 in0.0 mm 0.07 in1.8 mm
04:32 AM 38.7°F3.7°C 36.0°F2.2°C 90% Calm Calm -- 29.86 in1011.2 mb 0.00 in0.0 mm 0.00 in0.0 mm 0.07 in1.8 mm
04:33 AM 38.7°F3.7°C 36.3°F2.4°C 91% Calm Calm -- 29.85 in1010.8 mb 0.00 in0.0 mm 0.00 in0.0 mm 0.07 in1.8 mm
04:35 AM 38.7°F3.7°C 36.3°F2.4°C 91% Calm Calm -- 29.86 in1011.2 mb 0.00 in0.0 mm 0.00 in0.0 mm 0.07 in1.8 mm
04:37 AM 38.7°F3.7°C 36.6°F2.6°C 92% Calm Calm -- 29.86 in1011.2 mb 0.00 in0.0 mm 0.00 in0.0 mm 0.07 in1.8 mm
04:38 AM 38.7°F3.7°C 36.6°F2.6°C 92% Calm Calm -- 29.86 in1011.2 mb 0.00 in0.0 mm 0.00 in0.0 mm 0.07 in1.8 mm
04:39 AM 38.7°F3.7°C 36.6°F2.6°C 92% Calm Calm -- 29.86 in1011.2 mb 0.00 in0.0 mm 0.00 in0.0 mm 0.07 in1.8 mm
04:40 AM 38.7°F3.7°C 36.3°F2.4°C 91% Calm Calm -- 29.85 in1010.8 mb 0.00 in0.0 mm 0.00 in0.0 mm 0.07 in1.8 mm
04:41 AM 38.7°F3.7°C 36.3°F2.4°C 91% 0.2 mph ESE0.3 kmh ESE 1.1 mph1.8 kmh 29.86 in1011.2 mb 0.05 in1.3 mm 3.00 in76.2 mm 0.08 in2.0 mm
04:42 AM 38.7°F3.7°C 36.0°F2.2°C 90% 1.3 mph ESE2.1 kmh ESE 2.2 mph3.5 kmh 29.86 in1011.2 mb 0.05 in1.3 mm 0.00 in0.0 mm 0.08 in2.0 mm
04:43 AM 38.7°F3.7°C 36.0°F2.2°C 90% 0.9 mph SE1.4 kmh SE 1.1 mph1.8 kmh 29.86 in1011.2 mb 0.05 in1.3 mm 0.00 in0.0 mm 0.08 in2.0 mm
04:44 AM 38.8°F3.8°C 36.1°F2.3°C 90% Calm Calm -- 29.85 in1010.8 mb 0.05 in1.3 mm 0.00 in0.0 mm 0.08 in2.0 mm
04:46 AM 38.8°F3.8°C 35.8°F2.1°C 89% 1.1 mph SE1.8 kmh SE 2.2 mph3.5 kmh 29.86 in1011.2 mb 0.05 in1.3 mm 0.00 in0.0 mm 0.08 in2.0 mm
04:47 AM 39.0°F3.9°C 36.3°F2.4°C 90% 0.2 mph SE0.3 kmh SE 1.1 mph1.8 kmh 29.86 in1011.2 mb 0.05 in1.3 mm 0.00 in0.0 mm 0.08 in2.0 mm
04:48 AM 39.0°F3.9°C 36.3°F2.4°C 90% Calm Calm -- 29.86 in1011.2 mb 0.05 in1.3 mm 0.00 in0.0 mm 0.08 in2.0 mm
04:49 AM 39.0°F3.9°C 36.3°F2.4°C 90% Calm Calm -- 29.85 in1010.8 mb 0.05 in1.3 mm 0.00 in0.0 mm 0.08 in2.0 mm
04:50 AM 39.0°F3.9°C 36.3°F2.4°C 90% Calm Calm -- 29.86 in1011.2 mb 0.05 in1.3 mm 0.00 in0.0 mm 0.08 in2.0 mm
04:51 AM 39.0°F3.9°C 36.3°F2.4°C 90% Calm Calm -- 29.85 in1010.8 mb 0.05 in1.3 mm 0.00 in0.0 mm 0.08 in2.0 mm
04:52 AM 39.0°F3.9°C 36.6°F2.6°C 91% Calm Calm -- 29.86 in1011.2 mb 0.00 in0.0 mm 0.00 in0.0 mm 0.08 in2.0 mm
04:53 AM 39.0°F3.9°C 36.6°F2.6°C 91% Calm Calm -- 29.86 in1011.2 mb 0.07 in1.8 mm 4.20 in106.7 mm 0.09 in2.3 mm
04:54 AM 39.0°F3.9°C 36.6°F2.6°C 91% Calm Calm -- 29.86 in1011.2 mb 0.07 in1.8 mm 0.00 in0.0 mm 0.09 in2.3 mm
04:55 AM 38.8°F3.8°C 36.4°F2.4°C 91% 1.1 mph ESE1.8 kmh ESE 1.1 mph1.8 kmh 29.86 in1011.2 mb 0.07 in1.8 mm 0.00 in0.0 mm 0.09 in2.3 mm
04:56 AM 38.8°F3.8°C 36.1°F2.3°C 90% Calm Calm -- 29.86 in1011.2 mb 0.07 in1.8 mm 0.00 in0.0 mm 0.09 in2.3 mm
04:57 AM 38.8°F3.8°C 35.8°F2.1°C 89% Calm Calm -- 29.86 in1011.2 mb 0.07 in1.8 mm 0.00 in0.0 mm 0.09 in2.3 mm
04:58 AM 38.7°F3.7°C 36.0°F2.2°C 90% Calm Calm -- 29.85 in1010.8 mb 0.07 in1.8 mm 0.00 in0.0 mm 0.09 in2.3 mm
04:59 AM 38.5°F3.6°C 35.8°F2.1°C 90% Calm Calm -- 29.86 in1011.2 mb 0.07 in1.8 mm 0.00 in0.0 mm 0.09 in2.3 mm
05:00 AM 38.7°F3.7°C 36.3°F2.4°C 91% Calm Calm -- 29.86 in1011.2 mb 0.07 in1.8 mm 0.00 in0.0 mm 0.09 in2.3 mm
05:01 AM 38.7°F3.7°C 35.7°F2.1°C 89% 0.2 mph ESE0.3 kmh ESE 1.1 mph1.8 kmh 29.86 in1011.2 mb 0.07 in1.8 mm 0.00 in0.0 mm 0.09 in2.3 mm
05:02 AM 38.5°F3.6°C 35.5°F1.9°C 89% Calm Calm -- 29.86 in1011.2 mb 0.00 in0.0 mm 0.00 in0.0 mm 0.09 in2.3 mm
05:03 AM 38.5°F3.6°C 35.5°F1.9°C 89% Calm Calm -- 29.86 in1011.2 mb 0.00 in0.0 mm 0.00 in0.0 mm 0.09 in2.3 mm
05:04 AM 38.5°F3.6°C 35.5°F1.9°C 89% Calm Calm -- 29.86 in1011.2 mb 0.00 in0.0 mm 0.00 in0.0 mm 0.09 in2.3 mm
05:05 AM 38.3°F3.5°C 35.6°F2.0°C 90% Calm Calm -- 29.86 in1011.2 mb 0.00 in0.0 mm 0.00 in0.0 mm 0.09 in2.3 mm
05:06 AM 38.3°F3.5°C 35.6°F2.0°C 90% Calm Calm -- 29.86 in1011.2 mb 0.00 in0.0 mm 0.00 in0.0 mm 0.09 in2.3 mm
05:07 AM 38.5°F3.6°C 36.1°F2.3°C 91% Calm Calm -- 29.85 in1010.8 mb 0.00 in0.0 mm 0.00 in0.0 mm 0.09 in2.3 mm
05:08 AM 38.5°F3.6°C 36.1°F2.3°C 91% Calm Calm -- 29.86 in1011.2 mb 0.00 in0.0 mm 0.00 in0.0 mm 0.09 in2.3 mm
05:09 AM 38.5°F3.6°C 36.4°F2.4°C 92% 0.2 mph ESE0.3 kmh ESE 1.1 mph1.8 kmh 29.86 in1011.2 mb 0.00 in0.0 mm 0.00 in0.0 mm 0.09 in2.3 mm
05:10 AM 38.5°F3.6°C 36.1°F2.3°C 91% 0.2 mph ESE0.3 kmh ESE 1.1 mph1.8 kmh 29.86 in1011.2 mb 0.00 in0.0 mm 0.00 in0.0 mm 0.09 in2.3 mm
05:11 AM 38.5°F3.6°C 35.8°F2.1°C 90% Calm Calm -- 29.86 in1011.2 mb 0.00 in0.0 mm 0.00 in0.0 mm 0.09 in2.3 mm
05:12 AM 38.5°F3.6°C 35.8°F2.1°C 90% Calm Calm -- 29.86 in1011.2 mb 0.00 in0.0 mm 0.00 in0.0 mm 0.09 in2.3 mm
05:13 AM 38.5°F3.6°C 35.8°F2.1°C 90% Calm Calm -- 29.85 in1010.8 mb 0.00 in0.0 mm 0.00 in0.0 mm 0.09 in2.3 mm
05:15 AM 38.5°F3.6°C 35.8°F2.1°C 90% Calm Calm -- 29.86 in1011.2 mb 0.00 in0.0 mm 0.00 in0.0 mm 0.09 in2.3 mm
05:17 AM 38.5°F3.6°C 36.1°F2.3°C 91% Calm Calm -- 29.85 in1010.8 mb 0.00 in0.0 mm 0.00 in0.0 mm 0.09 in2.3 mm
05:18 AM 38.5°F3.6°C 36.1°F2.3°C 91% Calm Calm -- 29.86 in1011.2 mb 0.00 in0.0 mm 0.00 in0.0 mm 0.09 in2.3 mm
05:19 AM 38.5°F3.6°C 36.4°F2.4°C 92% Calm Calm -- 29.86 in1011.2 mb 0.00 in0.0 mm 0.00 in0.0 mm 0.09 in2.3 mm
05:20 AM 38.5°F3.6°C 36.4°F2.4°C 92% Calm Calm -- 29.86 in1011.2 mb 0.00 in0.0 mm 0.00 in0.0 mm 0.09 in2.3 mm
05:21 AM 38.5°F3.6°C 36.1°F2.3°C 91% Calm Calm -- 29.86 in1011.2 mb 0.00 in0.0 mm 0.00 in0.0 mm 0.09 in2.3 mm
05:22 AM 38.5°F3.6°C 35.8°F2.1°C 90% 0.2 mph ESE0.3 kmh ESE 1.1 mph1.8 kmh 29.86 in1011.2 mb 0.00 in0.0 mm 0.00 in0.0 mm 0.09 in2.3 mm
05:23 AM 38.5°F3.6°C 35.8°F2.1°C 90% Calm Calm -- 29.86 in1011.2 mb 0.00 in0.0 mm 0.00 in0.0 mm 0.09 in2.3 mm
05:24 AM 38.5°F3.6°C 35.8°F2.1°C 90% Calm Calm -- 29.86 in1011.2 mb 0.00 in0.0 mm 0.00 in0.0 mm 0.09 in2.3 mm
05:26 AM 38.7°F3.7°C 35.7°F2.1°C 89% Calm Calm -- 29.86 in1011.2 mb 0.00 in0.0 mm 0.00 in0.0 mm 0.09 in2.3 mm
05:27 AM 38.5°F3.6°C 35.5°F1.9°C 89% 0.2 mph ESE0.3 kmh ESE 1.1 mph1.8 kmh 29.86 in1011.2 mb 0.00 in0.0 mm 0.00 in0.0 mm 0.09 in2.3 mm
05:28 AM 38.5°F3.6°C 35.3°F1.8°C 88% 0.2 mph ESE0.3 kmh ESE 1.1 mph1.8 kmh 29.87 in1011.5 mb 0.00 in0.0 mm 0.00 in0.0 mm 0.09 in2.3 mm
05:30 AM 38.5°F3.6°C 35.5°F1.9°C 89% Calm Calm -- 29.86 in1011.2 mb 0.00 in0.0 mm 0.00 in0.0 mm 0.09 in2.3 mm
05:31 AM 38.5°F3.6°C 35.3°F1.8°C 88% Calm Calm -- 29.86 in1011.2 mb 0.00 in0.0 mm 0.00 in0.0 mm 0.09 in2.3 mm
05:32 AM 38.5°F3.6°C 35.3°F1.8°C 88% 0.2 mph ESE0.3 kmh ESE 1.1 mph1.8 kmh 29.87 in1011.5 mb 0.00 in0.0 mm 0.00 in0.0 mm 0.09 in2.3 mm
05:33 AM 38.5°F3.6°C 35.3°F1.8°C 88% Calm Calm -- 29.86 in1011.2 mb 0.00 in0.0 mm 0.00 in0.0 mm 0.09 in2.3 mm
05:34 AM 38.5°F3.6°C 35.8°F2.1°C 90% Calm Calm -- 29.86 in1011.2 mb 0.00 in0.0 mm 0.00 in0.0 mm 0.09 in2.3 mm
05:35 AM 38.5°F3.6°C 35.8°F2.1°C 90% Calm Calm -- 29.87 in1011.5 mb 0.00 in0.0 mm 0.00 in0.0 mm 0.09 in2.3 mm
05:36 AM 38.5°F3.6°C 36.1°F2.3°C 91% Calm Calm -- 29.86 in1011.2 mb 0.00 in0.0 mm 0.00 in0.0 mm 0.09 in2.3 mm
05:37 AM 38.5°F3.6°C 35.8°F2.1°C 90% 0.7 mph ESE1.1 kmh ESE 1.1 mph1.8 kmh 29.87 in1011.5 mb 0.00 in0.0 mm 0.00 in0.0 mm 0.09 in2.3 mm
05:38 AM 38.5°F3.6°C 35.5°F1.9°C 89% 1.1 mph ESE1.8 kmh ESE 1.1 mph1.8 kmh 29.86 in1011.2 mb 0.00 in0.0 mm 0.00 in0.0 mm 0.09 in2.3 mm
05:40 AM 38.5°F3.6°C 35.3°F1.8°C 88% 0.7 mph SE1.1 kmh SE 1.1 mph1.8 kmh 29.87 in1011.5 mb 0.00 in0.0 mm 0.00 in0.0 mm 0.09 in2.3 mm
05:41 AM 38.5°F3.6°C 35.3°F1.8°C 88% Calm Calm -- 29.87 in1011.5 mb 0.00 in0.0 mm 0.00 in0.0 mm 0.09 in2.3 mm
05:43 AM 38.5°F3.6°C 34.7°F1.5°C 86% 1.3 mph ESE2.1 kmh ESE 2.2 mph3.5 kmh 29.86 in1011.2 mb 0.00 in0.0 mm 0.00 in0.0 mm 0.09 in2.3 mm
05:44 AM 38.7°F3.7°C 35.2°F1.8°C 87% 2.5 mph SE4.0 kmh SE 3.4 mph5.5 kmh 29.86 in1011.2 mb 0.00 in0.0 mm 0.00 in0.0 mm 0.09 in2.3 mm
05:45 AM 38.7°F3.7°C 35.7°F2.1°C 89% 0.7 mph E1.1 kmh E 1.1 mph1.8 kmh 29.87 in1011.5 mb 0.00 in0.0 mm 0.00 in0.0 mm 0.09 in2.3 mm
05:46 AM 38.7°F3.7°C 36.0°F2.2°C 90% Calm Calm -- 29.86 in1011.2 mb 0.00 in0.0 mm 0.00 in0.0 mm 0.09 in2.3 mm
05:47 AM 38.7°F3.7°C 36.3°F2.4°C 91% 0.7 mph E1.1 kmh E 1.1 mph1.8 kmh 29.87 in1011.5 mb 0.00 in0.0 mm 0.00 in0.0 mm 0.09 in2.3 mm
05:48 AM 38.8°F3.8°C 35.6°F2.0°C 88% 2.2 mph N3.5 kmh N 2.2 mph3.5 kmh 29.87 in1011.5 mb 0.00 in0.0 mm 0.00 in0.0 mm 0.09 in2.3 mm
05:49 AM 38.7°F3.7°C 35.2°F1.8°C 87% Calm Calm -- 29.87 in1011.5 mb 0.00 in0.0 mm 0.00 in0.0 mm 0.09 in2.3 mm
05:50 AM 38.7°F3.7°C 35.5°F1.9°C 88% Calm Calm -- 29.86 in1011.2 mb 0.00 in0.0 mm 0.00 in0.0 mm 0.09 in2.3 mm
05:51 AM 38.8°F3.8°C 35.6°F2.0°C 88% 0.7 mph NE1.1 kmh NE 1.1 mph1.8 kmh 29.87 in1011.5 mb 0.00 in0.0 mm 0.00 in0.0 mm 0.09 in2.3 mm
05:52 AM 38.8°F3.8°C 35.8°F2.1°C 89% 0.9 mph E1.4 kmh E 2.2 mph3.5 kmh 29.87 in1011.5 mb 0.00 in0.0 mm 0.00 in0.0 mm 0.09 in2.3 mm
05:53 AM 38.8°F3.8°C 36.1°F2.3°C 90% 1.3 mph E2.1 kmh E 2.2 mph3.5 kmh 29.87 in1011.5 mb 0.00 in0.0 mm 0.00 in0.0 mm 0.09 in2.3 mm
05:54 AM 38.8°F3.8°C 36.4°F2.4°C 91% 0.9 mph E1.4 kmh E 1.1 mph1.8 kmh 29.86 in1011.2 mb 0.00 in0.0 mm 0.00 in0.0 mm 0.09 in2.3 mm
05:55 AM 38.8°F3.8°C 36.7°F2.6°C 92% Calm Calm -- 29.87 in1011.5 mb 0.00 in0.0 mm 0.00 in0.0 mm 0.09 in2.3 mm
05:56 AM 38.7°F3.7°C 36.6°F2.6°C 92% Calm Calm -- 29.88 in1011.9 mb 0.00 in0.0 mm 0.00 in0.0 mm 0.09 in2.3 mm
05:57 AM 38.7°F3.7°C 36.9°F2.7°C 93% 0.7 mph E1.1 kmh E 1.1 mph1.8 kmh 29.86 in1011.2 mb 0.00 in0.0 mm 0.00 in0.0 mm 0.09 in2.3 mm
05:58 AM 38.7°F3.7°C 36.6°F2.6°C 92% Calm Calm -- 29.86 in1011.2 mb 0.00 in0.0 mm 0.00 in0.0 mm 0.09 in2.3 mm
05:59 AM 38.5°F3.6°C 36.4°F2.4°C 92% 0.4 mph E0.6 kmh E 1.1 mph1.8 kmh 29.88 in1011.9 mb 0.00 in0.0 mm 0.00 in0.0 mm 0.09 in2.3 mm
06:00 AM 38.5°F3.6°C 36.1°F2.3°C 91% 2.5 mph NNE4.0 kmh NNE 3.4 mph5.5 kmh 29.88 in1011.9 mb 0.00 in0.0 mm 0.00 in0.0 mm 0.09 in2.3 mm
06:01 AM 38.5°F3.6°C 35.8°F2.1°C 90% 0.9 mph NE1.4 kmh NE 1.1 mph1.8 kmh 29.88 in1011.9 mb 0.00 in0.0 mm 0.00 in0.0 mm 0.09 in2.3 mm
06:02 AM 38.7°F3.7°C 36.0°F2.2°C 90% Calm Calm -- 29.87 in1011.5 mb 0.00 in0.0 mm 0.00 in0.0 mm 0.09 in2.3 mm
06:03 AM 38.7°F3.7°C 36.3°F2.4°C 91% 0.9 mph NE1.4 kmh NE 1.1 mph1.8 kmh 29.88 in1011.9 mb 0.00 in0.0 mm 0.00 in0.0 mm 0.09 in2.3 mm
06:04 AM 38.7°F3.7°C 36.3°F2.4°C 91% 0.2 mph NE0.3 kmh NE 1.1 mph1.8 kmh 29.88 in1011.9 mb 0.00 in0.0 mm 0.00 in0.0 mm 0.09 in2.3 mm
06:05 AM 38.7°F3.7°C 36.3°F2.4°C 91% 0.2 mph NE0.3 kmh NE 1.1 mph1.8 kmh 29.87 in1011.5 mb 0.00 in0.0 mm 0.00 in0.0 mm 0.09 in2.3 mm
06:07 AM 38.7°F3.7°C 36.3°F2.4°C 91% Calm Calm -- 29.87 in1011.5 mb 0.00 in0.0 mm 0.00 in0.0 mm 0.09 in2.3 mm
06:09 AM 38.7°F3.7°C 36.6°F2.6°C 92% 0.2 mph NE0.3 kmh NE 1.1 mph1.8 kmh 29.87 in1011.5 mb 0.00 in0.0 mm 0.00 in0.0 mm 0.09 in2.3 mm
06:11 AM 38.7°F3.7°C 36.6°F2.6°C 92% Calm Calm -- 29.86 in1011.2 mb 0.00 in0.0 mm 0.00 in0.0 mm 0.09 in2.3 mm
06:12 AM 38.5°F3.6°C 36.4°F2.4°C 92% 0.9 mph E1.4 kmh E 1.1 mph1.8 kmh 29.87 in1011.5 mb 0.00 in0.0 mm 0.00 in0.0 mm 0.09 in2.3 mm
06:13 AM 38.5°F3.6°C 36.1°F2.3°C 91% 0.9 mph E1.4 kmh E 1.1 mph1.8 kmh 29.87 in1011.5 mb 0.00 in0.0 mm 0.00 in0.0 mm 0.09 in2.3 mm
06:14 AM 38.5°F3.6°C 35.8°F2.1°C 90% 0.2 mph E0.3 kmh E 1.1 mph1.8 kmh 29.88 in1011.9 mb 0.00 in0.0 mm 0.00 in0.0 mm 0.09 in2.3 mm
06:15 AM 38.5°F3.6°C 35.3°F1.8°C 88% Calm Calm -- 29.87 in1011.5 mb 0.00 in0.0 mm 0.00 in0.0 mm 0.09 in2.3 mm
06:16 AM 38.5°F3.6°C 35.5°F1.9°C 89% Calm Calm -- 29.87 in1011.5 mb 0.00 in0.0 mm 0.00 in0.0 mm 0.09 in2.3 mm
06:17 AM 38.7°F3.7°C 35.7°F2.1°C 89% Calm Calm -- 29.88 in1011.9 mb 0.00 in0.0 mm 0.00 in0.0 mm 0.09 in2.3 mm
06:18 AM 38.7°F3.7°C 35.7°F2.1°C 89% Calm Calm -- 29.87 in1011.5 mb 0.00 in0.0 mm 0.00 in0.0 mm 0.09 in2.3 mm
06:19 AM 38.7°F3.7°C 35.7°F2.1°C 89% 1.1 mph E1.8 kmh E 1.1 mph1.8 kmh 29.88 in1011.9 mb 0.00 in0.0 mm 0.00 in0.0 mm 0.09 in2.3 mm
06:20 AM 38.8°F3.8°C 36.1°F2.3°C 90% 1.3 mph ENE2.1 kmh ENE 2.2 mph3.5 kmh 29.88 in1011.9 mb 0.00 in0.0 mm 0.00 in0.0 mm 0.09 in2.3 mm
06:21 AM 39.0°F3.9°C 36.6°F2.6°C 91% 0.7 mph ENE1.1 kmh ENE 1.1 mph1.8 kmh 29.88 in1011.9 mb 0.00 in0.0 mm 0.00 in0.0 mm 0.09 in2.3 mm
06:22 AM 39.0°F3.9°C 36.3°F2.4°C 90% 0.7 mph N1.1 kmh N 1.1 mph1.8 kmh 29.88 in1011.9 mb 0.00 in0.0 mm 0.00 in0.0 mm 0.09 in2.3 mm
06:23 AM 39.0°F3.9°C 36.3°F2.4°C 90% Calm Calm -- 29.87 in1011.5 mb 0.00 in0.0 mm 0.00 in0.0 mm 0.09 in2.3 mm
06:24 AM 38.8°F3.8°C 36.1°F2.3°C 90% 0.2 mph NE0.3 kmh NE 1.1 mph1.8 kmh 29.88 in1011.9 mb 0.00 in0.0 mm 0.00 in0.0 mm 0.09 in2.3 mm
06:25 AM 38.8°F3.8°C 36.1°F2.3°C 90% Calm Calm -- 29.88 in1011.9 mb 0.00 in0.0 mm 0.00 in0.0 mm 0.09 in2.3 mm
06:26 AM 38.7°F3.7°C 36.0°F2.2°C 90% 0.7 mph NE1.1 kmh NE 1.1 mph1.8 kmh 29.88 in1011.9 mb 0.00 in0.0 mm 0.00 in0.0 mm 0.09 in2.3 mm
06:28 AM 38.7°F3.7°C 35.7°F2.1°C 89% 1.3 mph E2.1 kmh E 2.2 mph3.5 kmh 29.88 in1011.9 mb 0.00 in0.0 mm 0.00 in0.0 mm 0.09 in2.3 mm
06:29 AM 38.7°F3.7°C 35.7°F2.1°C 89% 0.2 mph E0.3 kmh E 1.1 mph1.8 kmh 29.88 in1011.9 mb 0.00 in0.0 mm 0.00 in0.0 mm 0.09 in2.3 mm
06:30 AM 38.7°F3.7°C 35.5°F1.9°C 88% Calm Calm -- 29.88 in1011.9 mb 0.00 in0.0 mm 0.00 in0.0 mm 0.09 in2.3 mm
06:31 AM 38.7°F3.7°C 35.7°F2.1°C 89% Calm Calm -- 29.88 in1011.9 mb 0.00 in0.0 mm 0.00 in0.0 mm 0.09 in2.3 mm
06:32 AM 38.7°F3.7°C 35.7°F2.1°C 89% Calm Calm -- 29.87 in1011.5 mb 0.00 in0.0 mm 0.00 in0.0 mm 0.09 in2.3 mm
06:33 AM 38.7°F3.7°C 35.5°F1.9°C 88% Calm Calm -- 29.87 in1011.5 mb 0.00 in0.0 mm 0.00 in0.0 mm 0.09 in2.3 mm
06:34 AM 38.7°F3.7°C 35.7°F2.1°C 89% Calm Calm -- 29.88 in1011.9 mb 0.00 in0.0 mm 0.00 in0.0 mm 0.09 in2.3 mm
06:35 AM 38.7°F3.7°C 35.7°F2.1°C 89% Calm Calm -- 29.88 in1011.9 mb 0.05 in1.3 mm 3.00 in76.2 mm 0.10 in2.5 mm
06:36 AM 38.7°F3.7°C 35.7°F2.1°C 89% Calm Calm -- 29.88 in1011.9 mb 0.05 in1.3 mm 0.00 in0.0 mm 0.10 in2.5 mm
06:37 AM 38.5°F3.6°C 35.3°F1.8°C 88% Calm Calm -- 29.88 in1011.9 mb 0.05 in1.3 mm 0.00 in0.0 mm 0.10 in2.5 mm
06:38 AM 38.5°F3.6°C 35.3°F1.8°C 88% Calm Calm -- 29.89 in1012.2 mb 0.05 in1.3 mm 0.00 in0.0 mm 0.10 in2.5 mm
06:39 AM 38.5°F3.6°C 35.0°F1.7°C 87% 0.4 mph E0.6 kmh E 1.1 mph1.8 kmh 29.88 in1011.9 mb 0.05 in1.3 mm 0.00 in0.0 mm 0.10 in2.5 mm
06:40 AM 38.5°F3.6°C 34.7°F1.5°C 86% 0.2 mph E0.3 kmh E 1.1 mph1.8 kmh 29.88 in1011.9 mb 0.05 in1.3 mm 0.00 in0.0 mm 0.10 in2.5 mm
06:41 AM 38.5°F3.6°C 34.4°F1.3°C 85% 0.7 mph ESE1.1 kmh ESE 1.1 mph1.8 kmh 29.88 in1011.9 mb 0.05 in1.3 mm 0.00 in0.0 mm 0.10 in2.5 mm
06:42 AM 38.5°F3.6°C 34.4°F1.3°C 85% Calm Calm -- 29.89 in1012.2 mb 0.05 in1.3 mm 0.00 in0.0 mm 0.10 in2.5 mm
06:43 AM 38.5°F3.6°C 34.1°F1.2°C 84% 1.8 mph ESE2.9 kmh ESE 2.2 mph3.5 kmh 29.88 in1011.9 mb 0.05 in1.3 mm 0.00 in0.0 mm 0.10 in2.5 mm
06:44 AM 38.5°F3.6°C 33.8°F1.0°C 83% 2.7 mph ESE4.3 kmh ESE 3.4 mph5.5 kmh 29.89 in1012.2 mb 0.00 in0.0 mm 0.00 in0.0 mm 0.10 in2.5 mm
06:45 AM 38.5°F3.6°C 33.8°F1.0°C 83% 0.9 mph SE1.4 kmh SE 3.4 mph5.5 kmh 29.88 in1011.9 mb 0.00 in0.0 mm 0.00 in0.0 mm 0.10 in2.5 mm
06:46 AM 38.5°F3.6°C 33.8°F1.0°C 83% 3.4 mph SE5.5 kmh SE 4.5 mph7.2 kmh 29.89 in1012.2 mb 0.00 in0.0 mm 0.00 in0.0 mm 0.10 in2.5 mm
06:47 AM 38.5°F3.6°C 34.1°F1.2°C 84% 2.2 mph SE3.5 kmh SE 2.2 mph3.5 kmh 29.89 in1012.2 mb 0.00 in0.0 mm 0.00 in0.0 mm 0.10 in2.5 mm
06:48 AM 38.5°F3.6°C 34.4°F1.3°C 85% 0.9 mph ESE1.4 kmh ESE 1.1 mph1.8 kmh 29.89 in1012.2 mb 0.00 in0.0 mm 0.00 in0.0 mm 0.10 in2.5 mm
06:49 AM 38.3°F3.5°C 33.9°F1.1°C 84% 2.5 mph SE4.0 kmh SE 3.4 mph5.5 kmh 29.88 in1011.9 mb 0.00 in0.0 mm 0.00 in0.0 mm 0.10 in2.5 mm
06:50 AM 38.3°F3.5°C 33.9°F1.1°C 84% 1.3 mph ESE2.1 kmh ESE 2.2 mph3.5 kmh 29.89 in1012.2 mb 0.00 in0.0 mm 0.00 in0.0 mm 0.10 in2.5 mm
06:51 AM 38.3°F3.5°C 34.5°F1.4°C 86% 0.7 mph ESE1.1 kmh ESE 1.1 mph1.8 kmh 29.88 in1011.9 mb 0.00 in0.0 mm 0.00 in0.0 mm 0.10 in2.5 mm
06:52 AM 38.3°F3.5°C 34.5°F1.4°C 86% Calm Calm -- 29.88 in1011.9 mb 0.00 in0.0 mm 0.00 in0.0 mm 0.10 in2.5 mm
06:53 AM 38.1°F3.4°C 34.3°F1.3°C 86% 0.2 mph ESE0.3 kmh ESE 1.1 mph1.8 kmh 29.88 in1011.9 mb 0.00 in0.0 mm 0.00 in0.0 mm 0.10 in2.5 mm
06:54 AM 37.9°F3.3°C 34.4°F1.3°C 87% 0.9 mph ESE1.4 kmh ESE 1.1 mph1.8 kmh 29.89 in1012.2 mb 0.00 in0.0 mm 0.00 in0.0 mm 0.10 in2.5 mm
06:55 AM 37.9°F3.3°C 34.1°F1.2°C 86% 1.6 mph SSE2.6 kmh SSE 2.2 mph3.5 kmh 29.89 in1012.2 mb 0.00 in0.0 mm 0.00 in0.0 mm 0.10 in2.5 mm
06:56 AM 37.9°F3.3°C 34.1°F1.2°C 86% 1.3 mph SE2.1 kmh SE 2.2 mph3.5 kmh 29.89 in1012.2 mb 0.00 in0.0 mm 0.00 in0.0 mm 0.10 in2.5 mm
06:57 AM 37.8°F3.2°C 34.0°F1.1°C 86% 0.7 mph SE1.1 kmh SE 1.1 mph1.8 kmh 29.88 in1011.9 mb 0.00 in0.0 mm 0.00 in0.0 mm 0.10 in2.5 mm
06:58 AM 37.6°F3.1°C 34.1°F1.2°C 87% 1.6 mph SE2.6 kmh SE 2.2 mph3.5 kmh 29.89 in1012.2 mb 0.00 in0.0 mm 0.00 in0.0 mm 0.10 in2.5 mm
06:59 AM 37.4°F3.0°C 33.9°F1.1°C 87% 0.9 mph SE1.4 kmh SE 1.1 mph1.8 kmh 29.89 in1012.2 mb 0.00 in0.0 mm 0.00 in0.0 mm 0.10 in2.5 mm
07:00 AM 37.2°F2.9°C 34.0°F1.1°C 88% 0.9 mph SE1.4 kmh SE 2.2 mph3.5 kmh 29.89 in1012.2 mb 0.07 in1.8 mm 0.07 in1.8 mm 0.11 in2.8 mm
07:01 AM 37.2°F2.9°C 34.0°F1.1°C 88% 0.2 mph SE0.3 kmh SE 1.1 mph1.8 kmh 29.88 in1011.9 mb 0.07 in1.8 mm 0.00 in0.0 mm 0.11 in2.8 mm
07:02 AM 37.2°F2.9°C 34.3°F1.3°C 89% 1.1 mph ESE1.8 kmh ESE 1.1 mph1.8 kmh 29.89 in1012.2 mb 0.07 in1.8 mm 0.00 in0.0 mm 0.11 in2.8 mm
07:03 AM 37.0°F2.8°C 33.8°F1.0°C 88% 1.1 mph SE1.8 kmh SE 1.1 mph1.8 kmh 29.89 in1012.2 mb 0.07 in1.8 mm 0.00 in0.0 mm 0.11 in2.8 mm
07:04 AM 36.9°F2.7°C 33.7°F0.9°C 88% 1.8 mph SE2.9 kmh SE 2.2 mph3.5 kmh 29.90 in1012.5 mb 0.07 in1.8 mm 0.00 in0.0 mm 0.11 in2.8 mm
07:06 AM 36.9°F2.7°C 33.7°F0.9°C 88% 0.7 mph SE1.1 kmh SE 1.1 mph1.8 kmh 29.89 in1012.2 mb 0.07 in1.8 mm 0.00 in0.0 mm 0.11 in2.8 mm
07:07 AM 36.7°F2.6°C 33.5°F0.8°C 88% 0.2 mph SE0.3 kmh SE 1.1 mph1.8 kmh 29.89 in1012.2 mb 0.07 in1.8 mm 0.00 in0.0 mm 0.11 in2.8 mm
07:08 AM 36.7°F2.6°C 33.5°F0.8°C 88% 1.3 mph ESE2.1 kmh ESE 2.2 mph3.5 kmh 29.89 in1012.2 mb 0.07 in1.8 mm 0.00 in0.0 mm 0.11 in2.8 mm
07:10 AM 36.7°F2.6°C 33.5°F0.8°C 88% 0.2 mph ESE0.3 kmh ESE 1.1 mph1.8 kmh 29.89 in1012.2 mb 0.05 in1.3 mm 0.00 in0.0 mm 0.12 in3.0 mm
07:11 AM 36.7°F2.6°C 33.5°F0.8°C 88% Calm Calm -- 29.89 in1012.2 mb 0.05 in1.3 mm 0.00 in0.0 mm 0.12 in3.0 mm
07:12 AM 36.9°F2.7°C 33.7°F0.9°C 88% Calm Calm -- 29.89 in1012.2 mb 0.05 in1.3 mm 0.00 in0.0 mm 0.12 in3.0 mm
07:13 AM 36.9°F2.7°C 33.7°F0.9°C 88% Calm Calm -- 29.89 in1012.2 mb 0.05 in1.3 mm 0.00 in0.0 mm 0.12 in3.0 mm
07:15 AM 36.9°F2.7°C 34.0°F1.1°C 89% Calm Calm -- 29.89 in1012.2 mb 0.05 in1.3 mm 0.00 in0.0 mm 0.12 in3.0 mm
07:16 AM 36.7°F2.6°C 33.8°F1.0°C 89% Calm Calm -- 29.89 in1012.2 mb 0.05 in1.3 mm 0.00 in0.0 mm 0.12 in3.0 mm
07:17 AM 36.7°F2.6°C 33.5°F0.8°C 88% Calm Calm -- 29.89 in1012.2 mb 0.05 in1.3 mm 0.00 in0.0 mm 0.12 in3.0 mm
07:18 AM 36.7°F2.6°C 33.8°F1.0°C 89% Calm Calm -- 29.89 in1012.2 mb 0.00 in0.0 mm 0.00 in0.0 mm 0.12 in3.0 mm
07:20 AM 36.9°F2.7°C 34.5°F1.4°C 91% Calm Calm -- 29.89 in1012.2 mb 0.07 in1.8 mm 2.10 in53.3 mm 0.13 in3.3 mm
07:21 AM 36.9°F2.7°C 34.5°F1.4°C 91% Calm Calm -- 29.89 in1012.2 mb 0.07 in1.8 mm 0.00 in0.0 mm 0.13 in3.3 mm
07:22 AM 36.9°F2.7°C 34.8°F1.6°C 92% Calm Calm -- 29.89 in1012.2 mb 0.07 in1.8 mm 0.00 in0.0 mm 0.13 in3.3 mm
07:23 AM 36.9°F2.7°C 34.8°F1.6°C 92% Calm Calm -- 29.89 in1012.2 mb 0.07 in1.8 mm 0.00 in0.0 mm 0.13 in3.3 mm
07:24 AM 36.9°F2.7°C 34.8°F1.6°C 92% 0.2 mph ESE0.3 kmh ESE 1.1 mph1.8 kmh 29.89 in1012.2 mb 0.07 in1.8 mm 0.00 in0.0 mm 0.13 in3.3 mm
07:25 AM 36.7°F2.6°C 34.6°F1.4°C 92% Calm Calm -- 29.89 in1012.2 mb 0.07 in1.8 mm 0.00 in0.0 mm 0.13 in3.3 mm
07:26 AM 36.7°F2.6°C 34.6°F1.4°C 92% Calm Calm -- 29.89 in1012.2 mb 0.07 in1.8 mm 0.00 in0.0 mm 0.13 in3.3 mm
07:27 AM 36.7°F2.6°C 34.6°F1.4°C 92% Calm Calm -- 29.89 in1012.2 mb 0.07 in1.8 mm 0.00 in0.0 mm 0.13 in3.3 mm
07:30 AM 36.5°F2.5°C 34.4°F1.3°C 92% Calm Calm -- 29.88 in1011.9 mb 0.00 in0.0 mm 0.00 in0.0 mm 0.13 in3.3 mm
07:32 AM 36.7°F2.6°C 34.6°F1.4°C 92% Calm Calm -- 29.89 in1012.2 mb 0.00 in0.0 mm 0.00 in0.0 mm 0.13 in3.3 mm
07:33 AM 36.5°F2.5°C 34.4°F1.3°C 92% Calm Calm -- 29.89 in1012.2 mb 0.00 in0.0 mm 0.00 in0.0 mm 0.13 in3.3 mm
07:34 AM 36.5°F2.5°C 34.4°F1.3°C 92% Calm Calm -- 29.89 in1012.2 mb 0.00 in0.0 mm 0.00 in0.0 mm 0.13 in3.3 mm
07:36 AM 36.5°F2.5°C 34.4°F1.3°C 92% Calm Calm -- 29.89 in1012.2 mb 0.07 in1.8 mm 2.10 in53.3 mm 0.14 in3.6 mm
07:37 AM 36.5°F2.5°C 34.4°F1.3°C 92% Calm Calm -- 29.89 in1012.2 mb 0.07 in1.8 mm 0.00 in0.0 mm 0.14 in3.6 mm
07:38 AM 36.5°F2.5°C 34.4°F1.3°C 92% Calm Calm -- 29.89 in1012.2 mb 0.07 in1.8 mm 0.00 in0.0 mm 0.14 in3.6 mm
07:39 AM 36.5°F2.5°C 34.4°F1.3°C 92% 0.9 mph ESE1.4 kmh ESE 1.1 mph1.8 kmh 29.89 in1012.2 mb 0.07 in1.8 mm 0.00 in0.0 mm 0.14 in3.6 mm
07:40 AM 36.5°F2.5°C 34.4°F1.3°C 92% 0.7 mph ESE1.1 kmh ESE 1.1 mph1.8 kmh 29.89 in1012.2 mb 0.07 in1.8 mm 0.00 in0.0 mm 0.14 in3.6 mm
07:41 AM 36.3°F2.4°C 34.2°F1.2°C 92% Calm Calm -- 29.89 in1012.2 mb 0.07 in1.8 mm 0.00 in0.0 mm 0.14 in3.6 mm
07:42 AM 36.3°F2.4°C 34.2°F1.2°C 92% 0.7 mph ESE1.1 kmh ESE 1.1 mph1.8 kmh 29.89 in1012.2 mb 0.07 in1.8 mm 0.00 in0.0 mm 0.14 in3.6 mm
07:44 AM 36.5°F2.5°C 34.4°F1.3°C 92% Calm Calm -- 29.89 in1012.2 mb 0.00 in0.0 mm 0.00 in0.0 mm 0.14 in3.6 mm
07:45 AM 36.5°F2.5°C 34.4°F1.3°C 92% Calm Calm -- 29.89 in1012.2 mb 0.00 in0.0 mm 0.00 in0.0 mm 0.14 in3.6 mm
07:46 AM 36.5°F2.5°C 34.4°F1.3°C 92% Calm Calm -- 29.89 in1012.2 mb 0.00 in0.0 mm 0.00 in0.0 mm 0.14 in3.6 mm
07:47 AM 36.5°F2.5°C 34.7°F1.5°C 93% 0.4 mph ESE0.6 kmh ESE 1.1 mph1.8 kmh 29.89 in1012.2 mb 0.00 in0.0 mm 0.00 in0.0 mm 0.14 in3.6 mm
07:48 AM 36.5°F2.5°C 34.1°F1.2°C 91% 0.2 mph ESE0.3 kmh ESE 1.1 mph1.8 kmh 29.88 in1011.9 mb 0.00 in0.0 mm 0.00 in0.0 mm 0.14 in3.6 mm
07:49 AM 36.5°F2.5°C 33.9°F1.1°C 90% Calm Calm -- 29.89 in1012.2 mb 0.00 in0.0 mm 0.00 in0.0 mm 0.14 in3.6 mm
07:50 AM 36.3°F2.4°C 33.7°F0.9°C 90% Calm Calm -- 29.89 in1012.2 mb 0.00 in0.0 mm 0.00 in0.0 mm 0.14 in3.6 mm
07:51 AM 36.3°F2.4°C 33.7°F0.9°C 90% Calm Calm -- 29.89 in1012.2 mb 0.00 in0.0 mm 0.00 in0.0 mm 0.14 in3.6 mm
07:52 AM 36.5°F2.5°C 34.1°F1.2°C 91% Calm Calm -- 29.89 in1012.2 mb 0.00 in0.0 mm 0.00 in0.0 mm 0.14 in3.6 mm
07:53 AM 36.5°F2.5°C 33.9°F1.1°C 90% Calm Calm -- 29.89 in1012.2 mb 0.00 in0.0 mm 0.00 in0.0 mm 0.14 in3.6 mm
07:54 AM 36.5°F2.5°C 34.1°F1.2°C 91% Calm Calm -- 29.89 in1012.2 mb 0.00 in0.0 mm 0.00 in0.0 mm 0.14 in3.6 mm
07:55 AM 36.5°F2.5°C 34.1°F1.2°C 91% Calm Calm -- 29.90 in1012.5 mb 0.00 in0.0 mm 0.00 in0.0 mm 0.14 in3.6 mm
07:56 AM 36.5°F2.5°C 34.1°F1.2°C 91% Calm Calm -- 29.89 in1012.2 mb 0.00 in0.0 mm 0.00 in0.0 mm 0.14 in3.6 mm
07:57 AM 36.5°F2.5°C 34.4°F1.3°C 92% Calm Calm -- 29.89 in1012.2 mb 0.00 in0.0 mm 0.00 in0.0 mm 0.14 in3.6 mm
07:58 AM 36.7°F2.6°C 34.6°F1.4°C 92% Calm Calm -- 29.89 in1012.2 mb 0.00 in0.0 mm 0.00 in0.0 mm 0.14 in3.6 mm
07:59 AM 36.7°F2.6°C 34.6°F1.4°C 92% Calm Calm -- 29.88 in1011.9 mb 0.00 in0.0 mm 0.00 in0.0 mm 0.14 in3.6 mm
08:01 AM 36.7°F2.6°C 34.9°F1.6°C 93% Calm Calm -- 29.89 in1012.2 mb 0.00 in0.0 mm 0.00 in0.0 mm 0.14 in3.6 mm
08:02 AM 36.9°F2.7°C 35.1°F1.7°C 93% Calm Calm -- 29.89 in1012.2 mb 0.00 in0.0 mm 0.00 in0.0 mm 0.14 in3.6 mm
08:04 AM 36.9°F2.7°C 35.1°F1.7°C 93% 0.4 mph ESE0.6 kmh ESE 1.1 mph1.8 kmh 29.89 in1012.2 mb 0.05 in1.3 mm 1.50 in38.1 mm 0.15 in3.8 mm
08:05 AM 36.7°F2.6°C 34.9°F1.6°C 93% Calm Calm -- 29.89 in1012.2 mb 0.05 in1.3 mm 0.00 in0.0 mm 0.15 in3.8 mm
08:06 AM 36.5°F2.5°C 34.7°F1.5°C 93% 0.4 mph ESE0.6 kmh ESE 1.1 mph1.8 kmh 29.89 in1012.2 mb 0.05 in1.3 mm 0.00 in0.0 mm 0.15 in3.8 mm
08:08 AM 36.5°F2.5°C 34.7°F1.5°C 93% 0.2 mph ESE0.3 kmh ESE 1.1 mph1.8 kmh 29.90 in1012.5 mb 0.05 in1.3 mm 0.00 in0.0 mm 0.15 in3.8 mm
08:09 AM 36.5°F2.5°C 34.7°F1.5°C 93% Calm Calm -- 29.89 in1012.2 mb 0.05 in1.3 mm 0.00 in0.0 mm 0.15 in3.8 mm
08:10 AM 36.5°F2.5°C 34.7°F1.5°C 93% Calm Calm -- 29.90 in1012.5 mb 0.05 in1.3 mm 0.00 in0.0 mm 0.15 in3.8 mm
08:11 AM 36.5°F2.5°C 34.7°F1.5°C 93% Calm Calm -- 29.89 in1012.2 mb 0.05 in1.3 mm 0.00 in0.0 mm 0.15 in3.8 mm
08:13 AM 36.5°F2.5°C 34.7°F1.5°C 93% Calm Calm -- 29.89 in1012.2 mb 0.00 in0.0 mm 0.00 in0.0 mm 0.15 in3.8 mm
08:14 AM 36.5°F2.5°C 34.7°F1.5°C 93% Calm Calm -- 29.89 in1012.2 mb 0.00 in0.0 mm 0.00 in0.0 mm 0.15 in3.8 mm
08:16 AM 36.5°F2.5°C 34.7°F1.5°C 93% Calm Calm -- 29.89 in1012.2 mb 0.00 in0.0 mm 0.00 in0.0 mm 0.15 in3.8 mm
08:17 AM 36.7°F2.6°C 34.6°F1.4°C 92% Calm Calm -- 29.89 in1012.2 mb 0.00 in0.0 mm 0.00 in0.0 mm 0.15 in3.8 mm
08:18 AM 36.7°F2.6°C 34.6°F1.4°C 92% Calm Calm -- 29.90 in1012.5 mb 0.00 in0.0 mm 0.00 in0.0 mm 0.15 in3.8 mm
08:19 AM 36.7°F2.6°C 34.6°F1.4°C 92% Calm Calm -- 29.90 in1012.5 mb 0.00 in0.0 mm 0.00 in0.0 mm 0.15 in3.8 mm
08:20 AM 36.7°F2.6°C 34.6°F1.4°C 92% Calm Calm -- 29.89 in1012.2 mb 0.00 in0.0 mm 0.00 in0.0 mm 0.15 in3.8 mm
08:21 AM 36.7°F2.6°C 34.6°F1.4°C 92% Calm Calm -- 29.89 in1012.2 mb 0.00 in0.0 mm 0.00 in0.0 mm 0.15 in3.8 mm
08:22 AM 36.9°F2.7°C 34.8°F1.6°C 92% Calm Calm -- 29.89 in1012.2 mb 0.00 in0.0 mm 0.00 in0.0 mm 0.15 in3.8 mm
08:23 AM 36.9°F2.7°C 34.5°F1.4°C 91% Calm Calm -- 29.90 in1012.5 mb 0.00 in0.0 mm 0.00 in0.0 mm 0.15 in3.8 mm
08:24 AM 36.9°F2.7°C 34.8°F1.6°C 92% 0.4 mph ESE0.6 kmh ESE 1.1 mph1.8 kmh 29.89 in1012.2 mb 0.00 in0.0 mm 0.00 in0.0 mm 0.15 in3.8 mm
08:25 AM 36.9°F2.7°C 34.5°F1.4°C 91% 0.2 mph ESE0.3 kmh ESE 1.1 mph1.8 kmh 29.90 in1012.5 mb 0.00 in0.0 mm 0.00 in0.0 mm 0.15 in3.8 mm
08:26 AM 36.9°F2.7°C 34.5°F1.4°C 91% Calm Calm -- 29.89 in1012.2 mb 0.00 in0.0 mm 0.00 in0.0 mm 0.15 in3.8 mm
08:27 AM 36.9°F2.7°C 34.2°F1.2°C 90% 0.2 mph ESE0.3 kmh ESE 1.1 mph1.8 kmh 29.90 in1012.5 mb 0.00 in0.0 mm 0.00 in0.0 mm 0.15 in3.8 mm
08:28 AM 36.9°F2.7°C 34.2°F1.2°C 90% Calm Calm -- 29.89 in1012.2 mb 0.00 in0.0 mm 0.00 in0.0 mm 0.15 in3.8 mm
08:29 AM 36.9°F2.7°C 34.2°F1.2°C 90% Calm Calm -- 29.89 in1012.2 mb 0.00 in0.0 mm 0.00 in0.0 mm 0.15 in3.8 mm
08:30 AM 36.9°F2.7°C 34.5°F1.4°C 91% Calm Calm -- 29.89 in1012.2 mb 0.00 in0.0 mm 0.00 in0.0 mm 0.15 in3.8 mm
08:31 AM 37.2°F2.9°C 34.8°F1.6°C 91% Calm Calm -- 29.89 in1012.2 mb 0.07 in1.8 mm 4.20 in106.7 mm 0.16 in4.1 mm
08:32 AM 37.2°F2.9°C 34.8°F1.6°C 91% 0.2 mph ESE0.3 kmh ESE 1.1 mph1.8 kmh 29.89 in1012.2 mb 0.07 in1.8 mm 0.00 in0.0 mm 0.16 in4.1 mm
08:33 AM 37.2°F2.9°C 34.8°F1.6°C 91% 0.4 mph ESE0.6 kmh ESE 1.1 mph1.8 kmh 29.89 in1012.2 mb 0.07 in1.8 mm 0.00 in0.0 mm 0.16 in4.1 mm
08:34 AM 37.2°F2.9°C 34.8°F1.6°C 91% 0.7 mph ESE1.1 kmh ESE 1.1 mph1.8 kmh 29.89 in1012.2 mb 0.07 in1.8 mm 0.00 in0.0 mm 0.16 in4.1 mm
08:35 AM 37.2°F2.9°C 34.8°F1.6°C 91% 0.9 mph ESE1.4 kmh ESE 1.1 mph1.8 kmh 29.89 in1012.2 mb 0.07 in1.8 mm 0.00 in0.0 mm 0.16 in4.1 mm
08:36 AM 37.4°F3.0°C 34.7°F1.5°C 90% 0.2 mph ESE0.3 kmh ESE 1.1 mph1.8 kmh 29.89 in1012.2 mb 0.07 in1.8 mm 0.00 in0.0 mm 0.16 in4.1 mm
08:37 AM 37.4°F3.0°C 34.7°F1.5°C 90% 0.2 mph ESE0.3 kmh ESE 1.1 mph1.8 kmh 29.89 in1012.2 mb 0.07 in1.8 mm 0.00 in0.0 mm 0.16 in4.1 mm
08:40 AM 37.4°F3.0°C 34.7°F1.5°C 90% 0.2 mph ESE0.3 kmh ESE 1.1 mph1.8 kmh 29.90 in1012.5 mb 0.07 in1.8 mm 0.00 in0.0 mm 0.16 in4.1 mm
08:41 AM 37.4°F3.0°C 34.5°F1.4°C 89% Calm Calm -- 29.90 in1012.5 mb 0.00 in0.0 mm 0.00 in0.0 mm 0.16 in4.1 mm
08:42 AM 37.4°F3.0°C 34.7°F1.5°C 90% Calm Calm -- 29.89 in1012.2 mb 0.00 in0.0 mm 0.00 in0.0 mm 0.16 in4.1 mm
08:43 AM 37.4°F3.0°C 34.7°F1.5°C 90% 0.2 mph ESE0.3 kmh ESE 1.1 mph1.8 kmh 29.90 in1012.5 mb 0.00 in0.0 mm 0.00 in0.0 mm 0.16 in4.1 mm
08:44 AM 37.2°F2.9°C 34.8°F1.6°C 91% 1.3 mph ESE2.1 kmh ESE 2.2 mph3.5 kmh 29.90 in1012.5 mb 0.00 in0.0 mm 0.00 in0.0 mm 0.16 in4.1 mm
08:45 AM 37.2°F2.9°C 34.5°F1.4°C 90% 0.9 mph NNE1.4 kmh NNE 1.1 mph1.8 kmh 29.89 in1012.2 mb 0.00 in0.0 mm 0.00 in0.0 mm 0.16 in4.1 mm
08:46 AM 37.2°F2.9°C 34.5°F1.4°C 90% 0.9 mph NNE1.4 kmh NNE 1.1 mph1.8 kmh 29.90 in1012.5 mb 0.00 in0.0 mm 0.00 in0.0 mm 0.16 in4.1 mm
08:47 AM 37.2°F2.9°C 34.5°F1.4°C 90% 0.9 mph NNE1.4 kmh NNE 1.1 mph1.8 kmh 29.89 in1012.2 mb 0.00 in0.0 mm 0.00 in0.0 mm 0.16 in4.1 mm
08:48 AM 37.2°F2.9°C 34.5°F1.4°C 90% 0.9 mph NNE1.4 kmh NNE 1.1 mph1.8 kmh 29.89 in1012.2 mb 0.00 in0.0 mm 0.00 in0.0 mm 0.16 in4.1 mm
08:49 AM 37.4°F3.0°C 34.7°F1.5°C 90% 0.9 mph E1.4 kmh E 1.1 mph1.8 kmh 29.89 in1012.2 mb 0.00 in0.0 mm 0.00 in0.0 mm 0.16 in4.1 mm
08:50 AM 37.4°F3.0°C 34.5°F1.4°C 89% Calm Calm -- 29.90 in1012.5 mb 0.00 in0.0 mm 0.00 in0.0 mm 0.16 in4.1 mm
08:51 AM 37.4°F3.0°C 34.7°F1.5°C 90% Calm Calm -- 29.89 in1012.2 mb 0.00 in0.0 mm 0.00 in0.0 mm 0.16 in4.1 mm
08:52 AM 37.4°F3.0°C 34.7°F1.5°C 90% Calm Calm -- 29.89 in1012.2 mb 0.00 in0.0 mm 0.00 in0.0 mm 0.16 in4.1 mm
08:53 AM 37.6°F3.1°C 34.9°F1.6°C 90% Calm Calm -- 29.89 in1012.2 mb 0.00 in0.0 mm 0.00 in0.0 mm 0.16 in4.1 mm
08:54 AM 37.6°F3.1°C 34.9°F1.6°C 90% Calm Calm -- 29.90 in1012.5 mb 0.00 in0.0 mm 0.00 in0.0 mm 0.16 in4.1 mm
08:55 AM 37.6°F3.1°C 34.9°F1.6°C 90% Calm Calm -- 29.89 in1012.2 mb 0.00 in0.0 mm 0.00 in0.0 mm 0.16 in4.1 mm
08:56 AM 37.8°F3.2°C 35.1°F1.7°C 90% Calm Calm -- 29.89 in1012.2 mb 0.00 in0.0 mm 0.00 in0.0 mm 0.16 in4.1 mm
08:57 AM 37.8°F3.2°C 35.1°F1.7°C 90% 0.7 mph E1.1 kmh E 1.1 mph1.8 kmh 29.89 in1012.2 mb 0.00 in0.0 mm 0.00 in0.0 mm 0.16 in4.1 mm
08:58 AM 37.8°F3.2°C 34.9°F1.6°C 89% Calm Calm -- 29.89 in1012.2 mb 0.00 in0.0 mm 0.00 in0.0 mm 0.16 in4.1 mm
08:59 AM 37.8°F3.2°C 35.1°F1.7°C 90% Calm Calm -- 29.89 in1012.2 mb 0.00 in0.0 mm 0.00 in0.0 mm 0.16 in4.1 mm
09:00 AM 37.9°F3.3°C 35.2°F1.8°C 90% Calm Calm -- 29.89 in1012.2 mb 0.00 in0.0 mm 0.00 in0.0 mm 0.16 in4.1 mm
09:01 AM 37.9°F3.3°C 35.2°F1.8°C 90% Calm Calm -- 29.88 in1011.9 mb 0.00 in0.0 mm 0.00 in0.0 mm 0.16 in4.1 mm
09:02 AM 37.9°F3.3°C 35.2°F1.8°C 90% 0.2 mph E0.3 kmh E 1.1 mph1.8 kmh 29.89 in1012.2 mb 0.00 in0.0 mm 0.00 in0.0 mm 0.16 in4.1 mm
09:03 AM 37.9°F3.3°C 35.0°F1.7°C 89% Calm Calm -- 29.89 in1012.2 mb 0.00 in0.0 mm 0.00 in0.0 mm 0.16 in4.1 mm
09:04 AM 37.8°F3.2°C 34.9°F1.6°C 89% Calm Calm -- 29.89 in1012.2 mb 0.00 in0.0 mm 0.00 in0.0 mm 0.16 in4.1 mm
09:06 AM 37.8°F3.2°C 35.1°F1.7°C 90% Calm Calm -- 29.88 in1011.9 mb 0.00 in0.0 mm 0.00 in0.0 mm 0.16 in4.1 mm
09:07 AM 37.8°F3.2°C 34.9°F1.6°C 89% Calm Calm -- 29.89 in1012.2 mb 0.00 in0.0 mm 0.00 in0.0 mm 0.16 in4.1 mm
09:08 AM 37.8°F3.2°C 35.4°F1.9°C 91% Calm Calm -- 29.88 in1011.9 mb 0.00 in0.0 mm 0.00 in0.0 mm 0.16 in4.1 mm
09:09 AM 38.5°F3.6°C 35.5°F1.9°C 89% Calm Calm -- 29.89 in1012.2 mb 0.00 in0.0 mm 0.00 in0.0 mm 0.16 in4.1 mm
09:10 AM 39.0°F3.9°C 35.8°F2.1°C 88% Calm Calm -- 29.90 in1012.5 mb 0.00 in0.0 mm 0.00 in0.0 mm 0.16 in4.1 mm
09:11 AM 39.6°F4.2°C 36.1°F2.3°C 87% Calm Calm -- 29.89 in1012.2 mb 0.00 in0.0 mm 0.00 in0.0 mm 0.16 in4.1 mm
09:12 AM 39.9°F4.4°C 35.5°F1.9°C 84% 0.2 mph E0.3 kmh E 1.1 mph1.8 kmh 29.89 in1012.2 mb 0.00 in0.0 mm 0.00 in0.0 mm 0.16 in4.1 mm
09:13 AM 39.9°F4.4°C 35.8°F2.1°C 85% Calm Calm -- 29.89 in1012.2 mb 0.00 in0.0 mm 0.00 in0.0 mm 0.16 in4.1 mm
09:14 AM 39.4°F4.1°C 35.3°F1.8°C 85% Calm Calm -- 29.89 in1012.2 mb 0.00 in0.0 mm 0.00 in0.0 mm 0.16 in4.1 mm
09:15 AM 39.4°F4.1°C 35.9°F2.2°C 87% Calm Calm -- 29.90 in1012.5 mb 0.00 in0.0 mm 0.00 in0.0 mm 0.16 in4.1 mm
09:16 AM 39.6°F4.2°C 36.3°F2.4°C 88% Calm Calm -- 29.89 in1012.2 mb 0.00 in0.0 mm 0.00 in0.0 mm 0.16 in4.1 mm
09:17 AM 39.9°F4.4°C 36.4°F2.4°C 87% 0.2 mph E0.3 kmh E 1.1 mph1.8 kmh 29.89 in1012.2 mb 0.00 in0.0 mm 0.00 in0.0 mm 0.16 in4.1 mm
09:18 AM 40.6°F4.8°C 36.4°F2.4°C 85% 0.7 mph E1.1 kmh E 1.1 mph1.8 kmh 29.89 in1012.2 mb 0.00 in0.0 mm 0.00 in0.0 mm 0.16 in4.1 mm
09:19 AM 40.6°F4.8°C 36.7°F2.6°C 86% 0.9 mph E1.4 kmh E 1.1 mph1.8 kmh 29.89 in1012.2 mb 0.00 in0.0 mm 0.00 in0.0 mm 0.16 in4.1 mm
09:20 AM 40.5°F4.7°C 36.9°F2.7°C 87% Calm Calm -- 29.89 in1012.2 mb 0.00 in0.0 mm 0.00 in0.0 mm 0.16 in4.1 mm
09:21 AM 40.3°F4.6°C 36.5°F2.5°C 86% 0.9 mph ENE1.4 kmh ENE 1.1 mph1.8 kmh 29.89 in1012.2 mb 0.00 in0.0 mm 0.00 in0.0 mm 0.16 in4.1 mm
09:22 AM 40.1°F4.5°C 36.3°F2.4°C 86% Calm Calm -- 29.90 in1012.5 mb 0.00 in0.0 mm 0.00 in0.0 mm 0.16 in4.1 mm
09:23 AM 39.7°F4.3°C 35.9°F2.2°C 86% 0.7 mph ENE1.1 kmh ENE 1.1 mph1.8 kmh 29.89 in1012.2 mb 0.00 in0.0 mm 0.00 in0.0 mm 0.16 in4.1 mm
09:24 AM 39.7°F4.3°C 35.6°F2.0°C 85% 1.1 mph ENE1.8 kmh ENE 1.1 mph1.8 kmh 29.90 in1012.5 mb 0.00 in0.0 mm 0.00 in0.0 mm 0.16 in4.1 mm
09:25 AM 39.7°F4.3°C 36.2°F2.3°C 87% 0.9 mph NE1.4 kmh NE 1.1 mph1.8 kmh 29.90 in1012.5 mb 0.00 in0.0 mm 0.00 in0.0 mm 0.16 in4.1 mm
09:26 AM 39.7°F4.3°C 35.9°F2.2°C 86% 1.6 mph NE2.6 kmh NE 2.2 mph3.5 kmh 29.90 in1012.5 mb 0.00 in0.0 mm 0.00 in0.0 mm 0.16 in4.1 mm
09:27 AM 39.7°F4.3°C 35.9°F2.2°C 86% 0.7 mph NE1.1 kmh NE 2.2 mph3.5 kmh 29.89 in1012.2 mb 0.00 in0.0 mm 0.00 in0.0 mm 0.16 in4.1 mm
09:28 AM 39.7°F4.3°C 36.2°F2.3°C 87% 1.1 mph NE1.8 kmh NE 1.1 mph1.8 kmh 29.90 in1012.5 mb 0.00 in0.0 mm 0.00 in0.0 mm 0.16 in4.1 mm
09:30 AM 39.7°F4.3°C 36.2°F2.3°C 87% 0.7 mph NE1.1 kmh NE 1.1 mph1.8 kmh 29.90 in1012.5 mb 0.00 in0.0 mm 0.00 in0.0 mm 0.16 in4.1 mm
09:31 AM 39.7°F4.3°C 36.2°F2.3°C 87% Calm Calm -- 29.90 in1012.5 mb 0.00 in0.0 mm 0.00 in0.0 mm 0.16 in4.1 mm
09:33 AM 40.5°F4.7°C 35.8°F2.1°C 83% Calm Calm -- 29.89 in1012.2 mb 0.00 in0.0 mm 0.00 in0.0 mm 0.16 in4.1 mm
09:34 AM 41.2°F5.1°C 37.6°F3.1°C 87% 0.4 mph E0.6 kmh E 1.1 mph1.8 kmh 29.89 in1012.2 mb 0.00 in0.0 mm 0.00 in0.0 mm 0.16 in4.1 mm
09:35 AM 41.5°F5.3°C 37.0°F2.8°C 84% 1.3 mph E2.1 kmh E 2.2 mph3.5 kmh 29.90 in1012.5 mb 0.00 in0.0 mm 0.00 in0.0 mm 0.16 in4.1 mm
09:36 AM 41.4°F5.2°C 37.5°F3.1°C 86% Calm Calm -- 29.90 in1012.5 mb 0.00 in0.0 mm 0.00 in0.0 mm 0.16 in4.1 mm
09:37 AM 41.4°F5.2°C 37.2°F2.9°C 85% 0.9 mph E1.4 kmh E 1.1 mph1.8 kmh 29.89 in1012.2 mb 0.00 in0.0 mm 0.00 in0.0 mm 0.16 in4.1 mm
09:39 AM 41.2°F5.1°C 37.3°F2.9°C 86% 1.1 mph E1.8 kmh E 1.1 mph1.8 kmh 29.89 in1012.2 mb 0.00 in0.0 mm 0.00 in0.0 mm 0.16 in4.1 mm
09:40 AM 41.4°F5.2°C 37.5°F3.1°C 86% 0.9 mph E1.4 kmh E 1.1 mph1.8 kmh 29.90 in1012.5 mb 0.00 in0.0 mm 0.00 in0.0 mm 0.16 in4.1 mm
09:42 AM 42.4°F5.8°C 38.2°F3.4°C 85% 0.9 mph E1.4 kmh E 1.1 mph1.8 kmh 29.90 in1012.5 mb 0.00 in0.0 mm 0.00 in0.0 mm 0.16 in4.1 mm
09:43 AM 43.2°F6.2°C 38.7°F3.7°C 84% 1.1 mph E1.8 kmh E 1.1 mph1.8 kmh 29.90 in1012.5 mb 0.00 in0.0 mm 0.00 in0.0 mm 0.16 in4.1 mm
09:44 AM 43.2°F6.2°C 38.7°F3.7°C 84% 0.2 mph E0.3 kmh E 1.1 mph1.8 kmh 29.90 in1012.5 mb 0.00 in0.0 mm 0.00 in0.0 mm 0.16 in4.1 mm
09:45 AM 43.2°F6.2°C 39.3°F4.1°C 86% 0.2 mph E0.3 kmh E 1.1 mph1.8 kmh 29.90 in1012.5 mb 0.00 in0.0 mm 0.00 in0.0 mm 0.16 in4.1 mm
09:46 AM 43.3°F6.3°C 38.5°F3.6°C 83% 1.1 mph ESE1.8 kmh ESE 2.2 mph3.5 kmh 29.90 in1012.5 mb 0.00 in0.0 mm 0.00 in0.0 mm 0.16 in4.1 mm
09:47 AM 43.5°F6.4°C 39.3°F4.1°C 85% 1.1 mph ESE1.8 kmh ESE 1.1 mph1.8 kmh 29.90 in1012.5 mb 0.00 in0.0 mm 0.00 in0.0 mm 0.16 in4.1 mm
09:48 AM 43.3°F6.3°C 38.5°F3.6°C 83% 1.6 mph ESE2.6 kmh ESE 2.2 mph3.5 kmh 29.90 in1012.5 mb 0.00 in0.0 mm 0.00 in0.0 mm 0.16 in4.1 mm
09:49 AM 43.0°F6.1°C 38.5°F3.6°C 84% 1.3 mph SE2.1 kmh SE 2.2 mph3.5 kmh 29.91 in1012.9 mb 0.00 in0.0 mm 0.00 in0.0 mm 0.16 in4.1 mm
09:50 AM 42.8°F6.0°C 38.6°F3.7°C 85% 2.0 mph SE3.2 kmh SE 2.2 mph3.5 kmh 29.90 in1012.5 mb 0.00 in0.0 mm 0.00 in0.0 mm 0.16 in4.1 mm
09:51 AM 42.6°F5.9°C 38.7°F3.7°C 86% 1.1 mph SE1.8 kmh SE 1.1 mph1.8 kmh 29.90 in1012.5 mb 0.00 in0.0 mm 0.00 in0.0 mm 0.16 in4.1 mm
09:52 AM 42.8°F6.0°C 37.4°F3.0°C 81% 0.9 mph SE1.4 kmh SE 1.1 mph1.8 kmh 29.90 in1012.5 mb 0.00 in0.0 mm 0.00 in0.0 mm 0.16 in4.1 mm
09:53 AM 42.8°F6.0°C 38.0°F3.3°C 83% 1.1 mph SE1.8 kmh SE 1.1 mph1.8 kmh 29.90 in1012.5 mb 0.00 in0.0 mm 0.00 in0.0 mm 0.16 in4.1 mm
09:54 AM 42.8°F6.0°C 37.7°F3.2°C 82% 2.0 mph SE3.2 kmh SE 2.2 mph3.5 kmh 29.89 in1012.2 mb 0.00 in0.0 mm 0.00 in0.0 mm 0.16 in4.1 mm
09:56 AM 42.8°F6.0°C 37.7°F3.2°C 82% 1.1 mph SE1.8 kmh SE 1.1 mph1.8 kmh 29.90 in1012.5 mb 0.00 in0.0 mm 0.00 in0.0 mm 0.16 in4.1 mm
09:57 AM 43.0°F6.1°C 36.9°F2.7°C 79% Calm Calm -- 29.90 in1012.5 mb 0.00 in0.0 mm 0.00 in0.0 mm 0.16 in4.1 mm
09:58 AM 43.5°F6.4°C 38.7°F3.7°C 83% Calm Calm -- 29.89 in1012.2 mb 0.00 in0.0 mm 0.00 in0.0 mm 0.16 in4.1 mm
09:59 AM 43.5°F6.4°C 39.0°F3.9°C 84% 0.2 mph SE0.3 kmh SE 1.1 mph1.8 kmh 29.90 in1012.5 mb 0.00 in0.0 mm 0.00 in0.0 mm 0.16 in4.1 mm
10:00 AM 43.5°F6.4°C 38.4°F3.6°C 82% Calm Calm -- 29.90 in1012.5 mb 0.00 in0.0 mm 0.00 in0.0 mm 0.16 in4.1 mm
10:01 AM 43.5°F6.4°C 38.7°F3.7°C 83% Calm Calm -- 29.90 in1012.5 mb 0.00 in0.0 mm 0.00 in0.0 mm 0.16 in4.1 mm
10:02 AM 43.7°F6.5°C 37.3°F2.9°C 78% 0.2 mph E0.3 kmh E 1.1 mph1.8 kmh 29.90 in1012.5 mb 0.00 in0.0 mm 0.00 in0.0 mm 0.16 in4.1 mm
10:03 AM 43.7°F6.5°C 38.3°F3.5°C 81% Calm Calm -- 29.90 in1012.5 mb 0.00 in0.0 mm 0.00 in0.0 mm 0.16 in4.1 mm
10:04 AM 43.9°F6.6°C 39.1°F3.9°C 83% Calm Calm -- 29.90 in1012.5 mb 0.00 in0.0 mm 0.00 in0.0 mm 0.16 in4.1 mm
10:05 AM 44.2°F6.8°C 38.1°F3.4°C 79% Calm Calm -- 29.90 in1012.5 mb 0.00 in0.0 mm 0.00 in0.0 mm 0.16 in4.1 mm
10:06 AM 44.4°F6.9°C 38.3°F3.5°C 79% Calm Calm -- 29.90 in1012.5 mb 0.00 in0.0 mm 0.00 in0.0 mm 0.16 in4.1 mm
10:07 AM 44.6°F7.0°C 39.1°F3.9°C 81% Calm Calm -- 29.90 in1012.5 mb 0.00 in0.0 mm 0.00 in0.0 mm 0.16 in4.1 mm
10:08 AM 45.0°F7.2°C 38.6°F3.7°C 78% 0.9 mph E1.4 kmh E 1.1 mph1.8 kmh 29.90 in1012.5 mb 0.00 in0.0 mm 0.00 in0.0 mm 0.16 in4.1 mm
10:09 AM 45.0°F7.2°C 38.9°F3.8°C 79% Calm Calm -- 29.90 in1012.5 mb 0.00 in0.0 mm 0.00 in0.0 mm 0.16 in4.1 mm
10:11 AM 45.1°F7.3°C 38.3°F3.5°C 77% Calm Calm -- 29.89 in1012.2 mb 0.00 in0.0 mm 0.00 in0.0 mm 0.16 in4.1 mm
10:12 AM 45.5°F7.5°C 38.7°F3.7°C 77% 0.9 mph E1.4 kmh E 1.1 mph1.8 kmh 29.90 in1012.5 mb 0.00 in0.0 mm 0.00 in0.0 mm 0.16 in4.1 mm
10:13 AM 45.9°F7.7°C 39.8°F4.3°C 79% 0.2 mph E0.3 kmh E 1.1 mph1.8 kmh 29.89 in1012.2 mb 0.00 in0.0 mm 0.00 in0.0 mm 0.16 in4.1 mm
10:14 AM 45.9°F7.7°C 37.0°F2.8°C 71% 2.0 mph ESE3.2 kmh ESE 2.2 mph3.5 kmh 29.89 in1012.2 mb 0.00 in0.0 mm 0.00 in0.0 mm 0.16 in4.1 mm
10:15 AM 45.9°F7.7°C 39.1°F3.9°C 77% 1.1 mph ESE1.8 kmh ESE 1.1 mph1.8 kmh 29.90 in1012.5 mb 0.00 in0.0 mm 0.00 in0.0 mm 0.16 in4.1 mm
10:16 AM 45.3°F7.4°C 39.5°F4.2°C 80% 1.3 mph ESE2.1 kmh ESE 2.2 mph3.5 kmh 29.89 in1012.2 mb 0.00 in0.0 mm 0.00 in0.0 mm 0.16 in4.1 mm
10:18 AM 45.3°F7.4°C 37.5°F3.1°C 74% Calm Calm -- 29.90 in1012.5 mb 0.00 in0.0 mm 0.00 in0.0 mm 0.16 in4.1 mm
10:19 AM 45.5°F7.5°C 39.0°F3.9°C 78% Calm Calm -- 29.89 in1012.2 mb 0.00 in0.0 mm 0.00 in0.0 mm 0.16 in4.1 mm
10:20 AM 45.9°F7.7°C 38.4°F3.6°C 75% 0.7 mph ESE1.1 kmh ESE 1.1 mph1.8 kmh 29.90 in1012.5 mb 0.00 in0.0 mm 0.00 in0.0 mm 0.16 in4.1 mm
10:21 AM 46.6°F8.1°C 38.1°F3.4°C 72% 0.9 mph ESE1.4 kmh ESE 1.1 mph1.8 kmh 29.89 in1012.2 mb 0.00 in0.0 mm 0.00 in0.0 mm 0.16 in4.1 mm
10:22 AM 46.6°F8.1°C 37.7°F3.2°C 71% 0.4 mph ESE0.6 kmh ESE 1.1 mph1.8 kmh 29.90 in1012.5 mb 0.00 in0.0 mm 0.00 in0.0 mm 0.16 in4.1 mm
10:23 AM 46.4°F8.0°C 36.8°F2.7°C 69% 1.1 mph ESE1.8 kmh ESE 2.2 mph3.5 kmh 29.90 in1012.5 mb 0.00 in0.0 mm 0.00 in0.0 mm 0.16 in4.1 mm
10:24 AM 46.2°F7.9°C 40.1°F4.5°C 79% 0.2 mph ESE0.3 kmh ESE 1.1 mph1.8 kmh 29.90 in1012.5 mb 0.00 in0.0 mm 0.00 in0.0 mm 0.16 in4.1 mm
10:25 AM 46.2°F7.9°C 37.7°F3.2°C 72% 2.2 mph ESE3.5 kmh ESE 2.2 mph3.5 kmh 29.90 in1012.5 mb 0.00 in0.0 mm 0.00 in0.0 mm 0.16 in4.1 mm
10:26 AM 46.0°F7.8°C 37.8°F3.2°C 73% 1.8 mph SE2.9 kmh SE 3.4 mph5.5 kmh 29.90 in1012.5 mb 0.00 in0.0 mm 0.00 in0.0 mm 0.16 in4.1 mm
10:27 AM 46.0°F7.8°C 37.1°F2.8°C 71% 2.5 mph SE4.0 kmh SE 3.4 mph5.5 kmh 29.90 in1012.5 mb 0.00 in0.0 mm 0.00 in0.0 mm 0.16 in4.1 mm
10:28 AM 45.7°F7.6°C 37.2°F2.9°C 72% 1.1 mph SE1.8 kmh SE 1.1 mph1.8 kmh 29.89 in1012.2 mb 0.00 in0.0 mm 0.00 in0.0 mm 0.16 in4.1 mm
10:29 AM 45.7°F7.6°C 36.8°F2.7°C 71% 0.9 mph SE1.4 kmh SE 1.1 mph1.8 kmh 29.90 in1012.5 mb 0.00 in0.0 mm 0.00 in0.0 mm 0.16 in4.1 mm
10:31 AM 46.0°F7.8°C 37.5°F3.1°C 72% 0.9 mph SE1.4 kmh SE 1.1 mph1.8 kmh 29.89 in1012.2 mb 0.00 in0.0 mm 0.00 in0.0 mm 0.16 in4.1 mm
10:32 AM 46.9°F8.3°C 37.3°F2.9°C 69% 1.1 mph SE1.8 kmh SE 1.1 mph1.8 kmh 29.90 in1012.5 mb 0.00 in0.0 mm 0.00 in0.0 mm 0.16 in4.1 mm
10:33 AM 46.9°F8.3°C 35.4°F1.9°C 64% 2.5 mph WSW4.0 kmh WSW 6.9 mph11.1 kmh 29.89 in1012.2 mb 0.00 in0.0 mm 0.00 in0.0 mm 0.16 in4.1 mm
10:34 AM 46.4°F8.0°C 34.5°F1.4°C 63% 4.9 mph SW7.9 kmh SW 6.9 mph11.1 kmh 29.89 in1012.2 mb 0.00 in0.0 mm 0.00 in0.0 mm 0.16 in4.1 mm
10:35 AM 46.2°F7.9°C 33.9°F1.1°C 62% 7.4 mph NW11.9 kmh NW 10.3 mph16.6 kmh 29.89 in1012.2 mb 0.00 in0.0 mm 0.00 in0.0 mm 0.16 in4.1 mm
10:36 AM 46.2°F7.9°C 34.3°F1.3°C 63% 1.8 mph NE2.9 kmh NE 2.2 mph3.5 kmh 29.89 in1012.2 mb 0.00 in0.0 mm 0.00 in0.0 mm 0.16 in4.1 mm
10:37 AM 46.4°F8.0°C 34.5°F1.4°C 63% 5.6 mph NW9.0 kmh NW 6.9 mph11.1 kmh 29.89 in1012.2 mb 0.00 in0.0 mm 0.00 in0.0 mm 0.16 in4.1 mm
10:38 AM 46.8°F8.2°C 33.7°F0.9°C 60% 2.0 mph ENE3.2 kmh ENE 3.4 mph5.5 kmh 29.90 in1012.5 mb 0.00 in0.0 mm 0.00 in0.0 mm 0.16 in4.1 mm
10:39 AM 46.8°F8.2°C 33.7°F0.9°C 60% 6.0 mph NW9.7 kmh NW 8.1 mph13.0 kmh 29.89 in1012.2 mb 0.00 in0.0 mm 0.00 in0.0 mm 0.16 in4.1 mm
10:40 AM 46.4°F8.0°C 33.3°F0.7°C 60% 7.4 mph NW11.9 kmh NW 9.2 mph14.8 kmh 29.90 in1012.5 mb 0.00 in0.0 mm 0.00 in0.0 mm 0.16 in4.1 mm
10:42 AM 45.9°F7.7°C 34.0°F1.1°C 63% 4.5 mph NW7.2 kmh NW 5.8 mph9.3 kmh 29.90 in1012.5 mb 0.00 in0.0 mm 0.00 in0.0 mm 0.16 in4.1 mm
10:43 AM 45.9°F7.7°C 34.0°F1.1°C 63% 3.6 mph NW5.8 kmh NW 4.5 mph7.2 kmh 29.90 in1012.5 mb 0.00 in0.0 mm 0.00 in0.0 mm 0.16 in4.1 mm
10:44 AM 45.9°F7.7°C 32.4°F0.2°C 59% 11.4 mph NW18.3 kmh NW 14.8 mph23.8 kmh 29.89 in1012.2 mb 0.00 in0.0 mm 0.00 in0.0 mm 0.16 in4.1 mm
10:45 AM 45.7°F7.6°C 32.6°F0.3°C 60% 8.7 mph W14.0 kmh W 10.3 mph16.6 kmh 29.90 in1012.5 mb 0.00 in0.0 mm 0.00 in0.0 mm 0.16 in4.1 mm
10:46 AM 45.0°F7.2°C 32.4°F0.2°C 61% 9.2 mph WNW14.8 kmh WNW 11.4 mph18.3 kmh 29.90 in1012.5 mb 0.00 in0.0 mm 0.00 in0.0 mm 0.16 in4.1 mm
10:47 AM 44.8°F7.1°C 32.2°F0.1°C 61% 8.1 mph WNW13.0 kmh WNW 10.3 mph16.6 kmh 29.90 in1012.5 mb 0.00 in0.0 mm 0.00 in0.0 mm 0.16 in4.1 mm
10:48 AM 44.8°F7.1°C 31.8°F-0.1°C 60% 7.4 mph NW11.9 kmh NW 9.2 mph14.8 kmh 29.89 in1012.2 mb 0.00 in0.0 mm 0.00 in0.0 mm 0.16 in4.1 mm
10:49 AM 44.8°F7.1°C 32.6°F0.3°C 62% 5.6 mph 9.0 kmh 6.9 mph11.1 kmh 29.89 in1012.2 mb 0.00 in0.0 mm 0.00 in0.0 mm 0.16 in4.1 mm
10:50 AM 44.6°F7.0°C 31.2°F-0.4°C 59% 7.6 mph WSW12.2 kmh WSW 13.6 mph21.9 kmh 29.89 in1012.2 mb 0.00 in0.0 mm 0.00 in0.0 mm 0.16 in4.1 mm
10:51 AM 44.6°F7.0°C 32.0°F0.0°C 61% 7.6 mph WNW12.2 kmh WNW 13.6 mph21.9 kmh 29.90 in1012.5 mb 0.00 in0.0 mm 0.00 in0.0 mm 0.16 in4.1 mm
10:52 AM 44.8°F7.1°C 32.2°F0.1°C 61% 8.7 mph NW14.0 kmh NW 14.8 mph23.8 kmh 29.89 in1012.2 mb 0.00 in0.0 mm 0.00 in0.0 mm 0.16 in4.1 mm
10:53 AM 45.1°F7.3°C 32.9°F0.5°C 62% 4.5 mph NNW7.2 kmh NNW 6.9 mph11.1 kmh 29.90 in1012.5 mb 0.00 in0.0 mm 0.00 in0.0 mm 0.16 in4.1 mm
10:54 AM 45.7°F7.6°C 32.6°F0.3°C 60% 3.8 mph WNW6.1 kmh WNW 4.5 mph7.2 kmh 29.90 in1012.5 mb 0.00 in0.0 mm 0.00 in0.0 mm 0.16 in4.1 mm
10:55 AM 45.9°F7.7°C 32.8°F0.4°C 60% 2.2 mph SSE3.5 kmh SSE 5.8 mph9.3 kmh 29.90 in1012.5 mb 0.00 in0.0 mm 0.00 in0.0 mm 0.16 in4.1 mm
10:56 AM 45.9°F7.7°C 31.5°F-0.3°C 57% 10.5 mph NW16.9 kmh NW 13.6 mph21.9 kmh 29.89 in1012.2 mb 0.00 in0.0 mm 0.00 in0.0 mm 0.16 in4.1 mm
10:57 AM 46.0°F7.8°C 31.6°F-0.2°C 57% 8.9 mph WNW14.3 kmh WNW 11.4 mph18.3 kmh 29.89 in1012.2 mb 0.00 in0.0 mm 0.00 in0.0 mm 0.16 in4.1 mm
10:58 AM 45.9°F7.7°C 31.5°F-0.3°C 57% 4.5 mph NW7.2 kmh NW 6.9 mph11.1 kmh 29.90 in1012.5 mb 0.00 in0.0 mm 0.00 in0.0 mm 0.16 in4.1 mm
10:59 AM 45.9°F7.7°C 32.0°F0.0°C 58% 8.5 mph N13.7 kmh N 11.4 mph18.3 kmh 29.90 in1012.5 mb 0.00 in0.0 mm 0.00 in0.0 mm 0.16 in4.1 mm
11:00 AM 46.0°F7.8°C 33.7°F0.9°C 62% 4.5 mph N7.2 kmh N 5.8 mph9.3 kmh 29.90 in1012.5 mb 0.00 in0.0 mm 0.00 in0.0 mm 0.16 in4.1 mm
11:02 AM 46.4°F8.0°C 32.0°F0.0°C 57% 6.0 mph WNW9.7 kmh WNW 9.2 mph14.8 kmh 29.89 in1012.2 mb 0.00 in0.0 mm 0.00 in0.0 mm 0.16 in4.1 mm
11:03 AM 46.4°F8.0°C 32.4°F0.2°C 58% 6.5 mph SSE10.5 kmh SSE 8.1 mph13.0 kmh 29.90 in1012.5 mb 0.00 in0.0 mm 0.00 in0.0 mm 0.16 in4.1 mm
11:04 AM 46.4°F8.0°C 31.6°F-0.2°C 56% 5.4 mph NNE8.7 kmh NNE 8.1 mph13.0 kmh 29.90 in1012.5 mb 0.00 in0.0 mm 0.00 in0.0 mm 0.16 in4.1 mm
11:05 AM 46.4°F8.0°C 31.1°F-0.5°C 55% 8.3 mph WNW13.4 kmh WNW 10.3 mph16.6 kmh 29.90 in1012.5 mb 0.00 in0.0 mm 0.00 in0.0 mm 0.16 in4.1 mm
11:07 AM 46.6°F8.1°C 31.8°F-0.1°C 56% 6.5 mph NW10.5 kmh NW 9.2 mph14.8 kmh 29.90 in1012.5 mb 0.00 in0.0 mm 0.00 in0.0 mm 0.16 in4.1 mm
11:08 AM 46.2°F7.9°C 30.9°F-0.6°C 55% 8.7 mph W14.0 kmh W 15.9 mph25.6 kmh 29.90 in1012.5 mb 0.00 in0.0 mm 0.00 in0.0 mm 0.16 in4.1 mm
11:09 AM 46.0°F7.8°C 31.6°F-0.2°C 57% 6.3 mph SW10.1 kmh SW 8.1 mph13.0 kmh 29.90 in1012.5 mb 0.00 in0.0 mm 0.00 in0.0 mm 0.16 in4.1 mm
11:10 AM 45.9°F7.7°C 32.0°F0.0°C 58% 5.4 mph N8.7 kmh N 5.8 mph9.3 kmh 29.90 in1012.5 mb 0.00 in0.0 mm 0.00 in0.0 mm 0.16 in4.1 mm
11:11 AM 46.0°F7.8°C 32.1°F0.1°C 58% 4.0 mph SSW6.4 kmh SSW 4.5 mph7.2 kmh 29.91 in1012.9 mb 0.00 in0.0 mm 0.00 in0.0 mm 0.16 in4.1 mm
11:12 AM 46.0°F7.8°C 31.2°F-0.4°C 56% 3.6 mph WSW5.8 kmh WSW 5.8 mph9.3 kmh 29.90 in1012.5 mb 0.00 in0.0 mm 0.00 in0.0 mm 0.16 in4.1 mm
11:13 AM 46.6°F8.1°C 32.2°F0.1°C 57% 3.1 mph NE5.0 kmh NE 4.5 mph7.2 kmh 29.90 in1012.5 mb 0.00 in0.0 mm 0.00 in0.0 mm 0.16 in4.1 mm
11:15 AM 46.8°F8.2°C 31.0°F-0.6°C 54% 5.8 mph W9.3 kmh W 9.2 mph14.8 kmh 29.90 in1012.5 mb 0.00 in0.0 mm 0.00 in0.0 mm 0.16 in4.1 mm
11:16 AM 47.1°F8.4°C 31.8°F-0.1°C 55% 5.1 mph NW8.2 kmh NW 5.8 mph9.3 kmh 29.90 in1012.5 mb 0.00 in0.0 mm 0.00 in0.0 mm 0.16 in4.1 mm
11:18 AM 47.3°F8.5°C 31.0°F-0.6°C 53% 9.6 mph W15.4 kmh W 11.4 mph18.3 kmh 29.90 in1012.5 mb 0.00 in0.0 mm 0.00 in0.0 mm 0.16 in4.1 mm
11:19 AM 47.5°F8.6°C 30.8°F-0.7°C 52% 7.8 mph W12.6 kmh W 9.2 mph14.8 kmh 29.89 in1012.2 mb 0.00 in0.0 mm 0.00 in0.0 mm 0.16 in4.1 mm
11:20 AM 47.3°F8.5°C 31.5°F-0.3°C 54% 2.5 mph W4.0 kmh W 5.8 mph9.3 kmh 29.90 in1012.5 mb 0.00 in0.0 mm 0.00 in0.0 mm 0.16 in4.1 mm
11:21 AM 46.8°F8.2°C 31.5°F-0.3°C 55% 3.8 mph N6.1 kmh N 4.5 mph7.2 kmh 29.91 in1012.9 mb 0.00 in0.0 mm 0.00 in0.0 mm 0.16 in4.1 mm
11:22 AM 46.9°F8.3°C 31.1°F-0.5°C 54% 5.8 mph NW9.3 kmh NW 8.1 mph13.0 kmh 29.90 in1012.5 mb 0.00 in0.0 mm 0.00 in0.0 mm 0.16 in4.1 mm
11:23 AM 46.9°F8.3°C 30.2°F-1.0°C 52% 4.5 mph N7.2 kmh N 5.8 mph9.3 kmh 29.90 in1012.5 mb 0.00 in0.0 mm 0.00 in0.0 mm 0.16 in4.1 mm
11:24 AM 47.1°F8.4°C 29.9°F-1.2°C 51% 6.5 mph NW10.5 kmh NW 10.3 mph16.6 kmh 29.91 in1012.9 mb 0.00 in0.0 mm 0.00 in0.0 mm 0.16 in4.1 mm
11:26 AM 47.1°F8.4°C 29.9°F-1.2°C 51% 6.9 mph WNW11.1 kmh WNW 9.2 mph14.8 kmh 29.89 in1012.2 mb 0.00 in0.0 mm 0.00 in0.0 mm 0.16 in4.1 mm
11:28 AM 47.3°F8.5°C 30.6°F-0.8°C 52% 10.5 mph SW16.9 kmh SW 21.7 mph34.9 kmh 29.90 in1012.5 mb 0.00 in0.0 mm 0.00 in0.0 mm 0.16 in4.1 mm
11:29 AM 47.1°F8.4°C 31.3°F-0.4°C 54% 4.7 mph NNE7.6 kmh NNE 6.9 mph11.1 kmh 29.90 in1012.5 mb 0.00 in0.0 mm 0.00 in0.0 mm 0.16 in4.1 mm
11:30 AM 46.6°F8.1°C 30.4°F-0.9°C 53% 6.0 mph ESE9.7 kmh ESE 11.4 mph18.3 kmh 29.89 in1012.2 mb 0.00 in0.0 mm 0.00 in0.0 mm 0.16 in4.1 mm
11:32 AM 46.8°F8.2°C 30.1°F-1.1°C 52% 6.9 mph W11.1 kmh W 9.2 mph14.8 kmh 29.90 in1012.5 mb 0.00 in0.0 mm 0.00 in0.0 mm 0.16 in4.1 mm
11:33 AM 47.1°F8.4°C 29.4°F-1.4°C 50% 11.0 mph NW17.7 kmh NW 13.6 mph21.9 kmh 29.89 in1012.2 mb 0.00 in0.0 mm 0.00 in0.0 mm 0.16 in4.1 mm
11:34 AM 47.1°F8.4°C 29.4°F-1.4°C 50% 7.4 mph W11.9 kmh W 10.3 mph16.6 kmh 29.89 in1012.2 mb 0.00 in0.0 mm 0.00 in0.0 mm 0.16 in4.1 mm
11:35 AM 47.1°F8.4°C 30.4°F-0.9°C 52% 6.3 mph SW10.1 kmh SW 8.1 mph13.0 kmh 29.90 in1012.5 mb 0.00 in0.0 mm 0.00 in0.0 mm 0.16 in4.1 mm
11:36 AM 47.1°F8.4°C 29.9°F-1.2°C 51% 8.5 mph NNW13.7 kmh NNW 10.3 mph16.6 kmh 29.89 in1012.2 mb 0.00 in0.0 mm 0.00 in0.0 mm 0.16 in4.1 mm
11:37 AM 47.3°F8.5°C 29.6°F-1.3°C 50% 3.8 mph SW6.1 kmh SW 5.8 mph9.3 kmh 29.89 in1012.2 mb 0.00 in0.0 mm 0.00 in0.0 mm 0.16 in4.1 mm
11:39 AM 47.5°F8.6°C 29.8°F-1.2°C 50% 2.7 mph WSW4.3 kmh WSW 3.4 mph5.5 kmh 29.89 in1012.2 mb 0.00 in0.0 mm 0.00 in0.0 mm 0.16 in4.1 mm
11:40 AM 47.8°F8.8°C 30.1°F-1.1°C 50% 5.4 mph WSW8.7 kmh WSW 8.1 mph13.0 kmh 29.89 in1012.2 mb 0.00 in0.0 mm 0.00 in0.0 mm 0.16 in4.1 mm
11:41 AM 47.7°F8.7°C 30.0°F-1.1°C 50% 9.2 mph S14.8 kmh S 11.4 mph18.3 kmh 29.90 in1012.5 mb 0.00 in0.0 mm 0.00 in0.0 mm 0.16 in4.1 mm
11:42 AM 47.7°F8.7°C 29.5°F-1.4°C 49% 11.2 mph WSW18.0 kmh WSW 17.2 mph27.7 kmh 29.89 in1012.2 mb 0.00 in0.0 mm 0.00 in0.0 mm 0.16 in4.1 mm
11:43 AM 47.5°F8.6°C 29.3°F-1.5°C 49% 11.2 mph S18.0 kmh S 15.9 mph25.6 kmh 29.89 in1012.2 mb 0.00 in0.0 mm 0.00 in0.0 mm 0.16 in4.1 mm
11:44 AM 47.5°F8.6°C 30.3°F-0.9°C 51% 10.5 mph WSW16.9 kmh WSW 12.5 mph20.1 kmh 29.89 in1012.2 mb 0.00 in0.0 mm 0.00 in0.0 mm 0.16 in4.1 mm
11:45 AM 46.9°F8.3°C 30.2°F-1.0°C 52% 3.4 mph S5.5 kmh S 4.5 mph7.2 kmh 29.89 in1012.2 mb 0.00 in0.0 mm 0.00 in0.0 mm 0.16 in4.1 mm
11:46 AM 46.9°F8.3°C 29.2°F-1.6°C 50% 6.5 mph S10.5 kmh S 9.2 mph14.8 kmh 29.89 in1012.2 mb 0.00 in0.0 mm 0.00 in0.0 mm 0.16 in4.1 mm
11:47 AM 47.7°F8.7°C 30.0°F-1.1°C 50% 4.0 mph NW6.4 kmh NW 5.8 mph9.3 kmh 29.89 in1012.2 mb 0.00 in0.0 mm 0.00 in0.0 mm 0.16 in4.1 mm
11:48 AM 48.4°F9.1°C 29.6°F-1.3°C 48% 7.2 mph N11.6 kmh N 8.1 mph13.0 kmh 29.89 in1012.2 mb 0.00 in0.0 mm 0.00 in0.0 mm 0.16 in4.1 mm
11:51 AM 48.2°F9.0°C 28.9°F-1.7°C 47% 6.5 mph WNW10.5 kmh WNW 8.1 mph13.0 kmh 29.88 in1011.9 mb 0.00 in0.0 mm 0.00 in0.0 mm 0.16 in4.1 mm
11:52 AM 48.2°F9.0°C 29.9°F-1.2°C 49% 3.4 mph S5.5 kmh S 4.5 mph7.2 kmh 29.89 in1012.2 mb 0.00 in0.0 mm 0.00 in0.0 mm 0.16 in4.1 mm
11:53 AM 48.4°F9.1°C 29.6°F-1.3°C 48% 8.1 mph SW13.0 kmh SW 11.4 mph18.3 kmh 29.89 in1012.2 mb 0.00 in0.0 mm 0.00 in0.0 mm 0.16 in4.1 mm
11:54 AM 48.4°F9.1°C 30.1°F-1.1°C 49% 9.6 mph WSW15.4 kmh WSW 14.8 mph23.8 kmh 29.89 in1012.2 mb 0.00 in0.0 mm 0.00 in0.0 mm 0.16 in4.1 mm
11:55 AM 48.2°F9.0°C 29.4°F-1.4°C 48% 4.5 mph WSW7.2 kmh WSW 6.9 mph11.1 kmh 29.89 in1012.2 mb 0.00 in0.0 mm 0.00 in0.0 mm 0.16 in4.1 mm
11:56 AM 48.0°F8.9°C 29.3°F-1.5°C 48% 9.6 mph SW15.4 kmh SW 13.6 mph21.9 kmh 29.89 in1012.2 mb 0.00 in0.0 mm 0.00 in0.0 mm 0.16 in4.1 mm
11:57 AM 48.0°F8.9°C 29.3°F-1.5°C 48% 13.9 mph SW22.4 kmh SW 17.2 mph27.7 kmh 29.89 in1012.2 mb 0.00 in0.0 mm 0.00 in0.0 mm 0.16 in4.1 mm
11:58 AM 47.1°F8.4°C 28.9°F-1.7°C 49% 5.8 mph SW9.3 kmh SW 8.1 mph13.0 kmh 29.89 in1012.2 mb 0.00 in0.0 mm 0.00 in0.0 mm 0.16 in4.1 mm
12:00 PM 46.9°F8.3°C 28.8°F-1.8°C 49% 5.1 mph SSW8.2 kmh SSW 8.1 mph13.0 kmh 29.89 in1012.2 mb 0.00 in0.0 mm 0.00 in0.0 mm 0.16 in4.1 mm
12:01 PM 47.7°F8.7°C 29.5°F-1.4°C 49% 2.9 mph SSW4.7 kmh SSW 3.4 mph5.5 kmh 29.89 in1012.2 mb 0.00 in0.0 mm 0.00 in0.0 mm 0.16 in4.1 mm
12:02 PM 48.2°F9.0°C 29.4°F-1.4°C 48% 4.9 mph NW7.9 kmh NW 6.9 mph11.1 kmh 29.89 in1012.2 mb 0.00 in0.0 mm 0.00 in0.0 mm 0.16 in4.1 mm
12:03 PM 48.4°F9.1°C 29.6°F-1.3°C 48% 4.0 mph WNW6.4 kmh WNW 5.8 mph9.3 kmh 29.89 in1012.2 mb 0.00 in0.0 mm 0.00 in0.0 mm 0.16 in4.1 mm
12:04 PM 48.6°F9.2°C 29.8°F-1.2°C 48% 2.5 mph S4.0 kmh S 3.4 mph5.5 kmh 29.89 in1012.2 mb 0.00 in0.0 mm 0.00 in0.0 mm 0.16 in4.1 mm
12:05 PM 48.6°F9.2°C 28.2°F-2.1°C 45% 6.0 mph SW9.7 kmh SW 9.2 mph14.8 kmh 29.89 in1012.2 mb 0.00 in0.0 mm 0.00 in0.0 mm 0.16 in4.1 mm
12:06 PM 48.4°F9.1°C 29.1°F-1.6°C 47% 8.7 mph SSW14.0 kmh SSW 11.4 mph18.3 kmh 29.89 in1012.2 mb 0.00 in0.0 mm 0.00 in0.0 mm 0.16 in4.1 mm
12:07 PM 48.2°F9.0°C 29.4°F-1.4°C 48% 4.7 mph SW7.6 kmh SW 6.9 mph11.1 kmh 29.89 in1012.2 mb 0.00 in0.0 mm 0.00 in0.0 mm 0.16 in4.1 mm
12:08 PM 48.2°F9.0°C 28.9°F-1.7°C 47% 8.9 mph WSW14.3 kmh WSW 14.8 mph23.8 kmh 29.89 in1012.2 mb 0.00 in0.0 mm 0.00 in0.0 mm 0.16 in4.1 mm
12:09 PM 48.0°F8.9°C 27.7°F-2.4°C 45% 8.9 mph WSW14.3 kmh WSW 11.4 mph18.3 kmh 29.89 in1012.2 mb 0.00 in0.0 mm 0.00 in0.0 mm 0.16 in4.1 mm
12:10 PM 48.0°F8.9°C 28.7°F-1.8°C 47% 4.5 mph WSW7.2 kmh WSW 5.8 mph9.3 kmh 29.89 in1012.2 mb 0.00 in0.0 mm 0.00 in0.0 mm 0.16 in4.1 mm
12:11 PM 48.2°F9.0°C 28.4°F-2.0°C 46% 4.7 mph WSW7.6 kmh WSW 5.8 mph9.3 kmh 29.89 in1012.2 mb 0.00 in0.0 mm 0.00 in0.0 mm 0.16 in4.1 mm
12:13 PM 48.7°F9.3°C 28.9°F-1.7°C 46% 4.5 mph WNW7.2 kmh WNW 6.9 mph11.1 kmh 29.89 in1012.2 mb 0.00 in0.0 mm 0.00 in0.0 mm 0.16 in4.1 mm
12:15 PM 48.9°F9.4°C 29.6°F-1.3°C 47% 3.4 mph SW5.5 kmh SW 4.5 mph7.2 kmh 29.89 in1012.2 mb 0.00 in0.0 mm 0.00 in0.0 mm 0.16 in4.1 mm
12:17 PM 48.7°F9.3°C 28.9°F-1.7°C 46% 4.9 mph WSW7.9 kmh WSW 5.8 mph9.3 kmh 29.89 in1012.2 mb 0.00 in0.0 mm 0.00 in0.0 mm 0.16 in4.1 mm
12:18 PM 48.7°F9.3°C 28.9°F-1.7°C 46% 7.2 mph NW11.6 kmh NW 8.1 mph13.0 kmh 29.89 in1012.2 mb 0.00 in0.0 mm 0.00 in0.0 mm 0.16 in4.1 mm
12:20 PM 48.6°F9.2°C 28.2°F-2.1°C 45% 8.3 mph WSW13.4 kmh WSW 11.4 mph18.3 kmh 29.89 in1012.2 mb 0.00 in0.0 mm 0.00 in0.0 mm 0.16 in4.1 mm
12:21 PM 48.6°F9.2°C 29.3°F-1.5°C 47% 6.5 mph NW10.5 kmh NW 9.2 mph14.8 kmh 29.89 in1012.2 mb 0.00 in0.0 mm 0.00 in0.0 mm 0.16 in4.1 mm
12:22 PM 48.0°F8.9°C 29.3°F-1.5°C 48% 2.9 mph WSW4.7 kmh WSW 3.4 mph5.5 kmh 29.89 in1012.2 mb 0.00 in0.0 mm 0.00 in0.0 mm 0.16 in4.1 mm
12:23 PM 48.0°F8.9°C 27.7°F-2.4°C 45% 4.0 mph SW6.4 kmh SW 6.9 mph11.1 kmh 29.88 in1011.9 mb 0.00 in0.0 mm 0.00 in0.0 mm 0.16 in4.1 mm
12:24 PM 48.6°F9.2°C 27.7°F-2.4°C 44% 9.6 mph SE15.4 kmh SE 12.5 mph20.1 kmh 29.89 in1012.2 mb 0.00 in0.0 mm 0.00 in0.0 mm 0.16 in4.1 mm
12:25 PM 48.6°F9.2°C 28.8°F-1.8°C 46% 5.4 mph WSW8.7 kmh WSW 11.4 mph18.3 kmh 29.89 in1012.2 mb 0.00 in0.0 mm 0.00 in0.0 mm 0.16 in4.1 mm
12:27 PM 48.2°F9.0°C 28.4°F-2.0°C 46% 5.4 mph SW8.7 kmh SW 8.1 mph13.0 kmh 29.89 in1012.2 mb 0.00 in0.0 mm 0.00 in0.0 mm 0.16 in4.1 mm
12:28 PM 48.0°F8.9°C 28.2°F-2.1°C 46% 5.4 mph S8.7 kmh S 9.2 mph14.8 kmh 29.89 in1012.2 mb 0.00 in0.0 mm 0.00 in0.0 mm 0.16 in4.1 mm
12:29 PM 48.0°F8.9°C 28.7°F-1.8°C 47% 3.4 mph W5.5 kmh W 4.5 mph7.2 kmh 29.89 in1012.2 mb 0.00 in0.0 mm 0.00 in0.0 mm 0.16 in4.1 mm
12:30 PM 48.2°F9.0°C 27.3°F-2.6°C 44% 4.5 mph WSW7.2 kmh WSW 5.8 mph9.3 kmh 29.89 in1012.2 mb 0.00 in0.0 mm 0.00 in0.0 mm 0.16 in4.1 mm
12:31 PM 48.9°F9.4°C 28.0°F-2.2°C 44% 4.5 mph SSW7.2 kmh SSW 6.9 mph11.1 kmh 29.89 in1012.2 mb 0.00 in0.0 mm 0.00 in0.0 mm 0.16 in4.1 mm
12:32 PM 49.1°F9.5°C 28.1°F-2.2°C 44% 2.9 mph WSW4.7 kmh WSW 4.5 mph7.2 kmh 29.89 in1012.2 mb 0.00 in0.0 mm 0.00 in0.0 mm 0.16 in4.1 mm
12:34 PM 49.3°F9.6°C 27.8°F-2.3°C 43% 7.2 mph W11.6 kmh W 10.3 mph16.6 kmh 29.89 in1012.2 mb 0.00 in0.0 mm 0.00 in0.0 mm 0.16 in4.1 mm
12:35 PM 48.9°F9.4°C 29.0°F-1.7°C 46% 8.7 mph NW14.0 kmh NW 9.2 mph14.8 kmh 29.89 in1012.2 mb 0.00 in0.0 mm 0.00 in0.0 mm 0.16 in4.1 mm
12:36 PM 48.7°F9.3°C 26.6°F-3.0°C 42% 4.0 mph WNW6.4 kmh WNW 4.5 mph7.2 kmh 29.89 in1012.2 mb 0.00 in0.0 mm 0.00 in0.0 mm 0.16 in4.1 mm
12:38 PM 48.4°F9.1°C 26.4°F-3.1°C 42% 13.2 mph NW21.2 kmh NW 18.3 mph29.5 kmh 29.89 in1012.2 mb 0.00 in0.0 mm 0.00 in0.0 mm 0.16 in4.1 mm
12:39 PM 48.4°F9.1°C 26.9°F-2.8°C 43% 5.4 mph NW8.7 kmh NW 6.9 mph11.1 kmh 29.89 in1012.2 mb 0.00 in0.0 mm 0.00 in0.0 mm 0.16 in4.1 mm
12:40 PM 48.0°F8.9°C 26.6°F-3.0°C 43% 10.3 mph WNW16.6 kmh WNW 12.5 mph20.1 kmh 29.89 in1012.2 mb 0.00 in0.0 mm 0.00 in0.0 mm 0.16 in4.1 mm
12:42 PM 47.1°F8.4°C 27.9°F-2.3°C 47% 4.5 mph NW7.2 kmh NW 8.1 mph13.0 kmh 29.89 in1012.2 mb 0.00 in0.0 mm 0.00 in0.0 mm 0.16 in4.1 mm
12:43 PM 47.1°F8.4°C 26.9°F-2.8°C 45% 10.3 mph NW16.6 kmh NW 12.5 mph20.1 kmh 29.89 in1012.2 mb 0.00 in0.0 mm 0.00 in0.0 mm 0.16 in4.1 mm
12:44 PM 47.1°F8.4°C 27.4°F-2.6°C 46% 4.7 mph WNW7.6 kmh WNW 5.8 mph9.3 kmh 29.90 in1012.5 mb 0.00 in0.0 mm 0.00 in0.0 mm 0.16 in4.1 mm
12:45 PM 47.3°F8.5°C 27.6°F-2.4°C 46% 4.9 mph NNW7.9 kmh NNW 5.8 mph9.3 kmh 29.89 in1012.2 mb 0.00 in0.0 mm 0.00 in0.0 mm 0.16 in4.1 mm
12:46 PM 47.3°F8.5°C 27.0°F-2.8°C 45% 6.9 mph NW11.1 kmh NW 9.2 mph14.8 kmh 29.90 in1012.5 mb 0.00 in0.0 mm 0.00 in0.0 mm 0.16 in4.1 mm
12:47 PM 47.3°F8.5°C 25.9°F-3.4°C 43% 9.2 mph WNW14.8 kmh WNW 13.6 mph21.9 kmh 29.89 in1012.2 mb 0.00 in0.0 mm 0.00 in0.0 mm 0.16 in4.1 mm
12:48 PM 47.5°F8.6°C 26.7°F-2.9°C 44% 4.9 mph NNW7.9 kmh NNW 5.8 mph9.3 kmh 29.89 in1012.2 mb 0.00 in0.0 mm 0.00 in0.0 mm 0.16 in4.1 mm
12:49 PM 47.5°F8.6°C 26.7°F-2.9°C 44% 2.7 mph WSW4.3 kmh WSW 3.4 mph5.5 kmh 29.89 in1012.2 mb 0.00 in0.0 mm 0.00 in0.0 mm 0.16 in4.1 mm
12:51 PM 47.7°F8.7°C 27.4°F-2.6°C 45% 7.8 mph WNW12.6 kmh WNW 10.3 mph16.6 kmh 29.89 in1012.2 mb 0.00 in0.0 mm 0.00 in0.0 mm 0.16 in4.1 mm
12:52 PM 47.7°F8.7°C 26.9°F-2.8°C 44% 8.5 mph WSW13.7 kmh WSW 12.5 mph20.1 kmh 29.89 in1012.2 mb 0.00 in0.0 mm 0.00 in0.0 mm 0.16 in4.1 mm
12:53 PM 47.7°F8.7°C 28.5°F-1.9°C 47% 6.5 mph NW10.5 kmh NW 8.1 mph13.0 kmh 29.89 in1012.2 mb 0.00 in0.0 mm 0.00 in0.0 mm 0.16 in4.1 mm
12:54 PM 47.7°F8.7°C 27.4°F-2.6°C 45% 5.4 mph SW8.7 kmh SW 6.9 mph11.1 kmh 29.90 in1012.5 mb 0.00 in0.0 mm 0.00 in0.0 mm 0.16 in4.1 mm
12:55 PM 48.0°F8.9°C 28.2°F-2.1°C 46% 2.9 mph SW4.7 kmh SW 4.5 mph7.2 kmh 29.89 in1012.2 mb 0.00 in0.0 mm 0.00 in0.0 mm 0.16 in4.1 mm
12:56 PM 48.2°F9.0°C 28.4°F-2.0°C 46% 3.4 mph SSW5.5 kmh SSW 5.8 mph9.3 kmh 29.90 in1012.5 mb 0.00 in0.0 mm 0.00 in0.0 mm 0.16 in4.1 mm
12:57 PM 48.4°F9.1°C 28.6°F-1.9°C 46% 11.9 mph NW19.2 kmh NW 17.2 mph27.7 kmh 29.89 in1012.2 mb 0.00 in0.0 mm 0.00 in0.0 mm 0.16 in4.1 mm
12:58 PM 48.4°F9.1°C 28.0°F-2.2°C 45% 4.7 mph SW7.6 kmh SW 6.9 mph11.1 kmh 29.89 in1012.2 mb 0.00 in0.0 mm 0.00 in0.0 mm 0.16 in4.1 mm
12:59 PM 48.4°F9.1°C 28.6°F-1.9°C 46% 11.2 mph WSW18.0 kmh WSW 14.8 mph23.8 kmh 29.89 in1012.2 mb 0.00 in0.0 mm 0.00 in0.0 mm 0.16 in4.1 mm
01:00 PM 48.2°F9.0°C 28.4°F-2.0°C 46% 3.8 mph NW6.1 kmh NW 10.3 mph16.6 kmh 29.89 in1012.2 mb 0.00 in0.0 mm 0.00 in0.0 mm 0.16 in4.1 mm
01:01 PM 47.7°F8.7°C 27.9°F-2.3°C 46% 9.6 mph W15.4 kmh W 15.9 mph25.6 kmh 29.89 in1012.2 mb 0.00 in0.0 mm 0.00 in0.0 mm 0.16 in4.1 mm
01:03 PM 47.7°F8.7°C 28.5°F-1.9°C 47% 1.8 mph SSW2.9 kmh SSW 3.4 mph5.5 kmh 29.89 in1012.2 mb 0.00 in0.0 mm 0.00 in0.0 mm 0.16 in4.1 mm
01:05 PM 47.3°F8.5°C 27.6°F-2.4°C 46% 14.8 mph NNW23.8 kmh NNW 17.2 mph27.7 kmh 29.89 in1012.2 mb 0.00 in0.0 mm 0.00 in0.0 mm 0.16 in4.1 mm
01:07 PM 46.9°F8.3°C 25.0°F-3.9°C 42% 12.8 mph SW20.6 kmh SW 14.8 mph23.8 kmh 29.89 in1012.2 mb 0.00 in0.0 mm 0.00 in0.0 mm 0.16 in4.1 mm
01:08 PM 47.3°F8.5°C 26.5°F-3.1°C 44% 9.6 mph S15.4 kmh S 11.4 mph18.3 kmh 29.89 in1012.2 mb 0.00 in0.0 mm 0.00 in0.0 mm 0.16 in4.1 mm
01:09 PM 47.3°F8.5°C 25.9°F-3.4°C 43% 13.6 mph SW21.9 kmh SW 15.9 mph25.6 kmh 29.90 in1012.5 mb 0.00 in0.0 mm 0.00 in0.0 mm 0.16 in4.1 mm
01:10 PM 47.3°F8.5°C 26.5°F-3.1°C 44% 12.3 mph WSW19.8 kmh WSW 14.8 mph23.8 kmh 29.90 in1012.5 mb 0.00 in0.0 mm 0.00 in0.0 mm 0.16 in4.1 mm
01:11 PM 47.1°F8.4°C 26.9°F-2.8°C 45% 17.4 mph SW28.0 kmh SW 27.3 mph43.9 kmh 29.90 in1012.5 mb 0.00 in0.0 mm 0.00 in0.0 mm 0.16 in4.1 mm
01:14 PM 47.8°F8.8°C 26.4°F-3.1°C 43% 4.5 mph WNW7.2 kmh WNW 5.8 mph9.3 kmh 29.90 in1012.5 mb 0.00 in0.0 mm 0.00 in0.0 mm 0.16 in4.1 mm
01:15 PM 48.0°F8.9°C 26.6°F-3.0°C 43% 9.4 mph WSW15.1 kmh WSW 14.8 mph23.8 kmh 29.89 in1012.2 mb 0.00 in0.0 mm 0.00 in0.0 mm 0.16 in4.1 mm
01:16 PM 48.0°F8.9°C 27.1°F-2.7°C 44% 7.2 mph SW11.6 kmh SW 9.2 mph14.8 kmh 29.89 in1012.2 mb 0.00 in0.0 mm 0.00 in0.0 mm 0.16 in4.1 mm
01:17 PM 47.8°F8.8°C 28.0°F-2.2°C 46% 4.5 mph SSE7.2 kmh SSE 9.2 mph14.8 kmh 29.90 in1012.5 mb 0.00 in0.0 mm 0.00 in0.0 mm 0.16 in4.1 mm
01:18 PM 48.0°F8.9°C 26.6°F-3.0°C 43% 7.2 mph NW11.6 kmh NW 12.5 mph20.1 kmh 29.90 in1012.5 mb 0.00 in0.0 mm 0.00 in0.0 mm 0.16 in4.1 mm
01:20 PM 48.6°F9.2°C 26.6°F-3.0°C 42% 8.9 mph SW14.3 kmh SW 11.4 mph18.3 kmh 29.90 in1012.5 mb 0.00 in0.0 mm 0.00 in0.0 mm 0.16 in4.1 mm
01:21 PM 48.4°F9.1°C 27.5°F-2.5°C 44% 7.8 mph SW12.6 kmh SW 13.6 mph21.9 kmh 29.90 in1012.5 mb 0.00 in0.0 mm 0.00 in0.0 mm 0.16 in4.1 mm
01:22 PM 47.7°F8.7°C 26.3°F-3.2°C 43% 3.4 mph S5.5 kmh S 4.5 mph7.2 kmh 29.89 in1012.2 mb 0.00 in0.0 mm 0.00 in0.0 mm 0.16 in4.1 mm
01:23 PM 47.7°F8.7°C 26.9°F-2.8°C 44% 13.0 mph WSW20.9 kmh WSW 15.9 mph25.6 kmh 29.90 in1012.5 mb 0.00 in0.0 mm 0.00 in0.0 mm 0.16 in4.1 mm
01:24 PM 47.7°F8.7°C 26.9°F-2.8°C 44% 6.0 mph W9.7 kmh W 8.1 mph13.0 kmh 29.89 in1012.2 mb 0.00 in0.0 mm 0.00 in0.0 mm 0.16 in4.1 mm
01:25 PM 47.8°F8.8°C 26.4°F-3.1°C 43% 4.5 mph WNW7.2 kmh WNW 6.9 mph11.1 kmh 29.89 in1012.2 mb 0.00 in0.0 mm 0.00 in0.0 mm 0.16 in4.1 mm
01:26 PM 48.2°F9.0°C 27.3°F-2.6°C 44% 3.4 mph WSW5.5 kmh WSW 6.9 mph11.1 kmh 29.89 in1012.2 mb 0.00 in0.0 mm 0.00 in0.0 mm 0.16 in4.1 mm
01:27 PM 48.4°F9.1°C 26.4°F-3.1°C 42% 5.4 mph SW8.7 kmh SW 8.1 mph13.0 kmh 29.89 in1012.2 mb 0.00 in0.0 mm 0.00 in0.0 mm 0.16 in4.1 mm
01:28 PM 48.4°F9.1°C 26.9°F-2.8°C 43% 2.9 mph SSW4.7 kmh SSW 3.4 mph5.5 kmh 29.89 in1012.2 mb 0.00 in0.0 mm 0.00 in0.0 mm 0.16 in4.1 mm
01:29 PM 48.4°F9.1°C 27.5°F-2.5°C 44% 2.5 mph WNW4.0 kmh WNW 5.8 mph9.3 kmh 29.89 in1012.2 mb 0.00 in0.0 mm 0.00 in0.0 mm 0.16 in4.1 mm
01:30 PM 48.4°F9.1°C 26.9°F-2.8°C 43% 6.9 mph E11.1 kmh E 11.4 mph18.3 kmh 29.89 in1012.2 mb 0.00 in0.0 mm 0.00 in0.0 mm 0.16 in4.1 mm
01:32 PM 49.1°F9.5°C 27.0°F-2.8°C 42% 5.4 mph NE8.7 kmh NE 8.1 mph13.0 kmh 29.89 in1012.2 mb 0.00 in0.0 mm 0.00 in0.0 mm 0.16 in4.1 mm
01:33 PM 49.3°F9.6°C 26.6°F-3.0°C 41% 5.6 mph NW9.0 kmh NW 9.2 mph14.8 kmh 29.89 in1012.2 mb 0.00 in0.0 mm 0.00 in0.0 mm 0.16 in4.1 mm
01:34 PM 49.1°F9.5°C 26.4°F-3.1°C 41% 5.8 mph N9.3 kmh N 9.2 mph14.8 kmh 29.89 in1012.2 mb 0.00 in0.0 mm 0.00 in0.0 mm 0.16 in4.1 mm
01:35 PM 49.1°F9.5°C 26.4°F-3.1°C 41% 8.9 mph NNE14.3 kmh NNE 11.4 mph18.3 kmh 29.89 in1012.2 mb 0.00 in0.0 mm 0.00 in0.0 mm 0.16 in4.1 mm
01:37 PM 48.9°F9.4°C 25.7°F-3.5°C 40% 4.9 mph NW7.9 kmh NW 6.9 mph11.1 kmh 29.88 in1011.9 mb 0.00 in0.0 mm 0.00 in0.0 mm 0.16 in4.1 mm
01:38 PM 48.9°F9.4°C 26.8°F-2.9°C 42% 6.5 mph W10.5 kmh W 8.1 mph13.0 kmh 29.89 in1012.2 mb 0.00 in0.0 mm 0.00 in0.0 mm 0.16 in4.1 mm
01:39 PM 48.7°F9.3°C 26.1°F-3.3°C 41% 7.2 mph NW11.6 kmh NW 9.2 mph14.8 kmh 29.89 in1012.2 mb 0.00 in0.0 mm 0.00 in0.0 mm 0.16 in4.1 mm
01:40 PM 48.6°F9.2°C 26.6°F-3.0°C 42% 4.9 mph NNW7.9 kmh NNW 6.9 mph11.1 kmh 29.89 in1012.2 mb 0.00 in0.0 mm 0.00 in0.0 mm 0.16 in4.1 mm
01:41 PM 48.7°F9.3°C 26.1°F-3.3°C 41% 2.0 mph WNW3.2 kmh WNW 3.4 mph5.5 kmh 29.89 in1012.2 mb 0.00 in0.0 mm 0.00 in0.0 mm 0.16 in4.1 mm
01:42 PM 49.1°F9.5°C 26.4°F-3.1°C 41% 5.8 mph WSW9.3 kmh WSW 6.9 mph11.1 kmh 29.89 in1012.2 mb 0.00 in0.0 mm 0.00 in0.0 mm 0.16 in4.1 mm
01:43 PM 49.3°F9.6°C 27.2°F-2.7°C 42% 3.4 mph W5.5 kmh W 3.4 mph5.5 kmh 29.89 in1012.2 mb 0.00 in0.0 mm 0.00 in0.0 mm 0.16 in4.1 mm
01:44 PM 49.5°F9.7°C 26.8°F-2.9°C 41% 8.5 mph WSW13.7 kmh WSW 10.3 mph16.6 kmh 29.89 in1012.2 mb 0.00 in0.0 mm 0.00 in0.0 mm 0.16 in4.1 mm
01:45 PM 49.5°F9.7°C 27.4°F-2.6°C 42% 8.1 mph WSW13.0 kmh WSW 10.3 mph16.6 kmh 29.89 in1012.2 mb 0.00 in0.0 mm 0.00 in0.0 mm 0.16 in4.1 mm
01:46 PM 48.7°F9.3°C 27.8°F-2.3°C 44% 7.4 mph WSW11.9 kmh WSW 10.3 mph16.6 kmh 29.88 in1011.9 mb 0.00 in0.0 mm 0.00 in0.0 mm 0.16 in4.1 mm
01:47 PM 48.4°F9.1°C 25.8°F-3.4°C 41% 6.9 mph WSW11.1 kmh WSW 9.2 mph14.8 kmh 29.88 in1011.9 mb 0.00 in0.0 mm 0.00 in0.0 mm 0.16 in4.1 mm
01:48 PM 48.4°F9.1°C 26.4°F-3.1°C 42% 6.0 mph N9.7 kmh N 9.2 mph14.8 kmh 29.89 in1012.2 mb 0.00 in0.0 mm 0.00 in0.0 mm 0.16 in4.1 mm
01:49 PM 48.6°F9.2°C 27.1°F-2.7°C 43% 5.1 mph SSW8.2 kmh SSW 6.9 mph11.1 kmh 29.88 in1011.9 mb 0.00 in0.0 mm 0.00 in0.0 mm 0.16 in4.1 mm
01:50 PM 48.7°F9.3°C 26.1°F-3.3°C 41% 3.8 mph SW6.1 kmh SW 4.5 mph7.2 kmh 29.88 in1011.9 mb 0.00 in0.0 mm 0.00 in0.0 mm 0.16 in4.1 mm
01:52 PM 49.5°F9.7°C 27.4°F-2.6°C 42% 4.5 mph SW7.2 kmh SW 8.1 mph13.0 kmh 29.88 in1011.9 mb 0.00 in0.0 mm 0.00 in0.0 mm 0.16 in4.1 mm
01:53 PM 49.6°F9.8°C 28.0°F-2.2°C 43% 2.9 mph S4.7 kmh S 3.4 mph5.5 kmh 29.88 in1011.9 mb 0.00 in0.0 mm 0.00 in0.0 mm 0.16 in4.1 mm
01:54 PM 49.6°F9.8°C 28.0°F-2.2°C 43% 4.5 mph NW7.2 kmh NW 5.8 mph9.3 kmh 29.88 in1011.9 mb 0.00 in0.0 mm 0.00 in0.0 mm 0.16 in4.1 mm
01:55 PM 49.8°F9.9°C 27.1°F-2.7°C 41% 7.6 mph NW12.2 kmh NW 8.1 mph13.0 kmh 29.88 in1011.9 mb 0.00 in0.0 mm 0.00 in0.0 mm 0.16 in4.1 mm
01:56 PM 49.8°F9.9°C 28.8°F-1.8°C 44% 4.7 mph N7.6 kmh N 6.9 mph11.1 kmh 29.88 in1011.9 mb 0.00 in0.0 mm 0.00 in0.0 mm 0.16 in4.1 mm
01:57 PM 49.6°F9.8°C 28.0°F-2.2°C 43% 9.2 mph NW14.8 kmh NW 11.4 mph18.3 kmh 29.87 in1011.5 mb 0.00 in0.0 mm 0.00 in0.0 mm 0.16 in4.1 mm
01:58 PM 49.5°F9.7°C 28.5°F-1.9°C 44% 7.2 mph NW11.6 kmh NW 9.2 mph14.8 kmh 29.88 in1011.9 mb 0.00 in0.0 mm 0.00 in0.0 mm 0.16 in4.1 mm
01:59 PM 49.3°F9.6°C 28.3°F-2.1°C 44% 11.6 mph N18.7 kmh N 18.3 mph29.5 kmh 29.87 in1011.5 mb 0.00 in0.0 mm 0.00 in0.0 mm 0.16 in4.1 mm
02:00 PM 48.7°F9.3°C 27.8°F-2.3°C 44% 4.5 mph W7.2 kmh W 5.8 mph9.3 kmh 29.87 in1011.5 mb 0.00 in0.0 mm 0.00 in0.0 mm 0.16 in4.1 mm
02:01 PM 48.9°F9.4°C 28.0°F-2.2°C 44% 9.8 mph NW15.8 kmh NW 12.5 mph20.1 kmh 29.88 in1011.9 mb 0.00 in0.0 mm 0.00 in0.0 mm 0.16 in4.1 mm
02:03 PM 49.3°F9.6°C 27.8°F-2.3°C 43% 12.3 mph WNW19.8 kmh WNW 15.9 mph25.6 kmh 29.87 in1011.5 mb 0.00 in0.0 mm 0.00 in0.0 mm 0.16 in4.1 mm
02:04 PM 49.1°F9.5°C 27.6°F-2.4°C 43% 4.9 mph NW7.9 kmh NW 6.9 mph11.1 kmh 29.88 in1011.9 mb 0.00 in0.0 mm 0.00 in0.0 mm 0.16 in4.1 mm
02:05 PM 49.3°F9.6°C 27.8°F-2.3°C 43% 7.4 mph NW11.9 kmh NW 9.2 mph14.8 kmh 29.87 in1011.5 mb 0.00 in0.0 mm 0.00 in0.0 mm 0.16 in4.1 mm
02:06 PM 49.3°F9.6°C 28.3°F-2.1°C 44% 6.9 mph ESE11.1 kmh ESE 11.4 mph18.3 kmh 29.87 in1011.5 mb 0.00 in0.0 mm 0.00 in0.0 mm 0.16 in4.1 mm
02:07 PM 49.1°F9.5°C 28.1°F-2.2°C 44% 9.6 mph NW15.4 kmh NW 10.3 mph16.6 kmh 29.88 in1011.9 mb 0.00 in0.0 mm 0.00 in0.0 mm 0.16 in4.1 mm
02:08 PM 48.9°F9.4°C 28.0°F-2.2°C 44% 9.2 mph WNW14.8 kmh WNW 11.4 mph18.3 kmh 29.87 in1011.5 mb 0.00 in0.0 mm 0.00 in0.0 mm 0.16 in4.1 mm
02:10 PM 48.7°F9.3°C 28.3°F-2.1°C 45% 4.9 mph WNW7.9 kmh WNW 8.1 mph13.0 kmh 29.88 in1011.9 mb 0.00 in0.0 mm 0.00 in0.0 mm 0.16 in4.1 mm
02:11 PM 48.7°F9.3°C 28.3°F-2.1°C 45% 5.4 mph WSW8.7 kmh WSW 10.3 mph16.6 kmh 29.87 in1011.5 mb 0.00 in0.0 mm 0.00 in0.0 mm 0.16 in4.1 mm
02:12 PM 48.7°F9.3°C 27.2°F-2.7°C 43% 10.5 mph WSW16.9 kmh WSW 12.5 mph20.1 kmh 29.87 in1011.5 mb 0.00 in0.0 mm 0.00 in0.0 mm 0.16 in4.1 mm
02:13 PM 48.7°F9.3°C 28.3°F-2.1°C 45% 3.4 mph N5.5 kmh N 6.9 mph11.1 kmh 29.88 in1011.9 mb 0.00 in0.0 mm 0.00 in0.0 mm 0.16 in4.1 mm
02:14 PM 48.7°F9.3°C 27.8°F-2.3°C 44% 5.6 mph NW9.0 kmh NW 8.1 mph13.0 kmh 29.87 in1011.5 mb 0.00 in0.0 mm 0.00 in0.0 mm 0.16 in4.1 mm
02:15 PM 49.5°F9.7°C 29.1°F-1.6°C 45% 1.8 mph S2.9 kmh S 2.2 mph3.5 kmh 29.87 in1011.5 mb 0.00 in0.0 mm 0.00 in0.0 mm 0.16 in4.1 mm
02:16 PM 49.8°F9.9°C 28.8°F-1.8°C 44% 4.5 mph SW7.2 kmh SW 5.8 mph9.3 kmh 29.87 in1011.5 mb 0.00 in0.0 mm 0.00 in0.0 mm 0.16 in4.1 mm
02:17 PM 50.0°F10.0°C 28.4°F-2.0°C 43% 3.8 mph S6.1 kmh S 4.5 mph7.2 kmh 29.88 in1011.9 mb 0.00 in0.0 mm 0.00 in0.0 mm 0.16 in4.1 mm
02:19 PM 50.0°F10.0°C 28.4°F-2.0°C 43% 6.0 mph WNW9.7 kmh WNW 11.4 mph18.3 kmh 29.88 in1011.9 mb 0.00 in0.0 mm 0.00 in0.0 mm 0.16 in4.1 mm
02:20 PM 49.8°F9.9°C 28.8°F-1.8°C 44% 8.1 mph E13.0 kmh E 10.3 mph16.6 kmh 29.87 in1011.5 mb 0.00 in0.0 mm 0.00 in0.0 mm 0.16 in4.1 mm
02:21 PM 48.7°F9.3°C 28.3°F-2.1°C 45% 4.9 mph WSW7.9 kmh WSW 8.1 mph13.0 kmh 29.86 in1011.2 mb 0.00 in0.0 mm 0.00 in0.0 mm 0.16 in4.1 mm
02:22 PM 48.7°F9.3°C 28.9°F-1.7°C 46% 2.5 mph NNW4.0 kmh NNW 4.5 mph7.2 kmh 29.87 in1011.5 mb 0.00 in0.0 mm 0.00 in0.0 mm 0.16 in4.1 mm
02:23 PM 48.7°F9.3°C 28.3°F-2.1°C 45% 4.7 mph NW7.6 kmh NW 6.9 mph11.1 kmh 29.87 in1011.5 mb 0.00 in0.0 mm 0.00 in0.0 mm 0.16 in4.1 mm
02:24 PM 48.9°F9.4°C 28.5°F-1.9°C 45% 6.3 mph SW10.1 kmh SW 10.3 mph16.6 kmh 29.88 in1011.9 mb 0.00 in0.0 mm 0.00 in0.0 mm 0.16 in4.1 mm
02:26 PM 48.9°F9.4°C 29.0°F-1.7°C 46% 4.7 mph WNW7.6 kmh WNW 5.8 mph9.3 kmh 29.87 in1011.5 mb 0.00 in0.0 mm 0.00 in0.0 mm 0.16 in4.1 mm
02:28 PM 48.7°F9.3°C 29.9°F-1.2°C 48% 4.9 mph W7.9 kmh W 5.8 mph9.3 kmh 29.87 in1011.5 mb 0.00 in0.0 mm 0.00 in0.0 mm 0.16 in4.1 mm
02:29 PM 48.4°F9.1°C 29.1°F-1.6°C 47% 5.4 mph SW8.7 kmh SW 6.9 mph11.1 kmh 29.87 in1011.5 mb 0.00 in0.0 mm 0.00 in0.0 mm 0.16 in4.1 mm
02:30 PM 48.6°F9.2°C 28.8°F-1.8°C 46% 12.1 mph WNW19.5 kmh WNW 13.6 mph21.9 kmh 29.87 in1011.5 mb 0.00 in0.0 mm 0.00 in0.0 mm 0.16 in4.1 mm
02:32 PM 48.6°F9.2°C 28.8°F-1.8°C 46% 4.0 mph WNW6.4 kmh WNW 6.9 mph11.1 kmh 29.87 in1011.5 mb 0.00 in0.0 mm 0.00 in0.0 mm 0.16 in4.1 mm
02:33 PM 48.6°F9.2°C 29.3°F-1.5°C 47% 5.1 mph WSW8.2 kmh WSW 8.1 mph13.0 kmh 29.88 in1011.9 mb 0.00 in0.0 mm 0.00 in0.0 mm 0.16 in4.1 mm
02:34 PM 48.6°F9.2°C 29.3°F-1.5°C 47% 6.0 mph SW9.7 kmh SW 9.2 mph14.8 kmh 29.87 in1011.5 mb 0.00 in0.0 mm 0.00 in0.0 mm 0.16 in4.1 mm
02:35 PM 48.7°F9.3°C 29.4°F-1.4°C 47% 6.5 mph WSW10.5 kmh WSW 10.3 mph16.6 kmh 29.87 in1011.5 mb 0.00 in0.0 mm 0.00 in0.0 mm 0.16 in4.1 mm
02:36 PM 48.7°F9.3°C 29.4°F-1.4°C 47% 10.3 mph WSW16.6 kmh WSW 13.6 mph21.9 kmh 29.87 in1011.5 mb 0.00 in0.0 mm 0.00 in0.0 mm 0.16 in4.1 mm
02:38 PM 48.2°F9.0°C 29.9°F-1.2°C 49% 10.1 mph NW16.3 kmh NW 12.5 mph20.1 kmh 29.87 in1011.5 mb 0.00 in0.0 mm 0.00 in0.0 mm 0.16 in4.1 mm
02:39 PM 48.2°F9.0°C 29.4°F-1.4°C 48% 6.0 mph N9.7 kmh N 9.2 mph14.8 kmh 29.87 in1011.5 mb 0.00 in0.0 mm 0.00 in0.0 mm 0.16 in4.1 mm
02:40 PM 48.2°F9.0°C 29.4°F-1.4°C 48% 4.9 mph NW7.9 kmh NW 5.8 mph9.3 kmh 29.86 in1011.2 mb 0.00 in0.0 mm 0.00 in0.0 mm 0.16 in4.1 mm
02:41 PM 48.4°F9.1°C 30.1°F-1.1°C 49% 7.4 mph NW11.9 kmh NW 10.3 mph16.6 kmh 29.87 in1011.5 mb 0.00 in0.0 mm 0.00 in0.0 mm 0.16 in4.1 mm
02:43 PM 48.4°F9.1°C 29.6°F-1.3°C 48% 6.3 mph SSW10.1 kmh SSW 10.3 mph16.6 kmh 29.87 in1011.5 mb 0.00 in0.0 mm 0.00 in0.0 mm 0.16 in4.1 mm
02:44 PM 48.4°F9.1°C 29.6°F-1.3°C 48% 6.3 mph W10.1 kmh W 9.2 mph14.8 kmh 29.86 in1011.2 mb 0.00 in0.0 mm 0.00 in0.0 mm 0.16 in4.1 mm
02:45 PM 48.0°F8.9°C 29.8°F-1.2°C 49% 4.9 mph WSW7.9 kmh WSW 12.5 mph20.1 kmh 29.87 in1011.5 mb 0.00 in0.0 mm 0.00 in0.0 mm 0.16 in4.1 mm
02:48 PM 47.3°F8.5°C 29.1°F-1.6°C 49% 8.7 mph WSW14.0 kmh WSW 10.3 mph16.6 kmh 29.87 in1011.5 mb 0.00 in0.0 mm 0.00 in0.0 mm 0.16 in4.1 mm
02:49 PM 46.6°F8.1°C 28.5°F-1.9°C 49% 5.1 mph WSW8.2 kmh WSW 8.1 mph13.0 kmh 29.87 in1011.5 mb 0.00 in0.0 mm 0.00 in0.0 mm 0.16 in4.1 mm
02:50 PM 46.6°F8.1°C 28.0°F-2.2°C 48% 7.4 mph NW11.9 kmh NW 12.5 mph20.1 kmh 29.87 in1011.5 mb 0.00 in0.0 mm 0.00 in0.0 mm 0.16 in4.1 mm
02:51 PM 46.9°F8.3°C 27.7°F-2.4°C 47% 9.6 mph SW15.4 kmh SW 17.2 mph27.7 kmh 29.87 in1011.5 mb 0.00 in0.0 mm 0.00 in0.0 mm 0.16 in4.1 mm
02:52 PM 47.5°F8.6°C 28.8°F-1.8°C 48% 8.7 mph NNW14.0 kmh NNW 11.4 mph18.3 kmh 29.87 in1011.5 mb 0.00 in0.0 mm 0.00 in0.0 mm 0.16 in4.1 mm
02:53 PM 47.5°F8.6°C 29.3°F-1.5°C 49% 4.9 mph NW7.9 kmh NW 8.1 mph13.0 kmh 29.87 in1011.5 mb 0.00 in0.0 mm 0.00 in0.0 mm 0.16 in4.1 mm
02:55 PM 46.9°F8.3°C 28.2°F-2.1°C 48% 6.0 mph W9.7 kmh W 8.1 mph13.0 kmh 29.87 in1011.5 mb 0.00 in0.0 mm 0.00 in0.0 mm 0.16 in4.1 mm
02:56 PM 46.9°F8.3°C 27.7°F-2.4°C 47% 5.8 mph WSW9.3 kmh WSW 8.1 mph13.0 kmh 29.87 in1011.5 mb 0.00 in0.0 mm 0.00 in0.0 mm 0.16 in4.1 mm
02:57 PM 47.1°F8.4°C 28.4°F-2.0°C 48% 2.7 mph ENE4.3 kmh ENE 3.4 mph5.5 kmh 29.87 in1011.5 mb 0.00 in0.0 mm 0.00 in0.0 mm 0.16 in4.1 mm
02:58 PM 47.5°F8.6°C 28.3°F-2.1°C 47% 8.5 mph NNW13.7 kmh NNW 11.4 mph18.3 kmh 29.87 in1011.5 mb 0.00 in0.0 mm 0.00 in0.0 mm 0.16 in4.1 mm
03:00 PM 47.8°F8.8°C 29.1°F-1.6°C 48% 4.0 mph W6.4 kmh W 8.1 mph13.0 kmh 29.87 in1011.5 mb 0.00 in0.0 mm 0.00 in0.0 mm 0.16 in4.1 mm
03:01 PM 47.8°F8.8°C 29.1°F-1.6°C 48% 3.1 mph WSW5.0 kmh WSW 4.5 mph7.2 kmh 29.87 in1011.5 mb 0.00 in0.0 mm 0.00 in0.0 mm 0.16 in4.1 mm
03:02 PM 48.2°F9.0°C 28.9°F-1.7°C 47% 4.3 mph N6.9 kmh N 5.8 mph9.3 kmh 29.87 in1011.5 mb 0.00 in0.0 mm 0.00 in0.0 mm 0.16 in4.1 mm
03:03 PM 48.6°F9.2°C 29.3°F-1.5°C 47% 8.1 mph W13.0 kmh W 10.3 mph16.6 kmh 29.87 in1011.5 mb 0.00 in0.0 mm 0.00 in0.0 mm 0.16 in4.1 mm
03:04 PM 48.6°F9.2°C 29.3°F-1.5°C 47% 8.1 mph NW13.0 kmh NW 10.3 mph16.6 kmh 29.87 in1011.5 mb 0.00 in0.0 mm 0.00 in0.0 mm 0.16 in4.1 mm
03:05 PM 48.0°F8.9°C 29.3°F-1.5°C 48% 11.0 mph WNW17.7 kmh WNW 14.8 mph23.8 kmh 29.87 in1011.5 mb 0.00 in0.0 mm 0.00 in0.0 mm 0.16 in4.1 mm
03:06 PM 47.8°F8.8°C 28.6°F-1.9°C 47% 11.6 mph NW18.7 kmh NW 17.2 mph27.7 kmh 29.87 in1011.5 mb 0.00 in0.0 mm 0.00 in0.0 mm 0.16 in4.1 mm
03:07 PM 47.7°F8.7°C 29.0°F-1.7°C 48% 6.0 mph NE9.7 kmh NE 9.2 mph14.8 kmh 29.87 in1011.5 mb 0.00 in0.0 mm 0.00 in0.0 mm 0.16 in4.1 mm
03:08 PM 47.5°F8.6°C 28.8°F-1.8°C 48% 8.3 mph W13.4 kmh W 14.8 mph23.8 kmh 29.87 in1011.5 mb 0.00 in0.0 mm 0.00 in0.0 mm 0.16 in4.1 mm
03:09 PM 47.5°F8.6°C 28.3°F-2.1°C 47% 10.5 mph NNW16.9 kmh NNW 13.6 mph21.9 kmh 29.88 in1011.9 mb 0.00 in0.0 mm 0.00 in0.0 mm 0.16 in4.1 mm
03:10 PM 47.5°F8.6°C 28.8°F-1.8°C 48% 4.5 mph SW7.2 kmh SW 8.1 mph13.0 kmh 29.87 in1011.5 mb 0.00 in0.0 mm 0.00 in0.0 mm 0.16 in4.1 mm
03:11 PM 47.5°F8.6°C 28.8°F-1.8°C 48% 14.8 mph WSW23.8 kmh WSW 23.9 mph38.5 kmh 29.88 in1011.9 mb 0.00 in0.0 mm 0.00 in0.0 mm 0.16 in4.1 mm
03:12 PM 47.3°F8.5°C 29.1°F-1.6°C 49% 12.5 mph NW20.1 kmh NW 15.9 mph25.6 kmh 29.88 in1011.9 mb 0.00 in0.0 mm 0.00 in0.0 mm 0.16 in4.1 mm
03:13 PM 47.1°F8.4°C 28.4°F-2.0°C 48% 8.7 mph WNW14.0 kmh WNW 12.5 mph20.1 kmh 29.87 in1011.5 mb 0.00 in0.0 mm 0.00 in0.0 mm 0.16 in4.1 mm
03:14 PM 47.1°F8.4°C 28.4°F-2.0°C 48% 11.0 mph WSW17.7 kmh WSW 13.6 mph21.9 kmh 29.87 in1011.5 mb 0.00 in0.0 mm 0.00 in0.0 mm 0.16 in4.1 mm
03:15 PM 47.3°F8.5°C 29.1°F-1.6°C 49% 3.8 mph SW6.1 kmh SW 5.8 mph9.3 kmh 29.88 in1011.9 mb 0.00 in0.0 mm 0.00 in0.0 mm 0.16 in4.1 mm
03:16 PM 47.3°F8.5°C 28.6°F-1.9°C 48% 4.5 mph SE7.2 kmh SE 8.1 mph13.0 kmh 29.88 in1011.9 mb 0.00 in0.0 mm 0.00 in0.0 mm 0.16 in4.1 mm
03:17 PM 47.5°F8.6°C 28.8°F-1.8°C 48% 4.7 mph S7.6 kmh S 6.9 mph11.1 kmh 29.88 in1011.9 mb 0.00 in0.0 mm 0.00 in0.0 mm 0.16 in4.1 mm
03:19 PM 47.5°F8.6°C 28.8°F-1.8°C 48% 6.5 mph NW10.5 kmh NW 8.1 mph13.0 kmh 29.87 in1011.5 mb 0.00 in0.0 mm 0.00 in0.0 mm 0.16 in4.1 mm
03:20 PM 47.5°F8.6°C 28.3°F-2.1°C 47% 7.6 mph NW12.2 kmh NW 11.4 mph18.3 kmh 29.88 in1011.9 mb 0.00 in0.0 mm 0.00 in0.0 mm 0.16 in4.1 mm
03:21 PM 47.8°F8.8°C 28.6°F-1.9°C 47% 10.1 mph NW16.3 kmh NW 13.6 mph21.9 kmh 29.88 in1011.9 mb 0.00 in0.0 mm 0.00 in0.0 mm 0.16 in4.1 mm
03:22 PM 47.8°F8.8°C 28.6°F-1.9°C 47% 7.6 mph WSW12.2 kmh WSW 9.2 mph14.8 kmh 29.88 in1011.9 mb 0.00 in0.0 mm 0.00 in0.0 mm 0.16 in4.1 mm
03:23 PM 47.7°F8.7°C 29.0°F-1.7°C 48% 10.5 mph NW16.9 kmh NW 12.5 mph20.1 kmh 29.87 in1011.5 mb 0.00 in0.0 mm 0.00 in0.0 mm 0.16 in4.1 mm
03:24 PM 47.5°F8.6°C 28.8°F-1.8°C 48% 5.4 mph NNW8.7 kmh NNW 9.2 mph14.8 kmh 29.87 in1011.5 mb 0.00 in0.0 mm 0.00 in0.0 mm 0.16 in4.1 mm
03:25 PM 47.5°F8.6°C 28.8°F-1.8°C 48% 9.6 mph NW15.4 kmh NW 12.5 mph20.1 kmh 29.88 in1011.9 mb 0.00 in0.0 mm 0.00 in0.0 mm 0.16 in4.1 mm
03:27 PM 48.0°F8.9°C 28.7°F-1.8°C 47% 7.2 mph NNW11.6 kmh NNW 10.3 mph16.6 kmh 29.86 in1011.2 mb 0.00 in0.0 mm 0.00 in0.0 mm 0.16 in4.1 mm
03:28 PM 47.3°F8.5°C 27.6°F-2.4°C 46% 4.9 mph W7.9 kmh W 6.9 mph11.1 kmh 29.87 in1011.5 mb 0.00 in0.0 mm 0.00 in0.0 mm 0.16 in4.1 mm
03:29 PM 47.3°F8.5°C 28.6°F-1.9°C 48% 6.9 mph NNW11.1 kmh NNW 9.2 mph14.8 kmh 29.86 in1011.2 mb 0.00 in0.0 mm 0.00 in0.0 mm 0.16 in4.1 mm
03:30 PM 47.3°F8.5°C 27.6°F-2.4°C 46% 8.5 mph N13.7 kmh N 15.9 mph25.6 kmh 29.88 in1011.9 mb 0.00 in0.0 mm 0.00 in0.0 mm 0.16 in4.1 mm
03:31 PM 47.3°F8.5°C 28.1°F-2.2°C 47% 8.5 mph WNW13.7 kmh WNW 10.3 mph16.6 kmh 29.86 in1011.2 mb 0.00 in0.0 mm 0.00 in0.0 mm 0.16 in4.1 mm
03:32 PM 47.3°F8.5°C 28.1°F-2.2°C 47% 4.5 mph NW7.2 kmh NW 9.2 mph14.8 kmh 29.87 in1011.5 mb 0.00 in0.0 mm 0.00 in0.0 mm 0.16 in4.1 mm
03:33 PM 47.3°F8.5°C 28.1°F-2.2°C 47% 13.2 mph NW21.2 kmh NW 14.8 mph23.8 kmh 29.87 in1011.5 mb 0.00 in0.0 mm 0.00 in0.0 mm 0.16 in4.1 mm
03:34 PM 47.3°F8.5°C 28.1°F-2.2°C 47% 11.2 mph WNW18.0 kmh WNW 13.6 mph21.9 kmh 29.88 in1011.9 mb 0.00 in0.0 mm 0.00 in0.0 mm 0.16 in4.1 mm
03:35 PM 47.3°F8.5°C 28.6°F-1.9°C 48% 8.3 mph NW13.4 kmh NW 10.3 mph16.6 kmh 29.87 in1011.5 mb 0.00 in0.0 mm 0.00 in0.0 mm 0.16 in4.1 mm
03:36 PM 46.9°F8.3°C 27.7°F-2.4°C 47% 10.7 mph NNW17.2 kmh NNW 12.5 mph20.1 kmh 29.88 in1011.9 mb 0.00 in0.0 mm 0.00 in0.0 mm 0.16 in4.1 mm
03:37 PM 47.1°F8.4°C 27.4°F-2.6°C 46% 14.3 mph W23.0 kmh W 19.5 mph31.4 kmh 29.87 in1011.5 mb 0.00 in0.0 mm 0.00 in0.0 mm 0.16 in4.1 mm
03:38 PM 47.1°F8.4°C 27.4°F-2.6°C 46% 5.8 mph NW9.3 kmh NW 9.2 mph14.8 kmh 29.87 in1011.5 mb 0.00 in0.0 mm 0.00 in0.0 mm 0.16 in4.1 mm
03:39 PM 47.1°F8.4°C 27.9°F-2.3°C 47% 10.1 mph NNW16.3 kmh NNW 12.5 mph20.1 kmh 29.87 in1011.5 mb 0.00 in0.0 mm 0.00 in0.0 mm 0.16 in4.1 mm
03:40 PM 47.1°F8.4°C 27.9°F-2.3°C 47% 4.5 mph WSW7.2 kmh WSW 8.1 mph13.0 kmh 29.87 in1011.5 mb 0.00 in0.0 mm 0.00 in0.0 mm 0.16 in4.1 mm
03:41 PM 47.3°F8.5°C 27.6°F-2.4°C 46% 10.5 mph WSW16.9 kmh WSW 12.5 mph20.1 kmh 29.87 in1011.5 mb 0.00 in0.0 mm 0.00 in0.0 mm 0.16 in4.1 mm
03:42 PM 47.7°F8.7°C 27.9°F-2.3°C 46% 5.4 mph SW8.7 kmh SW 8.1 mph13.0 kmh 29.87 in1011.5 mb 0.00 in0.0 mm 0.00 in0.0 mm 0.16 in4.1 mm
03:43 PM 47.8°F8.8°C 28.0°F-2.2°C 46% 7.6 mph N12.2 kmh N 10.3 mph16.6 kmh 29.88 in1011.9 mb 0.00 in0.0 mm 0.00 in0.0 mm 0.16 in4.1 mm
03:44 PM 48.4°F9.1°C 28.6°F-1.9°C 46% 7.8 mph SW12.6 kmh SW 9.2 mph14.8 kmh 29.88 in1011.9 mb 0.00 in0.0 mm 0.00 in0.0 mm 0.16 in4.1 mm
03:45 PM 48.4°F9.1°C 29.1°F-1.6°C 47% 4.0 mph S6.4 kmh S 5.8 mph9.3 kmh 29.87 in1011.5 mb 0.00 in0.0 mm 0.00 in0.0 mm 0.16 in4.1 mm
03:47 PM 47.8°F8.8°C 28.0°F-2.2°C 46% 6.9 mph W11.1 kmh W 9.2 mph14.8 kmh 29.88 in1011.9 mb 0.00 in0.0 mm 0.00 in0.0 mm 0.16 in4.1 mm
03:48 PM 48.0°F8.9°C 26.6°F-3.0°C 43% 5.1 mph NW8.2 kmh NW 6.9 mph11.1 kmh 29.88 in1011.9 mb 0.00 in0.0 mm 0.00 in0.0 mm 0.16 in4.1 mm
03:49 PM 48.0°F8.9°C 27.1°F-2.7°C 44% 6.0 mph NW9.7 kmh NW 6.9 mph11.1 kmh 29.88 in1011.9 mb 0.00 in0.0 mm 0.00 in0.0 mm 0.16 in4.1 mm
03:50 PM 48.2°F9.0°C 27.3°F-2.6°C 44% 8.1 mph NW13.0 kmh NW 11.4 mph18.3 kmh 29.88 in1011.9 mb 0.00 in0.0 mm 0.00 in0.0 mm 0.16 in4.1 mm
03:51 PM 48.4°F9.1°C 26.4°F-3.1°C 42% 8.9 mph W14.3 kmh W 11.4 mph18.3 kmh 29.89 in1012.2 mb 0.00 in0.0 mm 0.00 in0.0 mm 0.16 in4.1 mm
03:52 PM 48.4°F9.1°C 26.4°F-3.1°C 42% 8.9 mph NW14.3 kmh NW 11.4 mph18.3 kmh 29.87 in1011.5 mb 0.00 in0.0 mm 0.00 in0.0 mm 0.16 in4.1 mm
03:54 PM 48.2°F9.0°C 27.3°F-2.6°C 44% 4.3 mph W6.9 kmh W 6.9 mph11.1 kmh 29.87 in1011.5 mb 0.00 in0.0 mm 0.00 in0.0 mm 0.16 in4.1 mm
03:55 PM 48.2°F9.0°C 26.8°F-2.9°C 43% 8.1 mph NNW13.0 kmh NNW 12.5 mph20.1 kmh 29.88 in1011.9 mb 0.00 in0.0 mm 0.00 in0.0 mm 0.16 in4.1 mm
03:56 PM 48.4°F9.1°C 26.9°F-2.8°C 43% 9.6 mph NW15.4 kmh NW 13.6 mph21.9 kmh 29.88 in1011.9 mb 0.00 in0.0 mm 0.00 in0.0 mm 0.16 in4.1 mm
03:57 PM 48.6°F9.2°C 26.6°F-3.0°C 42% 12.1 mph NNW19.5 kmh NNW 17.2 mph27.7 kmh 29.88 in1011.9 mb 0.00 in0.0 mm 0.00 in0.0 mm 0.16 in4.1 mm
03:58 PM 48.0°F8.9°C 27.1°F-2.7°C 44% 3.6 mph WSW5.8 kmh WSW 4.5 mph7.2 kmh 29.88 in1011.9 mb 0.00 in0.0 mm 0.00 in0.0 mm 0.16 in4.1 mm
03:59 PM 47.7°F8.7°C 26.9°F-2.8°C 44% 12.1 mph WNW19.5 kmh WNW 14.8 mph23.8 kmh 29.87 in1011.5 mb 0.00 in0.0 mm 0.00 in0.0 mm 0.16 in4.1 mm
04:00 PM 47.5°F8.6°C 26.1°F-3.3°C 43% 5.1 mph NW8.2 kmh NW 10.3 mph16.6 kmh 29.88 in1011.9 mb 0.00 in0.0 mm 0.00 in0.0 mm 0.16 in4.1 mm
04:01 PM 47.7°F8.7°C 26.3°F-3.2°C 43% 9.6 mph WNW15.4 kmh WNW 13.6 mph21.9 kmh 29.88 in1011.9 mb 0.00 in0.0 mm 0.00 in0.0 mm 0.16 in4.1 mm
04:02 PM 47.7°F8.7°C 26.3°F-3.2°C 43% 13.4 mph W21.6 kmh W 18.3 mph29.5 kmh 29.88 in1011.9 mb 0.00 in0.0 mm 0.00 in0.0 mm 0.16 in4.1 mm
04:03 PM 47.7°F8.7°C 26.3°F-3.2°C 43% 9.2 mph NW14.8 kmh NW 10.3 mph16.6 kmh 29.88 in1011.9 mb 0.00 in0.0 mm 0.00 in0.0 mm 0.16 in4.1 mm
04:04 PM 47.5°F8.6°C 26.7°F-2.9°C 44% 5.4 mph ESE8.7 kmh ESE 8.1 mph13.0 kmh 29.88 in1011.9 mb 0.00 in0.0 mm 0.00 in0.0 mm 0.16 in4.1 mm
04:05 PM 47.5°F8.6°C 26.7°F-2.9°C 44% 16.3 mph WNW26.2 kmh WNW 20.6 mph33.2 kmh 29.89 in1012.2 mb 0.00 in0.0 mm 0.00 in0.0 mm 0.16 in4.1 mm
04:06 PM 47.5°F8.6°C 27.2°F-2.7°C 45% 12.3 mph NW19.8 kmh NW 14.8 mph23.8 kmh 29.88 in1011.9 mb 0.00 in0.0 mm 0.00 in0.0 mm 0.16 in4.1 mm
04:07 PM 47.3°F8.5°C 27.0°F-2.8°C 45% 15.2 mph NW24.5 kmh NW 20.6 mph33.2 kmh 29.88 in1011.9 mb 0.00 in0.0 mm 0.00 in0.0 mm 0.16 in4.1 mm
04:08 PM 47.1°F8.4°C 26.9°F-2.8°C 45% 9.2 mph NNW14.8 kmh NNW 11.4 mph18.3 kmh 29.89 in1012.2 mb 0.00 in0.0 mm 0.00 in0.0 mm 0.16 in4.1 mm
04:09 PM 47.1°F8.4°C 27.4°F-2.6°C 46% 9.4 mph NW15.1 kmh NW 10.3 mph16.6 kmh 29.89 in1012.2 mb 0.00 in0.0 mm 0.00 in0.0 mm 0.16 in4.1 mm
04:10 PM 47.1°F8.4°C 27.4°F-2.6°C 46% 8.5 mph WNW13.7 kmh WNW 11.4 mph18.3 kmh 29.89 in1012.2 mb 0.00 in0.0 mm 0.00 in0.0 mm 0.16 in4.1 mm
04:11 PM 47.1°F8.4°C 26.9°F-2.8°C 45% 7.6 mph NW12.2 kmh NW 9.2 mph14.8 kmh 29.89 in1012.2 mb 0.00 in0.0 mm 0.00 in0.0 mm 0.16 in4.1 mm
04:12 PM 46.9°F8.3°C 27.2°F-2.7°C 46% 11.9 mph WNW19.2 kmh WNW 13.6 mph21.9 kmh 29.89 in1012.2 mb 0.00 in0.0 mm 0.00 in0.0 mm 0.16 in4.1 mm
04:13 PM 46.8°F8.2°C 27.1°F-2.7°C 46% 10.7 mph NNW17.2 kmh NNW 12.5 mph20.1 kmh 29.90 in1012.5 mb 0.00 in0.0 mm 0.00 in0.0 mm 0.16 in4.1 mm
04:14 PM 46.9°F8.3°C 26.7°F-2.9°C 45% 14.1 mph W22.7 kmh W 19.5 mph31.4 kmh 29.89 in1012.2 mb 0.00 in0.0 mm 0.00 in0.0 mm 0.16 in4.1 mm
04:15 PM 46.9°F8.3°C 26.7°F-2.9°C 45% 12.1 mph NW19.5 kmh NW 19.5 mph31.4 kmh 29.89 in1012.2 mb 0.00 in0.0 mm 0.00 in0.0 mm 0.16 in4.1 mm
04:16 PM 46.9°F8.3°C 26.7°F-2.9°C 45% 6.7 mph NNW10.8 kmh NNW 9.2 mph14.8 kmh 29.89 in1012.2 mb 0.00 in0.0 mm 0.00 in0.0 mm 0.16 in4.1 mm
04:17 PM 46.9°F8.3°C 26.7°F-2.9°C 45% 9.4 mph W15.1 kmh W 11.4 mph18.3 kmh 29.89 in1012.2 mb 0.00 in0.0 mm 0.00 in0.0 mm 0.16 in4.1 mm
04:18 PM 47.5°F8.6°C 26.7°F-2.9°C 44% 11.6 mph W18.7 kmh W 13.6 mph21.9 kmh 29.89 in1012.2 mb 0.00 in0.0 mm 0.00 in0.0 mm 0.16 in4.1 mm
04:19 PM 47.5°F8.6°C 27.2°F-2.7°C 45% 6.3 mph NNW10.1 kmh NNW 10.3 mph16.6 kmh 29.89 in1012.2 mb 0.00 in0.0 mm 0.00 in0.0 mm 0.16 in4.1 mm
04:20 PM 47.5°F8.6°C 27.2°F-2.7°C 45% 8.5 mph W13.7 kmh W 13.6 mph21.9 kmh 29.89 in1012.2 mb 0.00 in0.0 mm 0.00 in0.0 mm 0.16 in4.1 mm
04:21 PM 47.5°F8.6°C 27.8°F-2.3°C 46% 11.6 mph W18.7 kmh W 14.8 mph23.8 kmh 29.89 in1012.2 mb 0.00 in0.0 mm 0.00 in0.0 mm 0.16 in4.1 mm
04:23 PM 47.5°F8.6°C 27.2°F-2.7°C 45% 8.1 mph NNW13.0 kmh NNW 12.5 mph20.1 kmh 29.89 in1012.2 mb 0.00 in0.0 mm 0.00 in0.0 mm 0.16 in4.1 mm
04:24 PM 47.5°F8.6°C 27.8°F-2.3°C 46% 11.9 mph NW19.2 kmh NW 14.8 mph23.8 kmh 29.88 in1011.9 mb 0.00 in0.0 mm 0.00 in0.0 mm 0.16 in4.1 mm
04:25 PM 46.8°F8.2°C 27.1°F-2.7°C 46% 8.1 mph NW13.0 kmh NW 10.3 mph16.6 kmh 29.89 in1012.2 mb 0.00 in0.0 mm 0.00 in0.0 mm 0.16 in4.1 mm
04:26 PM 46.8°F8.2°C 27.1°F-2.7°C 46% 8.1 mph NW13.0 kmh NW 13.6 mph21.9 kmh 29.88 in1011.9 mb 0.00 in0.0 mm 0.00 in0.0 mm 0.16 in4.1 mm
04:27 PM 46.8°F8.2°C 26.6°F-3.0°C 45% 10.7 mph NW17.2 kmh NW 13.6 mph21.9 kmh 29.89 in1012.2 mb 0.00 in0.0 mm 0.00 in0.0 mm 0.16 in4.1 mm
04:29 PM 46.8°F8.2°C 27.1°F-2.7°C 46% 7.6 mph NW12.2 kmh NW 11.4 mph18.3 kmh 29.89 in1012.2 mb 0.00 in0.0 mm 0.00 in0.0 mm 0.16 in4.1 mm
04:30 PM 46.9°F8.3°C 26.7°F-2.9°C 45% 8.5 mph NW13.7 kmh NW 10.3 mph16.6 kmh 29.89 in1012.2 mb 0.00 in0.0 mm 0.00 in0.0 mm 0.16 in4.1 mm
04:31 PM 47.3°F8.5°C 27.0°F-2.8°C 45% 6.0 mph NW9.7 kmh NW 10.3 mph16.6 kmh 29.88 in1011.9 mb 0.00 in0.0 mm 0.00 in0.0 mm 0.16 in4.1 mm
04:32 PM 47.5°F8.6°C 26.7°F-2.9°C 44% 10.3 mph W16.6 kmh W 12.5 mph20.1 kmh 29.88 in1011.9 mb 0.00 in0.0 mm 0.00 in0.0 mm 0.16 in4.1 mm
04:33 PM 47.7°F8.7°C 26.9°F-2.8°C 44% 6.9 mph NNW11.1 kmh NNW 11.4 mph18.3 kmh 29.88 in1011.9 mb 0.00 in0.0 mm 0.00 in0.0 mm 0.16 in4.1 mm
04:34 PM 47.7°F8.7°C 27.4°F-2.6°C 45% 12.3 mph WNW19.8 kmh WNW 14.8 mph23.8 kmh 29.88 in1011.9 mb 0.00 in0.0 mm 0.00 in0.0 mm 0.16 in4.1 mm
04:35 PM 47.5°F8.6°C 26.7°F-2.9°C 44% 6.5 mph WNW10.5 kmh WNW 9.2 mph14.8 kmh 29.89 in1012.2 mb 0.00 in0.0 mm 0.00 in0.0 mm 0.16 in4.1 mm
04:37 PM 47.1°F8.4°C 26.9°F-2.8°C 45% 8.3 mph N13.4 kmh N 10.3 mph16.6 kmh 29.88 in1011.9 mb 0.00 in0.0 mm 0.00 in0.0 mm 0.16 in4.1 mm
04:38 PM 47.3°F8.5°C 26.5°F-3.1°C 44% 6.0 mph W9.7 kmh W 9.2 mph14.8 kmh 29.88 in1011.9 mb 0.00 in0.0 mm 0.00 in0.0 mm 0.16 in4.1 mm
04:39 PM 47.5°F8.6°C 26.1°F-3.3°C 43% 12.3 mph WNW19.8 kmh WNW 15.9 mph25.6 kmh 29.88 in1011.9 mb 0.00 in0.0 mm 0.00 in0.0 mm 0.16 in4.1 mm
04:40 PM 47.5°F8.6°C 26.7°F-2.9°C 44% 7.4 mph NW11.9 kmh NW 9.2 mph14.8 kmh 29.88 in1011.9 mb 0.00 in0.0 mm 0.00 in0.0 mm 0.16 in4.1 mm
04:42 PM 47.3°F8.5°C 26.5°F-3.1°C 44% 11.6 mph NW18.7 kmh NW 13.6 mph21.9 kmh 29.89 in1012.2 mb 0.00 in0.0 mm 0.00 in0.0 mm 0.16 in4.1 mm
04:43 PM 46.8°F8.2°C 26.6°F-3.0°C 45% 7.6 mph NNW12.2 kmh NNW 9.2 mph14.8 kmh 29.89 in1012.2 mb 0.00 in0.0 mm 0.00 in0.0 mm 0.16 in4.1 mm
04:44 PM 46.8°F8.2°C 26.0°F-3.3°C 44% 6.5 mph SW10.5 kmh SW 10.3 mph16.6 kmh 29.88 in1011.9 mb 0.00 in0.0 mm 0.00 in0.0 mm 0.16 in4.1 mm
04:46 PM 47.5°F8.6°C 27.8°F-2.3°C 46% 3.4 mph NW5.5 kmh NW 6.9 mph11.1 kmh 29.88 in1011.9 mb 0.00 in0.0 mm 0.00 in0.0 mm 0.16 in4.1 mm
04:47 PM 47.5°F8.6°C 27.2°F-2.7°C 45% 2.9 mph NNW4.7 kmh NNW 4.5 mph7.2 kmh 29.89 in1012.2 mb 0.00 in0.0 mm 0.00 in0.0 mm 0.16 in4.1 mm
04:49 PM 48.0°F8.9°C 27.1°F-2.7°C 44% 4.0 mph WNW6.4 kmh WNW 6.9 mph11.1 kmh 29.89 in1012.2 mb 0.00 in0.0 mm 0.00 in0.0 mm 0.16 in4.1 mm
04:51 PM 47.7°F8.7°C 27.9°F-2.3°C 46% 5.8 mph WNW9.3 kmh WNW 9.2 mph14.8 kmh 29.89 in1012.2 mb 0.00 in0.0 mm 0.00 in0.0 mm 0.16 in4.1 mm
04:52 PM 47.7°F8.7°C 27.4°F-2.6°C 45% 4.5 mph NNW7.2 kmh NNW 5.8 mph9.3 kmh 29.89 in1012.2 mb 0.00 in0.0 mm 0.00 in0.0 mm 0.16 in4.1 mm
04:53 PM 47.8°F8.8°C 27.5°F-2.5°C 45% 4.9 mph NE7.9 kmh NE 6.9 mph11.1 kmh 29.89 in1012.2 mb 0.00 in0.0 mm 0.00 in0.0 mm 0.16 in4.1 mm
04:54 PM 48.0°F8.9°C 27.7°F-2.4°C 45% 4.5 mph NW7.2 kmh NW 6.9 mph11.1 kmh 29.89 in1012.2 mb 0.00 in0.0 mm 0.00 in0.0 mm 0.16 in4.1 mm
04:55 PM 48.0°F8.9°C 27.7°F-2.4°C 45% 6.9 mph NNW11.1 kmh NNW 8.1 mph13.0 kmh 29.89 in1012.2 mb 0.00 in0.0 mm 0.00 in0.0 mm 0.16 in4.1 mm
04:56 PM 47.8°F8.8°C 28.0°F-2.2°C 46% 7.4 mph WNW11.9 kmh WNW 9.2 mph14.8 kmh 29.89 in1012.2 mb 0.00 in0.0 mm 0.00 in0.0 mm 0.16 in4.1 mm
04:57 PM 47.5°F8.6°C 28.3°F-2.1°C 47% 4.9 mph NW7.9 kmh NW 5.8 mph9.3 kmh 29.88 in1011.9 mb 0.00 in0.0 mm 0.00 in0.0 mm 0.16 in4.1 mm
04:58 PM 47.3°F8.5°C 27.6°F-2.4°C 46% 9.6 mph WNW15.4 kmh WNW 11.4 mph18.3 kmh 29.88 in1011.9 mb 0.00 in0.0 mm 0.00 in0.0 mm 0.16 in4.1 mm
05:00 PM 46.9°F8.3°C 27.7°F-2.4°C 47% 4.9 mph SW7.9 kmh SW 6.9 mph11.1 kmh 29.89 in1012.2 mb 0.00 in0.0 mm 0.00 in0.0 mm 0.16 in4.1 mm
05:03 PM 46.9°F8.3°C 27.7°F-2.4°C 47% 4.3 mph WSW6.9 kmh WSW 6.9 mph11.1 kmh 29.89 in1012.2 mb 0.00 in0.0 mm 0.00 in0.0 mm 0.16 in4.1 mm
05:04 PM 47.3°F8.5°C 28.1°F-2.2°C 47% 7.6 mph S12.2 kmh S 10.3 mph16.6 kmh 29.89 in1012.2 mb 0.00 in0.0 mm 0.00 in0.0 mm 0.16 in4.1 mm
05:05 PM 47.3°F8.5°C 27.6°F-2.4°C 46% 4.7 mph SSW7.6 kmh SSW 5.8 mph9.3 kmh 29.88 in1011.9 mb 0.00 in0.0 mm 0.00 in0.0 mm 0.16 in4.1 mm
05:09 PM 47.3°F8.5°C 27.6°F-2.4°C 46% 4.0 mph SW6.4 kmh SW 4.5 mph7.2 kmh 29.89 in1012.2 mb 0.00 in0.0 mm 0.00 in0.0 mm 0.16 in4.1 mm
05:10 PM 47.1°F8.4°C 27.4°F-2.6°C 46% 5.4 mph WSW8.7 kmh WSW 8.1 mph13.0 kmh 29.88 in1011.9 mb 0.00 in0.0 mm 0.00 in0.0 mm 0.16 in4.1 mm
05:11 PM 47.1°F8.4°C 27.4°F-2.6°C 46% 6.7 mph SW10.8 kmh SW 9.2 mph14.8 kmh 29.89 in1012.2 mb 0.00 in0.0 mm 0.00 in0.0 mm 0.16 in4.1 mm
05:12 PM 46.9°F8.3°C 27.2°F-2.7°C 46% 6.5 mph SW10.5 kmh SW 9.2 mph14.8 kmh 29.89 in1012.2 mb 0.00 in0.0 mm 0.00 in0.0 mm 0.16 in4.1 mm
05:13 PM 46.9°F8.3°C 27.2°F-2.7°C 46% 3.8 mph S6.1 kmh S 4.5 mph7.2 kmh 29.89 in1012.2 mb 0.00 in0.0 mm 0.00 in0.0 mm 0.16 in4.1 mm
05:14 PM 47.3°F8.5°C 28.1°F-2.2°C 47% 2.2 mph S3.5 kmh S 3.4 mph5.5 kmh 29.89 in1012.2 mb 0.00 in0.0 mm 0.00 in0.0 mm 0.16 in4.1 mm
05:15 PM 47.3°F8.5°C 27.6°F-2.4°C 46% 2.2 mph WSW3.5 kmh WSW 4.5 mph7.2 kmh 29.88 in1011.9 mb 0.00 in0.0 mm 0.00 in0.0 mm 0.16 in4.1 mm
05:16 PM 47.5°F8.6°C 27.2°F-2.7°C 45% 10.3 mph W16.6 kmh W 14.8 mph23.8 kmh 29.88 in1011.9 mb 0.00 in0.0 mm 0.00 in0.0 mm 0.16 in4.1 mm
05:17 PM 47.7°F8.7°C 28.5°F-1.9°C 47% 3.8 mph E6.1 kmh E 5.8 mph9.3 kmh 29.89 in1012.2 mb 0.00 in0.0 mm 0.00 in0.0 mm 0.16 in4.1 mm
05:18 PM 47.3°F8.5°C 27.6°F-2.4°C 46% 2.5 mph WNW4.0 kmh WNW 4.5 mph7.2 kmh 29.88 in1011.9 mb 0.00 in0.0 mm 0.00 in0.0 mm 0.16 in4.1 mm
05:20 PM 47.3°F8.5°C 27.0°F-2.8°C 45% 8.9 mph NW14.3 kmh NW 10.3 mph16.6 kmh 29.89 in1012.2 mb 0.00 in0.0 mm 0.00 in0.0 mm 0.16 in4.1 mm
05:21 PM 47.3°F8.5°C 27.0°F-2.8°C 45% 5.6 mph W9.0 kmh W 6.9 mph11.1 kmh 29.89 in1012.2 mb 0.00 in0.0 mm 0.00 in0.0 mm 0.16 in4.1 mm
05:22 PM 47.1°F8.4°C 26.9°F-2.8°C 45% 4.5 mph W7.2 kmh W 5.8 mph9.3 kmh 29.89 in1012.2 mb 0.00 in0.0 mm 0.00 in0.0 mm 0.16 in4.1 mm
05:23 PM 47.1°F8.4°C 26.3°F-3.2°C 44% 9.2 mph WSW14.8 kmh WSW 12.5 mph20.1 kmh 29.89 in1012.2 mb 0.00 in0.0 mm 0.00 in0.0 mm 0.16 in4.1 mm
05:24 PM 47.1°F8.4°C 26.9°F-2.8°C 45% 4.9 mph WNW7.9 kmh WNW 6.9 mph11.1 kmh 29.88 in1011.9 mb 0.00 in0.0 mm 0.00 in0.0 mm 0.16 in4.1 mm
05:26 PM 46.9°F8.3°C 26.7°F-2.9°C 45% 4.3 mph WSW6.9 kmh WSW 5.8 mph9.3 kmh 29.89 in1012.2 mb 0.00 in0.0 mm 0.00 in0.0 mm 0.16 in4.1 mm
05:27 PM 46.8°F8.2°C 26.6°F-3.0°C 45% 5.6 mph NNW9.0 kmh NNW 8.1 mph13.0 kmh 29.89 in1012.2 mb 0.00 in0.0 mm 0.00 in0.0 mm 0.16 in4.1 mm
05:29 PM 46.6°F8.1°C 26.4°F-3.1°C 45% 3.8 mph WSW6.1 kmh WSW 5.8 mph9.3 kmh 29.88 in1011.9 mb 0.00 in0.0 mm 0.00 in0.0 mm 0.16 in4.1 mm
05:31 PM 46.6°F8.1°C 26.9°F-2.8°C 46% 4.9 mph NW7.9 kmh NW 6.9 mph11.1 kmh 29.89 in1012.2 mb 0.00 in0.0 mm 0.00 in0.0 mm 0.16 in4.1 mm
05:32 PM 46.0°F7.8°C 26.4°F-3.1°C 46% 4.5 mph NW7.2 kmh NW 6.9 mph11.1 kmh 29.89 in1012.2 mb 0.00 in0.0 mm 0.00 in0.0 mm 0.16 in4.1 mm
05:33 PM 46.0°F7.8°C 25.9°F-3.4°C 45% 8.7 mph WNW14.0 kmh WNW 11.4 mph18.3 kmh 29.88 in1011.9 mb 0.00 in0.0 mm 0.00 in0.0 mm 0.16 in4.1 mm
05:34 PM 45.9°F7.7°C 25.8°F-3.4°C 45% 8.3 mph WNW13.4 kmh WNW 11.4 mph18.3 kmh 29.89 in1012.2 mb 0.00 in0.0 mm 0.00 in0.0 mm 0.16 in4.1 mm
05:35 PM 45.9°F7.7°C 26.3°F-3.2°C 46% 7.6 mph NW12.2 kmh NW 8.1 mph13.0 kmh 29.89 in1012.2 mb 0.00 in0.0 mm 0.00 in0.0 mm 0.16 in4.1 mm
05:36 PM 45.7°F7.6°C 26.1°F-3.3°C 46% 4.7 mph N7.6 kmh N 6.9 mph11.1 kmh 29.89 in1012.2 mb 0.00 in0.0 mm 0.00 in0.0 mm 0.16 in4.1 mm
05:37 PM 45.7°F7.6°C 26.1°F-3.3°C 46% 2.0 mph S3.2 kmh S 3.4 mph5.5 kmh 29.88 in1011.9 mb 0.00 in0.0 mm 0.00 in0.0 mm 0.16 in4.1 mm
05:38 PM 45.7°F7.6°C 26.6°F-3.0°C 47% 2.5 mph NNW4.0 kmh NNW 4.5 mph7.2 kmh 29.89 in1012.2 mb 0.00 in0.0 mm 0.00 in0.0 mm 0.16 in4.1 mm
05:39 PM 45.7°F7.6°C 26.6°F-3.0°C 47% 2.5 mph SW4.0 kmh SW 3.4 mph5.5 kmh 29.88 in1011.9 mb 0.00 in0.0 mm 0.00 in0.0 mm 0.16 in4.1 mm
05:40 PM 45.5°F7.5°C 26.5°F-3.1°C 47% 3.8 mph SSW6.1 kmh SSW 5.8 mph9.3 kmh 29.88 in1011.9 mb 0.00 in0.0 mm 0.00 in0.0 mm 0.16 in4.1 mm
05:41 PM 45.5°F7.5°C 26.5°F-3.1°C 47% 4.3 mph NW6.9 kmh NW 6.9 mph11.1 kmh 29.88 in1011.9 mb 0.00 in0.0 mm 0.00 in0.0 mm 0.16 in4.1 mm
05:42 PM 45.3°F7.4°C 25.8°F-3.4°C 46% 9.6 mph NW15.4 kmh NW 14.8 mph23.8 kmh 29.88 in1011.9 mb 0.00 in0.0 mm 0.00 in0.0 mm 0.16 in4.1 mm
05:43 PM 45.3°F7.4°C 26.3°F-3.2°C 47% 4.7 mph NW7.6 kmh NW 9.2 mph14.8 kmh 29.88 in1011.9 mb 0.00 in0.0 mm 0.00 in0.0 mm 0.16 in4.1 mm
05:45 PM 45.3°F7.4°C 25.8°F-3.4°C 46% 3.4 mph N5.5 kmh N 4.5 mph7.2 kmh 29.88 in1011.9 mb 0.00 in0.0 mm 0.00 in0.0 mm 0.16 in4.1 mm
05:46 PM 45.3°F7.4°C 26.3°F-3.2°C 47% 2.9 mph NNW4.7 kmh NNW 4.5 mph7.2 kmh 29.88 in1011.9 mb 0.00 in0.0 mm 0.00 in0.0 mm 0.16 in4.1 mm
05:48 PM 45.3°F7.4°C 25.8°F-3.4°C 46% 6.0 mph NW9.7 kmh NW 9.2 mph14.8 kmh 29.88 in1011.9 mb 0.00 in0.0 mm 0.00 in0.0 mm 0.16 in4.1 mm
05:49 PM 45.1°F7.3°C 26.1°F-3.3°C 47% 1.1 mph NNE1.8 kmh NNE 1.1 mph1.8 kmh 29.88 in1011.9 mb 0.00 in0.0 mm 0.00 in0.0 mm 0.16 in4.1 mm
05:50 PM 45.1°F7.3°C 26.1°F-3.3°C 47% 6.3 mph N10.1 kmh N 6.9 mph11.1 kmh 29.88 in1011.9 mb 0.00 in0.0 mm 0.00 in0.0 mm 0.16 in4.1 mm
05:51 PM 45.1°F7.3°C 26.1°F-3.3°C 47% 2.5 mph WSW4.0 kmh WSW 3.4 mph5.5 kmh 29.88 in1011.9 mb 0.00 in0.0 mm 0.00 in0.0 mm 0.16 in4.1 mm
05:52 PM 45.1°F7.3°C 25.6°F-3.6°C 46% 4.5 mph NW7.2 kmh NW 5.8 mph9.3 kmh 29.88 in1011.9 mb 0.00 in0.0 mm 0.00 in0.0 mm 0.16 in4.1 mm
05:53 PM 45.3°F7.4°C 26.3°F-3.2°C 47% 6.9 mph NNW11.1 kmh NNW 9.2 mph14.8 kmh 29.88 in1011.9 mb 0.00 in0.0 mm 0.00 in0.0 mm 0.16 in4.1 mm
05:54 PM 45.3°F7.4°C 26.3°F-3.2°C 47% 3.1 mph WSW5.0 kmh WSW 5.8 mph9.3 kmh 29.88 in1011.9 mb 0.00 in0.0 mm 0.00 in0.0 mm 0.16 in4.1 mm
05:56 PM 45.3°F7.4°C 26.8°F-2.9°C 48% 2.5 mph WNW4.0 kmh WNW 4.5 mph7.2 kmh 29.88 in1011.9 mb 0.00 in0.0 mm 0.00 in0.0 mm 0.16 in4.1 mm
05:57 PM 45.3°F7.4°C 25.2°F-3.8°C 45% 12.5 mph SW20.1 kmh SW 14.8 mph23.8 kmh 29.89 in1012.2 mb 0.00 in0.0 mm 0.00 in0.0 mm 0.16 in4.1 mm
05:58 PM 45.3°F7.4°C 25.2°F-3.8°C 45% 2.5 mph SW4.0 kmh SW 3.4 mph5.5 kmh 29.89 in1012.2 mb 0.00 in0.0 mm 0.00 in0.0 mm 0.16 in4.1 mm
05:59 PM 45.1°F7.3°C 25.6°F-3.6°C 46% 5.8 mph WNW9.3 kmh WNW 8.1 mph13.0 kmh 29.89 in1012.2 mb 0.00 in0.0 mm 0.00 in0.0 mm 0.16 in4.1 mm
06:00 PM 45.1°F7.3°C 25.0°F-3.9°C 45% 8.5 mph WNW13.7 kmh WNW 11.4 mph18.3 kmh 29.89 in1012.2 mb 0.00 in0.0 mm 0.00 in0.0 mm 0.16 in4.1 mm
06:01 PM 45.1°F7.3°C 25.6°F-3.6°C 46% 5.8 mph NNW9.3 kmh NNW 6.9 mph11.1 kmh 29.89 in1012.2 mb 0.00 in0.0 mm 0.00 in0.0 mm 0.16 in4.1 mm
06:02 PM 45.1°F7.3°C 25.6°F-3.6°C 46% 1.8 mph N2.9 kmh N 3.4 mph5.5 kmh 29.89 in1012.2 mb 0.00 in0.0 mm 0.00 in0.0 mm 0.16 in4.1 mm
06:04 PM 45.3°F7.4°C 25.2°F-3.8°C 45% 5.6 mph NW9.0 kmh NW 10.3 mph16.6 kmh 29.88 in1011.9 mb 0.00 in0.0 mm 0.00 in0.0 mm 0.16 in4.1 mm
06:06 PM 45.3°F7.4°C 25.8°F-3.4°C 46% 0.7 mph S1.1 kmh S 1.1 mph1.8 kmh 29.89 in1012.2 mb 0.00 in0.0 mm 0.00 in0.0 mm 0.16 in4.1 mm
06:07 PM 45.1°F7.3°C 26.1°F-3.3°C 47% 3.8 mph N6.1 kmh N 4.5 mph7.2 kmh 29.89 in1012.2 mb 0.00 in0.0 mm 0.00 in0.0 mm 0.16 in4.1 mm
06:08 PM 45.1°F7.3°C 25.6°F-3.6°C 46% 4.0 mph NW6.4 kmh NW 6.9 mph11.1 kmh 29.89 in1012.2 mb 0.00 in0.0 mm 0.00 in0.0 mm 0.16 in4.1 mm
06:10 PM 45.1°F7.3°C 24.5°F-4.2°C 44% 4.9 mph SSW7.9 kmh SSW 6.9 mph11.1 kmh 29.89 in1012.2 mb 0.00 in0.0 mm 0.00 in0.0 mm 0.16 in4.1 mm
06:11 PM 45.1°F7.3°C 25.0°F-3.9°C 45% 7.4 mph NW11.9 kmh NW 10.3 mph16.6 kmh 29.89 in1012.2 mb 0.00 in0.0 mm 0.00 in0.0 mm 0.16 in4.1 mm
06:12 PM 45.1°F7.3°C 25.0°F-3.9°C 45% 4.5 mph NNW7.2 kmh NNW 5.8 mph9.3 kmh 29.89 in1012.2 mb 0.00 in0.0 mm 0.00 in0.0 mm 0.16 in4.1 mm
06:13 PM 45.1°F7.3°C 25.0°F-3.9°C 45% 6.3 mph NW10.1 kmh NW 9.2 mph14.8 kmh 29.88 in1011.9 mb 0.00 in0.0 mm 0.00 in0.0 mm 0.16 in4.1 mm
06:14 PM 45.1°F7.3°C 25.0°F-3.9°C 45% 7.6 mph WNW12.2 kmh WNW 10.3 mph16.6 kmh 29.89 in1012.2 mb 0.00 in0.0 mm 0.00 in0.0 mm 0.16 in4.1 mm
06:16 PM 45.1°F7.3°C 25.6°F-3.6°C 46% 4.0 mph NNW6.4 kmh NNW 4.5 mph7.2 kmh 29.89 in1012.2 mb 0.00 in0.0 mm 0.00 in0.0 mm 0.16 in4.1 mm
06:17 PM 45.0°F7.2°C 25.5°F-3.6°C 46% 4.3 mph N6.9 kmh N 5.8 mph9.3 kmh 29.89 in1012.2 mb 0.00 in0.0 mm 0.00 in0.0 mm 0.16 in4.1 mm
06:19 PM 45.1°F7.3°C 25.0°F-3.9°C 45% 1.8 mph NW2.9 kmh NW 3.4 mph5.5 kmh 29.89 in1012.2 mb 0.00 in0.0 mm 0.00 in0.0 mm 0.16 in4.1 mm
06:20 PM 45.1°F7.3°C 24.5°F-4.2°C 44% 4.7 mph WNW7.6 kmh WNW 6.9 mph11.1 kmh 29.89 in1012.2 mb 0.00 in0.0 mm 0.00 in0.0 mm 0.16 in4.1 mm
06:21 PM 45.1°F7.3°C 25.0°F-3.9°C 45% 5.6 mph NW9.0 kmh NW 6.9 mph11.1 kmh 29.89 in1012.2 mb 0.00 in0.0 mm 0.00 in0.0 mm 0.16 in4.1 mm
06:22 PM 45.1°F7.3°C 25.0°F-3.9°C 45% 2.9 mph SW4.7 kmh SW 3.4 mph5.5 kmh 29.88 in1011.9 mb 0.00 in0.0 mm 0.00 in0.0 mm 0.16 in4.1 mm
06:23 PM 45.0°F7.2°C 25.0°F-3.9°C 45% 2.2 mph NNW3.5 kmh NNW 3.4 mph5.5 kmh 29.88 in1011.9 mb 0.00 in0.0 mm 0.00 in0.0 mm 0.16 in4.1 mm
06:24 PM 45.0°F7.2°C 25.0°F-3.9°C 45% 10.5 mph NW16.9 kmh NW 14.8 mph23.8 kmh 29.88 in1011.9 mb 0.00 in0.0 mm 0.00 in0.0 mm 0.16 in4.1 mm
06:25 PM 45.0°F7.2°C 25.0°F-3.9°C 45% 7.6 mph NW12.2 kmh NW 11.4 mph18.3 kmh 29.88 in1011.9 mb 0.00 in0.0 mm 0.00 in0.0 mm 0.16 in4.1 mm
06:26 PM 45.0°F7.2°C 25.0°F-3.9°C 45% 4.0 mph NW6.4 kmh NW 5.8 mph9.3 kmh 29.88 in1011.9 mb 0.00 in0.0 mm 0.00 in0.0 mm 0.16 in4.1 mm
06:27 PM 45.0°F7.2°C 25.0°F-3.9°C 45% 9.2 mph NNW14.8 kmh NNW 11.4 mph18.3 kmh 29.89 in1012.2 mb 0.00 in0.0 mm 0.00 in0.0 mm 0.16 in4.1 mm
06:28 PM 45.0°F7.2°C 24.4°F-4.2°C 44% 9.8 mph NW15.8 kmh NW 12.5 mph20.1 kmh 29.89 in1012.2 mb 0.00 in0.0 mm 0.00 in0.0 mm 0.16 in4.1 mm
06:29 PM 45.1°F7.3°C 24.5°F-4.2°C 44% 9.8 mph NW15.8 kmh NW 11.4 mph18.3 kmh 29.89 in1012.2 mb 0.00 in0.0 mm 0.00 in0.0 mm 0.16 in4.1 mm
06:30 PM 45.1°F7.3°C 24.5°F-4.2°C 44% 9.2 mph NW14.8 kmh NW 12.5 mph20.1 kmh 29.89 in1012.2 mb 0.00 in0.0 mm 0.00 in0.0 mm 0.16 in4.1 mm
06:31 PM 45.1°F7.3°C 24.5°F-4.2°C 44% 8.9 mph WNW14.3 kmh WNW 11.4 mph18.3 kmh 29.89 in1012.2 mb 0.00 in0.0 mm 0.00 in0.0 mm 0.16 in4.1 mm
06:32 PM 45.1°F7.3°C 24.5°F-4.2°C 44% 7.2 mph W11.6 kmh W 9.2 mph14.8 kmh 29.89 in1012.2 mb 0.00 in0.0 mm 0.00 in0.0 mm 0.16 in4.1 mm
06:33 PM 45.1°F7.3°C 24.5°F-4.2°C 44% 5.6 mph NW9.0 kmh NW 9.2 mph14.8 kmh 29.88 in1011.9 mb 0.00 in0.0 mm 0.00 in0.0 mm 0.16 in4.1 mm
06:35 PM 45.1°F7.3°C 24.0°F-4.4°C 43% 6.0 mph NW9.7 kmh NW 6.9 mph11.1 kmh 29.88 in1011.9 mb 0.00 in0.0 mm 0.00 in0.0 mm 0.16 in4.1 mm
06:36 PM 45.1°F7.3°C 24.5°F-4.2°C 44% 5.8 mph NNW9.3 kmh NNW 8.1 mph13.0 kmh 29.89 in1012.2 mb 0.00 in0.0 mm 0.00 in0.0 mm 0.16 in4.1 mm
06:37 PM 45.1°F7.3°C 24.5°F-4.2°C 44% 6.7 mph NW10.8 kmh NW 9.2 mph14.8 kmh 29.89 in1012.2 mb 0.00 in0.0 mm 0.00 in0.0 mm 0.16 in4.1 mm
06:38 PM 45.1°F7.3°C 25.0°F-3.9°C 45% 5.4 mph NW8.7 kmh NW 6.9 mph11.1 kmh 29.89 in1012.2 mb 0.00 in0.0 mm 0.00 in0.0 mm 0.16 in4.1 mm
06:39 PM 45.1°F7.3°C 24.5°F-4.2°C 44% 4.0 mph N6.4 kmh N 5.8 mph9.3 kmh 29.89 in1012.2 mb 0.00 in0.0 mm 0.00 in0.0 mm 0.16 in4.1 mm
06:40 PM 45.1°F7.3°C 24.5°F-4.2°C 44% 4.9 mph N7.9 kmh N 5.8 mph9.3 kmh 29.88 in1011.9 mb 0.00 in0.0 mm 0.00 in0.0 mm 0.16 in4.1 mm
06:41 PM 45.1°F7.3°C 25.0°F-3.9°C 45% 4.0 mph N6.4 kmh N 4.5 mph7.2 kmh 29.89 in1012.2 mb 0.00 in0.0 mm 0.00 in0.0 mm 0.16 in4.1 mm
06:42 PM 45.1°F7.3°C 25.0°F-3.9°C 45% 4.3 mph NNW6.9 kmh NNW 4.5 mph7.2 kmh 29.89 in1012.2 mb 0.00 in0.0 mm 0.00 in0.0 mm 0.16 in4.1 mm
06:43 PM 45.1°F7.3°C 25.0°F-3.9°C 45% 2.2 mph N3.5 kmh N 4.5 mph7.2 kmh 29.89 in1012.2 mb 0.00 in0.0 mm 0.00 in0.0 mm 0.16 in4.1 mm
06:44 PM 45.0°F7.2°C 25.0°F-3.9°C 45% 4.9 mph WNW7.9 kmh WNW 6.9 mph11.1 kmh 29.89 in1012.2 mb 0.00 in0.0 mm 0.00 in0.0 mm 0.16 in4.1 mm
06:45 PM 45.0°F7.2°C 25.0°F-3.9°C 45% 6.7 mph NNW10.8 kmh NNW 8.1 mph13.0 kmh 29.88 in1011.9 mb 0.00 in0.0 mm 0.00 in0.0 mm 0.16 in4.1 mm
06:46 PM 44.8°F7.1°C 24.8°F-4.0°C 45% 5.4 mph NW8.7 kmh NW 6.9 mph11.1 kmh 29.89 in1012.2 mb 0.00 in0.0 mm 0.00 in0.0 mm 0.16 in4.1 mm
06:47 PM 44.8°F7.1°C 24.8°F-4.0°C 45% 4.3 mph NW6.9 kmh NW 6.9 mph11.1 kmh 29.89 in1012.2 mb 0.00 in0.0 mm 0.00 in0.0 mm 0.16 in4.1 mm
06:48 PM 44.8°F7.1°C 25.3°F-3.7°C 46% 2.7 mph NNW4.3 kmh NNW 5.8 mph9.3 kmh 29.89 in1012.2 mb 0.00 in0.0 mm 0.00 in0.0 mm 0.16 in4.1 mm
06:49 PM 45.0°F7.2°C 25.0°F-3.9°C 45% 6.5 mph N10.5 kmh N 8.1 mph13.0 kmh 29.88 in1011.9 mb 0.00 in0.0 mm 0.00 in0.0 mm 0.16 in4.1 mm
06:50 PM 45.0°F7.2°C 24.4°F-4.2°C 44% 5.8 mph N9.3 kmh N 8.1 mph13.0 kmh 29.89 in1012.2 mb 0.00 in0.0 mm 0.00 in0.0 mm 0.16 in4.1 mm
06:51 PM 45.0°F7.2°C 23.9°F-4.5°C 43% 11.4 mph NW18.3 kmh NW 15.9 mph25.6 kmh 29.89 in1012.2 mb 0.00 in0.0 mm 0.00 in0.0 mm 0.16 in4.1 mm
06:52 PM 45.1°F7.3°C 24.0°F-4.4°C 43% 8.9 mph NW14.3 kmh NW 12.5 mph20.1 kmh 29.88 in1011.9 mb 0.00 in0.0 mm 0.00 in0.0 mm 0.16 in4.1 mm
06:53 PM 45.1°F7.3°C 24.0°F-4.4°C 43% 10.1 mph WNW16.3 kmh WNW 13.6 mph21.9 kmh 29.89 in1012.2 mb 0.00 in0.0 mm 0.00 in0.0 mm 0.16 in4.1 mm
06:55 PM 45.3°F7.4°C 24.1°F-4.4°C 43% 4.9 mph NNW7.9 kmh NNW 5.8 mph9.3 kmh 29.89 in1012.2 mb 0.00 in0.0 mm 0.00 in0.0 mm 0.16 in4.1 mm
06:56 PM 45.3°F7.4°C 24.7°F-4.1°C 44% 3.8 mph N6.1 kmh N 4.5 mph7.2 kmh 29.88 in1011.9 mb 0.00 in0.0 mm 0.00 in0.0 mm 0.16 in4.1 mm
06:57 PM 45.3°F7.4°C 24.7°F-4.1°C 44% 8.7 mph WNW14.0 kmh WNW 10.3 mph16.6 kmh 29.88 in1011.9 mb 0.00 in0.0 mm 0.00 in0.0 mm 0.16 in4.1 mm
06:59 PM 45.1°F7.3°C 25.0°F-3.9°C 45% 3.1 mph W5.0 kmh W 5.8 mph9.3 kmh 29.88 in1011.9 mb 0.00 in0.0 mm 0.00 in0.0 mm 0.16 in4.1 mm
07:01 PM 45.0°F7.2°C 25.5°F-3.6°C 46% 3.6 mph S5.8 kmh S 6.9 mph11.1 kmh 29.88 in1011.9 mb 0.00 in0.0 mm 0.00 in0.0 mm 0.16 in4.1 mm
07:02 PM 45.0°F7.2°C 25.5°F-3.6°C 46% 7.8 mph NW12.6 kmh NW 11.4 mph18.3 kmh 29.88 in1011.9 mb 0.00 in0.0 mm 0.00 in0.0 mm 0.16 in4.1 mm
07:03 PM 45.0°F7.2°C 25.5°F-3.6°C 46% 3.6 mph NE5.8 kmh NE 4.5 mph7.2 kmh 29.88 in1011.9 mb 0.00 in0.0 mm 0.00 in0.0 mm 0.16 in4.1 mm
07:04 PM 45.0°F7.2°C 25.5°F-3.6°C 46% 5.1 mph NNW8.2 kmh NNW 5.8 mph9.3 kmh 29.89 in1012.2 mb 0.00 in0.0 mm 0.00 in0.0 mm 0.16 in4.1 mm
07:05 PM 45.0°F7.2°C 25.5°F-3.6°C 46% 4.9 mph NW7.9 kmh NW 9.2 mph14.8 kmh 29.89 in1012.2 mb 0.00 in0.0 mm 0.00 in0.0 mm 0.16 in4.1 mm
07:06 PM 45.1°F7.3°C 25.0°F-3.9°C 45% 11.0 mph WNW17.7 kmh WNW 14.8 mph23.8 kmh 29.89 in1012.2 mb 0.00 in0.0 mm 0.00 in0.0 mm 0.16 in4.1 mm
07:08 PM 45.1°F7.3°C 25.6°F-3.6°C 46% 6.0 mph NNW9.7 kmh NNW 8.1 mph13.0 kmh 29.89 in1012.2 mb 0.00 in0.0 mm 0.00 in0.0 mm 0.16 in4.1 mm
07:09 PM 45.1°F7.3°C 25.6°F-3.6°C 46% 3.6 mph WNW5.8 kmh WNW 4.5 mph7.2 kmh 29.89 in1012.2 mb 0.00 in0.0 mm 0.00 in0.0 mm 0.16 in4.1 mm
07:10 PM 45.1°F7.3°C 25.6°F-3.6°C 46% 6.3 mph NW10.1 kmh NW 8.1 mph13.0 kmh 29.89 in1012.2 mb 0.00 in0.0 mm 0.00 in0.0 mm 0.16 in4.1 mm
07:11 PM 45.1°F7.3°C 25.6°F-3.6°C 46% 6.5 mph WNW10.5 kmh WNW 9.2 mph14.8 kmh 29.88 in1011.9 mb 0.00 in0.0 mm 0.00 in0.0 mm 0.16 in4.1 mm
07:12 PM 45.0°F7.2°C 25.5°F-3.6°C 46% 6.5 mph NW10.5 kmh NW 8.1 mph13.0 kmh 29.89 in1012.2 mb 0.00 in0.0 mm 0.00 in0.0 mm 0.16 in4.1 mm
07:13 PM 45.0°F7.2°C 25.5°F-3.6°C 46% 5.6 mph W9.0 kmh W 8.1 mph13.0 kmh 29.89 in1012.2 mb 0.00 in0.0 mm 0.00 in0.0 mm 0.16 in4.1 mm
07:14 PM 45.0°F7.2°C 25.5°F-3.6°C 46% 5.1 mph NW8.2 kmh NW 6.9 mph11.1 kmh 29.90 in1012.5 mb 0.00 in0.0 mm 0.00 in0.0 mm 0.16 in4.1 mm
07:15 PM 45.1°F7.3°C 25.6°F-3.6°C 46% 3.6 mph WNW5.8 kmh WNW 4.5 mph7.2 kmh 29.89 in1012.2 mb 0.00 in0.0 mm 0.00 in0.0 mm 0.16 in4.1 mm
07:18 PM 45.1°F7.3°C 26.1°F-3.3°C 47% 3.8 mph WNW6.1 kmh WNW 5.8 mph9.3 kmh 29.89 in1012.2 mb 0.00 in0.0 mm 0.00 in0.0 mm 0.16 in4.1 mm
07:19 PM 45.1°F7.3°C 26.1°F-3.3°C 47% 6.3 mph NW10.1 kmh NW 8.1 mph13.0 kmh 29.90 in1012.5 mb 0.00 in0.0 mm 0.00 in0.0 mm 0.16 in4.1 mm
07:20 PM 45.1°F7.3°C 26.1°F-3.3°C 47% 4.9 mph NW7.9 kmh NW 8.1 mph13.0 kmh 29.89 in1012.2 mb 0.00 in0.0 mm 0.00 in0.0 mm 0.16 in4.1 mm
07:22 PM 45.1°F7.3°C 26.1°F-3.3°C 47% 6.9 mph NW11.1 kmh NW 6.9 mph11.1 kmh 29.89 in1012.2 mb 0.00 in0.0 mm 0.00 in0.0 mm 0.16 in4.1 mm
07:24 PM 45.0°F7.2°C 26.0°F-3.3°C 47% 4.9 mph NNW7.9 kmh NNW 5.8 mph9.3 kmh 29.89 in1012.2 mb 0.00 in0.0 mm 0.00 in0.0 mm 0.16 in4.1 mm
07:25 PM 45.0°F7.2°C 26.5°F-3.1°C 48% 3.6 mph SW5.8 kmh SW 5.8 mph9.3 kmh 29.91 in1012.9 mb 0.00 in0.0 mm 0.00 in0.0 mm 0.16 in4.1 mm
07:26 PM 45.0°F7.2°C 27.0°F-2.8°C 49% 2.0 mph SW3.2 kmh SW 2.2 mph3.5 kmh 29.89 in1012.2 mb 0.00 in0.0 mm 0.00 in0.0 mm 0.16 in4.1 mm
07:27 PM 44.8°F7.1°C 26.8°F-2.9°C 49% 1.3 mph E2.1 kmh E 2.2 mph3.5 kmh 29.89 in1012.2 mb 0.00 in0.0 mm 0.00 in0.0 mm 0.16 in4.1 mm
07:29 PM 44.6°F7.0°C 26.6°F-3.0°C 49% 3.8 mph NNW6.1 kmh NNW 4.5 mph7.2 kmh 29.89 in1012.2 mb 0.00 in0.0 mm 0.00 in0.0 mm 0.16 in4.1 mm
07:30 PM 44.6°F7.0°C 26.6°F-3.0°C 49% 4.5 mph NW7.2 kmh NW 5.8 mph9.3 kmh 29.89 in1012.2 mb 0.00 in0.0 mm 0.00 in0.0 mm 0.16 in4.1 mm
07:31 PM 44.6°F7.0°C 26.6°F-3.0°C 49% 2.2 mph NW3.5 kmh NW 2.2 mph3.5 kmh 29.89 in1012.2 mb 0.00 in0.0 mm 0.00 in0.0 mm 0.16 in4.1 mm
07:32 PM 44.6°F7.0°C 26.6°F-3.0°C 49% 3.8 mph N6.1 kmh N 4.5 mph7.2 kmh 29.90 in1012.5 mb 0.00 in0.0 mm 0.00 in0.0 mm 0.16 in4.1 mm
07:33 PM 44.6°F7.0°C 26.6°F-3.0°C 49% 7.4 mph WNW11.9 kmh WNW 11.4 mph18.3 kmh 29.89 in1012.2 mb 0.00 in0.0 mm 0.00 in0.0 mm 0.16 in4.1 mm
07:34 PM 44.6°F7.0°C 26.1°F-3.3°C 48% 3.8 mph W6.1 kmh W 4.5 mph7.2 kmh 29.89 in1012.2 mb 0.00 in0.0 mm 0.00 in0.0 mm 0.16 in4.1 mm
07:35 PM 44.8°F7.1°C 26.3°F-3.2°C 48% 2.9 mph NW4.7 kmh NW 3.4 mph5.5 kmh 29.89 in1012.2 mb 0.00 in0.0 mm 0.00 in0.0 mm 0.16 in4.1 mm
07:36 PM 45.0°F7.2°C 26.5°F-3.1°C 48% 3.6 mph W5.8 kmh W 5.8 mph9.3 kmh 29.90 in1012.5 mb 0.00 in0.0 mm 0.00 in0.0 mm 0.16 in4.1 mm
07:37 PM 45.0°F7.2°C 26.5°F-3.1°C 48% 1.3 mph N2.1 kmh N 2.2 mph3.5 kmh 29.90 in1012.5 mb 0.00 in0.0 mm 0.00 in0.0 mm 0.16 in4.1 mm
07:38 PM 45.0°F7.2°C 27.0°F-2.8°C 49% 2.2 mph SW3.5 kmh SW 4.5 mph7.2 kmh 29.90 in1012.5 mb 0.00 in0.0 mm 0.00 in0.0 mm 0.16 in4.1 mm
07:39 PM 45.0°F7.2°C 27.5°F-2.5°C 50% 0.9 mph SSE1.4 kmh SSE 1.1 mph1.8 kmh 29.89 in1012.2 mb 0.00 in0.0 mm 0.00 in0.0 mm 0.16 in4.1 mm
07:41 PM 44.4°F6.9°C 26.9°F-2.8°C 50% 2.7 mph NW4.3 kmh NW 3.4 mph5.5 kmh 29.89 in1012.2 mb 0.00 in0.0 mm 0.00 in0.0 mm 0.16 in4.1 mm
07:42 PM 44.4°F6.9°C 26.9°F-2.8°C 50% 3.4 mph W5.5 kmh W 4.5 mph7.2 kmh 29.90 in1012.5 mb 0.00 in0.0 mm 0.00 in0.0 mm 0.16 in4.1 mm
07:43 PM 44.4°F6.9°C 26.9°F-2.8°C 50% 4.3 mph N6.9 kmh N 5.8 mph9.3 kmh 29.90 in1012.5 mb 0.00 in0.0 mm 0.00 in0.0 mm 0.16 in4.1 mm
07:44 PM 44.4°F6.9°C 26.5°F-3.1°C 49% 2.7 mph E4.3 kmh E 3.4 mph5.5 kmh 29.90 in1012.5 mb 0.00 in0.0 mm 0.00 in0.0 mm 0.16 in4.1 mm
07:45 PM 44.4°F6.9°C 25.4°F-3.7°C 47% 8.3 mph WSW13.4 kmh WSW 10.3 mph16.6 kmh 29.90 in1012.5 mb 0.00 in0.0 mm 0.00 in0.0 mm 0.16 in4.1 mm
07:46 PM 44.4°F6.9°C 26.0°F-3.3°C 48% 1.6 mph NE2.6 kmh NE 2.2 mph3.5 kmh 29.90 in1012.5 mb 0.00 in0.0 mm 0.00 in0.0 mm 0.16 in4.1 mm
07:47 PM 44.6°F7.0°C 26.1°F-3.3°C 48% 1.8 mph N2.9 kmh N 3.4 mph5.5 kmh 29.91 in1012.9 mb 0.00 in0.0 mm 0.00 in0.0 mm 0.16 in4.1 mm
07:48 PM 44.6°F7.0°C 26.1°F-3.3°C 48% 6.7 mph W10.8 kmh W 8.1 mph13.0 kmh 29.90 in1012.5 mb 0.00 in0.0 mm 0.00 in0.0 mm 0.16 in4.1 mm
07:50 PM 44.6°F7.0°C 25.1°F-3.8°C 46% 9.2 mph NW14.8 kmh NW 11.4 mph18.3 kmh 29.90 in1012.5 mb 0.00 in0.0 mm 0.00 in0.0 mm 0.16 in4.1 mm
07:52 PM 44.8°F7.1°C 25.3°F-3.7°C 46% 2.9 mph W4.7 kmh W 3.4 mph5.5 kmh 29.90 in1012.5 mb 0.00 in0.0 mm 0.00 in0.0 mm 0.16 in4.1 mm
07:53 PM 44.8°F7.1°C 24.8°F-4.0°C 45% 8.9 mph NW14.3 kmh NW 10.3 mph16.6 kmh 29.90 in1012.5 mb 0.00 in0.0 mm 0.00 in0.0 mm 0.16 in4.1 mm
07:54 PM 44.8°F7.1°C 24.8°F-4.0°C 45% 4.9 mph W7.9 kmh W 5.8 mph9.3 kmh 29.90 in1012.5 mb 0.00 in0.0 mm 0.00 in0.0 mm 0.16 in4.1 mm
07:55 PM 44.8°F7.1°C 25.3°F-3.7°C 46% 0.9 mph S1.4 kmh S 2.2 mph3.5 kmh 29.90 in1012.5 mb 0.00 in0.0 mm 0.00 in0.0 mm 0.16 in4.1 mm
07:56 PM 44.8°F7.1°C 25.8°F-3.4°C 47% 4.5 mph NNW7.2 kmh NNW 5.8 mph9.3 kmh 29.90 in1012.5 mb 0.00 in0.0 mm 0.00 in0.0 mm 0.16 in4.1 mm
07:57 PM 44.8°F7.1°C 26.3°F-3.2°C 48% 3.1 mph SW5.0 kmh SW 3.4 mph5.5 kmh 29.91 in1012.9 mb 0.00 in0.0 mm 0.00 in0.0 mm 0.16 in4.1 mm
07:58 PM 44.6°F7.0°C 25.6°F-3.6°C 47% 5.4 mph NW8.7 kmh NW 8.1 mph13.0 kmh 29.91 in1012.9 mb 0.00 in0.0 mm 0.00 in0.0 mm 0.16 in4.1 mm
07:59 PM 44.6°F7.0°C 25.6°F-3.6°C 47% 5.6 mph NNW9.0 kmh NNW 6.9 mph11.1 kmh 29.90 in1012.5 mb 0.00 in0.0 mm 0.00 in0.0 mm 0.16 in4.1 mm
08:00 PM 44.6°F7.0°C 25.6°F-3.6°C 47% 4.7 mph SW7.6 kmh SW 6.9 mph11.1 kmh 29.91 in1012.9 mb 0.00 in0.0 mm 0.00 in0.0 mm 0.16 in4.1 mm
08:01 PM 44.6°F7.0°C 25.6°F-3.6°C 47% 6.0 mph NW9.7 kmh NW 8.1 mph13.0 kmh 29.89 in1012.2 mb 0.00 in0.0 mm 0.00 in0.0 mm 0.16 in4.1 mm
08:02 PM 44.6°F7.0°C 25.6°F-3.6°C 47% 6.7 mph NW10.8 kmh NW 8.1 mph13.0 kmh 29.90 in1012.5 mb 0.00 in0.0 mm 0.00 in0.0 mm 0.16 in4.1 mm
08:03 PM 44.6°F7.0°C 25.1°F-3.8°C 46% 2.9 mph SW4.7 kmh SW 4.5 mph7.2 kmh 29.91 in1012.9 mb 0.00 in0.0 mm 0.00 in0.0 mm 0.16 in4.1 mm
08:04 PM 44.6°F7.0°C 25.6°F-3.6°C 47% 4.7 mph ENE7.6 kmh ENE 6.9 mph11.1 kmh 29.90 in1012.5 mb 0.00 in0.0 mm 0.00 in0.0 mm 0.16 in4.1 mm
08:05 PM 44.6°F7.0°C 25.6°F-3.6°C 47% 3.6 mph NNW5.8 kmh NNW 4.5 mph7.2 kmh 29.90 in1012.5 mb 0.00 in0.0 mm 0.00 in0.0 mm 0.16 in4.1 mm
08:06 PM 44.6°F7.0°C 25.1°F-3.8°C 46% 6.9 mph NNW11.1 kmh NNW 9.2 mph14.8 kmh 29.90 in1012.5 mb 0.00 in0.0 mm 0.00 in0.0 mm 0.16 in4.1 mm
08:07 PM 44.6°F7.0°C 24.6°F-4.1°C 45% 11.6 mph NNW18.7 kmh NNW 15.9 mph25.6 kmh 29.90 in1012.5 mb 0.00 in0.0 mm 0.00 in0.0 mm 0.16 in4.1 mm
08:09 PM 44.8°F7.1°C 25.3°F-3.7°C 46% 3.4 mph N5.5 kmh N 5.8 mph9.3 kmh 29.90 in1012.5 mb 0.00 in0.0 mm 0.00 in0.0 mm 0.16 in4.1 mm
08:10 PM 44.8°F7.1°C 25.8°F-3.4°C 47% 3.6 mph WNW5.8 kmh WNW 4.5 mph7.2 kmh 29.90 in1012.5 mb 0.00 in0.0 mm 0.00 in0.0 mm 0.16 in4.1 mm
08:12 PM 44.6°F7.0°C 26.1°F-3.3°C 48% 6.0 mph NNW9.7 kmh NNW 6.9 mph11.1 kmh 29.90 in1012.5 mb 0.00 in0.0 mm 0.00 in0.0 mm 0.16 in4.1 mm
08:13 PM 44.6°F7.0°C 25.6°F-3.6°C 47% 4.3 mph NNW6.9 kmh NNW 4.5 mph7.2 kmh 29.90 in1012.5 mb 0.00 in0.0 mm 0.00 in0.0 mm 0.16 in4.1 mm
08:15 PM 44.4°F6.9°C 25.4°F-3.7°C 47% 2.0 mph N3.2 kmh N 2.2 mph3.5 kmh 29.90 in1012.5 mb 0.00 in0.0 mm 0.00 in0.0 mm 0.16 in4.1 mm
08:16 PM 44.4°F6.9°C 25.4°F-3.7°C 47% 3.6 mph SW5.8 kmh SW 4.5 mph7.2 kmh 29.90 in1012.5 mb 0.00 in0.0 mm 0.00 in0.0 mm 0.16 in4.1 mm
08:18 PM 44.4°F6.9°C 25.4°F-3.7°C 47% 6.0 mph WNW9.7 kmh WNW 9.2 mph14.8 kmh 29.90 in1012.5 mb 0.00 in0.0 mm 0.00 in0.0 mm 0.16 in4.1 mm
08:20 PM 44.2°F6.8°C 25.3°F-3.7°C 47% 6.5 mph NNW10.5 kmh NNW 8.1 mph13.0 kmh 29.90 in1012.5 mb 0.00 in0.0 mm 0.00 in0.0 mm 0.16 in4.1 mm
08:21 PM 44.2°F6.8°C 24.2°F-4.3°C 45% 6.0 mph NW9.7 kmh NW 8.1 mph13.0 kmh 29.89 in1012.2 mb 0.00 in0.0 mm 0.00 in0.0 mm 0.16 in4.1 mm
08:23 PM 44.6°F7.0°C 24.6°F-4.1°C 45% 2.2 mph WSW3.5 kmh WSW 3.4 mph5.5 kmh 29.90 in1012.5 mb 0.00 in0.0 mm 0.00 in0.0 mm 0.16 in4.1 mm
08:24 PM 44.6°F7.0°C 24.6°F-4.1°C 45% 4.3 mph NW6.9 kmh NW 6.9 mph11.1 kmh 29.89 in1012.2 mb 0.00 in0.0 mm 0.00 in0.0 mm 0.16 in4.1 mm
08:26 PM 44.6°F7.0°C 25.1°F-3.8°C 46% 9.8 mph W15.8 kmh W 11.4 mph18.3 kmh 29.90 in1012.5 mb 0.00 in0.0 mm 0.00 in0.0 mm 0.16 in4.1 mm
08:28 PM 44.6°F7.0°C 25.1°F-3.8°C 46% 4.0 mph NW6.4 kmh NW 5.8 mph9.3 kmh 29.90 in1012.5 mb 0.00 in0.0 mm 0.00 in0.0 mm 0.16 in4.1 mm
08:29 PM 44.4°F6.9°C 25.4°F-3.7°C 47% 5.8 mph NNW9.3 kmh NNW 6.9 mph11.1 kmh 29.90 in1012.5 mb 0.00 in0.0 mm 0.00 in0.0 mm 0.16 in4.1 mm
08:30 PM 44.4°F6.9°C 24.9°F-3.9°C 46% 3.8 mph NNW6.1 kmh NNW 5.8 mph9.3 kmh 29.90 in1012.5 mb 0.00 in0.0 mm 0.00 in0.0 mm 0.16 in4.1 mm
08:31 PM 44.4°F6.9°C 24.9°F-3.9°C 46% 6.9 mph NNW11.1 kmh NNW 10.3 mph16.6 kmh 29.90 in1012.5 mb 0.00 in0.0 mm 0.00 in0.0 mm 0.16 in4.1 mm
08:32 PM 44.4°F6.9°C 24.4°F-4.2°C 45% 4.3 mph NNW6.9 kmh NNW 6.9 mph11.1 kmh 29.89 in1012.2 mb 0.00 in0.0 mm 0.00 in0.0 mm 0.16 in4.1 mm
08:34 PM 44.4°F6.9°C 24.9°F-3.9°C 46% 6.0 mph WSW9.7 kmh WSW 8.1 mph13.0 kmh 29.89 in1012.2 mb 0.00 in0.0 mm 0.00 in0.0 mm 0.16 in4.1 mm
08:35 PM 44.2°F6.8°C 25.3°F-3.7°C 47% 2.5 mph N4.0 kmh N 4.5 mph7.2 kmh 29.89 in1012.2 mb 0.00 in0.0 mm 0.00 in0.0 mm 0.16 in4.1 mm
08:38 PM 44.1°F6.7°C 25.2°F-3.8°C 47% 2.9 mph NW4.7 kmh NW 4.5 mph7.2 kmh 29.89 in1012.2 mb 0.00 in0.0 mm 0.00 in0.0 mm 0.16 in4.1 mm
08:39 PM 44.1°F6.7°C 25.2°F-3.8°C 47% 4.5 mph N7.2 kmh N 5.8 mph9.3 kmh 29.90 in1012.5 mb 0.00 in0.0 mm 0.00 in0.0 mm 0.16 in4.1 mm
08:42 PM 44.1°F6.7°C 25.2°F-3.8°C 47% 1.8 mph N2.9 kmh N 2.2 mph3.5 kmh 29.89 in1012.2 mb 0.00 in0.0 mm 0.00 in0.0 mm 0.16 in4.1 mm
08:43 PM 44.1°F6.7°C 25.2°F-3.8°C 47% 0.7 mph SSW1.1 kmh SSW 1.1 mph1.8 kmh 29.89 in1012.2 mb 0.00 in0.0 mm 0.00 in0.0 mm 0.16 in4.1 mm
08:44 PM 44.1°F6.7°C 24.7°F-4.1°C 46% 5.6 mph WSW9.0 kmh WSW 8.1 mph13.0 kmh 29.90 in1012.5 mb 0.00 in0.0 mm 0.00 in0.0 mm 0.16 in4.1 mm
08:45 PM 44.1°F6.7°C 24.7°F-4.1°C 46% 4.0 mph NNW6.4 kmh NNW 5.8 mph9.3 kmh 29.89 in1012.2 mb 0.00 in0.0 mm 0.00 in0.0 mm 0.16 in4.1 mm
08:46 PM 44.1°F6.7°C 24.7°F-4.1°C 46% 2.9 mph WNW4.7 kmh WNW 5.8 mph9.3 kmh 29.89 in1012.2 mb 0.00 in0.0 mm 0.00 in0.0 mm 0.16 in4.1 mm
08:48 PM 44.1°F6.7°C 24.1°F-4.4°C 45% 7.6 mph NNW12.2 kmh NNW 9.2 mph14.8 kmh 29.89 in1012.2 mb 0.00 in0.0 mm 0.00 in0.0 mm 0.16 in4.1 mm
08:49 PM 44.2°F6.8°C 24.2°F-4.3°C 45% 6.0 mph NNW9.7 kmh NNW 8.1 mph13.0 kmh 29.90 in1012.5 mb 0.00 in0.0 mm 0.00 in0.0 mm 0.16 in4.1 mm
08:50 PM 44.2°F6.8°C 23.7°F-4.6°C 44% 3.8 mph NNW6.1 kmh NNW 4.5 mph7.2 kmh 29.90 in1012.5 mb 0.00 in0.0 mm 0.00 in0.0 mm 0.16 in4.1 mm
08:51 PM 44.2°F6.8°C 23.7°F-4.6°C 44% 0.9 mph NE1.4 kmh NE 1.1 mph1.8 kmh 29.90 in1012.5 mb 0.00 in0.0 mm 0.00 in0.0 mm 0.16 in4.1 mm
08:52 PM 44.4°F6.9°C 23.9°F-4.5°C 44% 3.6 mph WSW5.8 kmh WSW 4.5 mph7.2 kmh 29.90 in1012.5 mb 0.00 in0.0 mm 0.00 in0.0 mm 0.16 in4.1 mm
08:53 PM 44.4°F6.9°C 23.9°F-4.5°C 44% 4.9 mph NW7.9 kmh NW 8.1 mph13.0 kmh 29.90 in1012.5 mb 0.00 in0.0 mm 0.00 in0.0 mm 0.16 in4.1 mm
08:54 PM 44.4°F6.9°C 23.9°F-4.5°C 44% 2.9 mph SW4.7 kmh SW 3.4 mph5.5 kmh 29.90 in1012.5 mb 0.00 in0.0 mm 0.00 in0.0 mm 0.16 in4.1 mm
08:55 PM 44.4°F6.9°C 23.9°F-4.5°C 44% 3.6 mph NNW5.8 kmh NNW 4.5 mph7.2 kmh 29.89 in1012.2 mb 0.00 in0.0 mm 0.00 in0.0 mm 0.16 in4.1 mm
08:56 PM 44.2°F6.8°C 24.2°F-4.3°C 45% 0.4 mph NE0.6 kmh NE 1.1 mph1.8 kmh 29.90 in1012.5 mb 0.00 in0.0 mm 0.00 in0.0 mm 0.16 in4.1 mm
08:57 PM 44.2°F6.8°C 24.2°F-4.3°C 45% 6.0 mph WNW9.7 kmh WNW 9.2 mph14.8 kmh 29.90 in1012.5 mb 0.00 in0.0 mm 0.00 in0.0 mm 0.16 in4.1 mm
08:59 PM 44.2°F6.8°C 23.7°F-4.6°C 44% 1.8 mph WSW2.9 kmh WSW 2.2 mph3.5 kmh 29.90 in1012.5 mb 0.00 in0.0 mm 0.00 in0.0 mm 0.16 in4.1 mm
09:00 PM 44.2°F6.8°C 23.7°F-4.6°C 44% 2.5 mph WNW4.0 kmh WNW 3.4 mph5.5 kmh 29.90 in1012.5 mb 0.00 in0.0 mm 0.00 in0.0 mm 0.16 in4.1 mm
09:01 PM 44.2°F6.8°C 24.2°F-4.3°C 45% 1.8 mph SW2.9 kmh SW 2.2 mph3.5 kmh 29.90 in1012.5 mb 0.00 in0.0 mm 0.00 in0.0 mm 0.16 in4.1 mm
09:02 PM 44.2°F6.8°C 24.2°F-4.3°C 45% 0.7 mph SW1.1 kmh SW 1.1 mph1.8 kmh 29.90 in1012.5 mb 0.00 in0.0 mm 0.00 in0.0 mm 0.16 in4.1 mm
09:03 PM 44.2°F6.8°C 24.2°F-4.3°C 45% 2.2 mph SSW3.5 kmh SSW 3.4 mph5.5 kmh 29.90 in1012.5 mb 0.00 in0.0 mm 0.00 in0.0 mm 0.16 in4.1 mm
09:04 PM 44.1°F6.7°C 24.1°F-4.4°C 45% 0.7 mph SE1.1 kmh SE 1.1 mph1.8 kmh 29.90 in1012.5 mb 0.00 in0.0 mm 0.00 in0.0 mm 0.16 in4.1 mm
09:05 PM 43.9°F6.6°C 24.5°F-4.2°C 46% 3.6 mph NW5.8 kmh NW 4.5 mph7.2 kmh 29.90 in1012.5 mb 0.00 in0.0 mm 0.00 in0.0 mm 0.16 in4.1 mm
09:06 PM 43.9°F6.6°C 23.9°F-4.5°C 45% 2.2 mph NNE3.5 kmh NNE 2.2 mph3.5 kmh 29.90 in1012.5 mb 0.00 in0.0 mm 0.00 in0.0 mm 0.16 in4.1 mm
09:07 PM 43.9°F6.6°C 23.9°F-4.5°C 45% 3.4 mph NNW5.5 kmh NNW 5.8 mph9.3 kmh 29.90 in1012.5 mb 0.00 in0.0 mm 0.00 in0.0 mm 0.16 in4.1 mm
09:08 PM 43.9°F6.6°C 23.4°F-4.8°C 44% 6.3 mph NW10.1 kmh NW 9.2 mph14.8 kmh 29.90 in1012.5 mb 0.00 in0.0 mm 0.00 in0.0 mm 0.16 in4.1 mm
09:09 PM 44.1°F6.7°C 23.6°F-4.7°C 44% 3.6 mph N5.8 kmh N 4.5 mph7.2 kmh 29.90 in1012.5 mb 0.00 in0.0 mm 0.00 in0.0 mm 0.16 in4.1 mm
09:10 PM 44.1°F6.7°C 24.1°F-4.4°C 45% 1.3 mph ESE2.1 kmh ESE 2.2 mph3.5 kmh 29.91 in1012.9 mb 0.00 in0.0 mm 0.00 in0.0 mm 0.16 in4.1 mm
09:11 PM 44.1°F6.7°C 24.1°F-4.4°C 45% 0.9 mph SE1.4 kmh SE 2.2 mph3.5 kmh 29.89 in1012.2 mb 0.00 in0.0 mm 0.00 in0.0 mm 0.16 in4.1 mm
09:12 PM 44.1°F6.7°C 24.7°F-4.1°C 46% 0.9 mph E1.4 kmh E 1.1 mph1.8 kmh 29.91 in1012.9 mb 0.00 in0.0 mm 0.00 in0.0 mm 0.16 in4.1 mm
09:14 PM 43.9°F6.6°C 24.5°F-4.2°C 46% 3.4 mph NW5.5 kmh NW 3.4 mph5.5 kmh 29.91 in1012.9 mb 0.00 in0.0 mm 0.00 in0.0 mm 0.16 in4.1 mm
09:15 PM 43.9°F6.6°C 24.5°F-4.2°C 46% 1.3 mph NNW2.1 kmh NNW 2.2 mph3.5 kmh 29.90 in1012.5 mb 0.00 in0.0 mm 0.00 in0.0 mm 0.16 in4.1 mm
09:16 PM 43.9°F6.6°C 24.5°F-4.2°C 46% 1.3 mph N2.1 kmh N 2.2 mph3.5 kmh 29.90 in1012.5 mb 0.00 in0.0 mm 0.00 in0.0 mm 0.16 in4.1 mm
09:17 PM 43.7°F6.5°C 24.3°F-4.3°C 46% 2.5 mph WSW4.0 kmh WSW 4.5 mph7.2 kmh 29.91 in1012.9 mb 0.00 in0.0 mm 0.00 in0.0 mm 0.16 in4.1 mm
09:18 PM 43.7°F6.5°C 23.8°F-4.6°C 45% 5.6 mph NW9.0 kmh NW 6.9 mph11.1 kmh 29.91 in1012.9 mb 0.00 in0.0 mm 0.00 in0.0 mm 0.16 in4.1 mm
09:19 PM 43.7°F6.5°C 23.8°F-4.6°C 45% 2.2 mph W3.5 kmh W 2.2 mph3.5 kmh 29.91 in1012.9 mb 0.00 in0.0 mm 0.00 in0.0 mm 0.16 in4.1 mm
09:20 PM 43.7°F6.5°C 23.2°F-4.9°C 44% 4.5 mph SW7.2 kmh SW 6.9 mph11.1 kmh 29.91 in1012.9 mb 0.00 in0.0 mm 0.00 in0.0 mm 0.16 in4.1 mm
09:21 PM 43.9°F6.6°C 23.4°F-4.8°C 44% 4.7 mph SW7.6 kmh SW 6.9 mph11.1 kmh 29.91 in1012.9 mb 0.00 in0.0 mm 0.00 in0.0 mm 0.16 in4.1 mm
09:22 PM 43.9°F6.6°C 23.4°F-4.8°C 44% 3.8 mph SW6.1 kmh SW 5.8 mph9.3 kmh 29.91 in1012.9 mb 0.00 in0.0 mm 0.00 in0.0 mm 0.16 in4.1 mm
09:23 PM 43.9°F6.6°C 23.4°F-4.8°C 44% 2.2 mph SE3.5 kmh SE 3.4 mph5.5 kmh 29.91 in1012.9 mb 0.00 in0.0 mm 0.00 in0.0 mm 0.16 in4.1 mm
09:25 PM 43.9°F6.6°C 23.9°F-4.5°C 45% 1.3 mph E2.1 kmh E 2.2 mph3.5 kmh 29.90 in1012.5 mb 0.00 in0.0 mm 0.00 in0.0 mm 0.16 in4.1 mm
09:26 PM 43.7°F6.5°C 23.8°F-4.6°C 45% 6.3 mph NW10.1 kmh NW 6.9 mph11.1 kmh 29.91 in1012.9 mb 0.00 in0.0 mm 0.00 in0.0 mm 0.16 in4.1 mm
09:27 PM 43.7°F6.5°C 23.8°F-4.6°C 45% 2.2 mph NNW3.5 kmh NNW 3.4 mph5.5 kmh 29.91 in1012.9 mb 0.00 in0.0 mm 0.00 in0.0 mm 0.16 in4.1 mm
09:28 PM 43.9°F6.6°C 23.9°F-4.5°C 45% 1.6 mph NNE2.6 kmh NNE 2.2 mph3.5 kmh 29.91 in1012.9 mb 0.00 in0.0 mm 0.00 in0.0 mm 0.16 in4.1 mm
09:29 PM 43.9°F6.6°C 23.9°F-4.5°C 45% 2.9 mph NNW4.7 kmh NNW 4.5 mph7.2 kmh 29.90 in1012.5 mb 0.00 in0.0 mm 0.00 in0.0 mm 0.16 in4.1 mm
09:30 PM 43.7°F6.5°C 23.8°F-4.6°C 45% 1.3 mph NNW2.1 kmh NNW 2.2 mph3.5 kmh 29.91 in1012.9 mb 0.00 in0.0 mm 0.00 in0.0 mm 0.16 in4.1 mm
09:31 PM 43.7°F6.5°C 24.3°F-4.3°C 46% 0.9 mph N1.4 kmh N 1.1 mph1.8 kmh 29.90 in1012.5 mb 0.00 in0.0 mm 0.00 in0.0 mm 0.16 in4.1 mm
09:32 PM 43.7°F6.5°C 24.3°F-4.3°C 46% 2.2 mph NNW3.5 kmh NNW 4.5 mph7.2 kmh 29.91 in1012.9 mb 0.00 in0.0 mm 0.00 in0.0 mm 0.16 in4.1 mm
09:33 PM 43.7°F6.5°C 24.3°F-4.3°C 46% 2.7 mph N4.3 kmh N 3.4 mph5.5 kmh 29.90 in1012.5 mb 0.00 in0.0 mm 0.00 in0.0 mm 0.16 in4.1 mm
09:34 PM 43.7°F6.5°C 23.8°F-4.6°C 45% 3.4 mph NW5.5 kmh NW 3.4 mph5.5 kmh 29.91 in1012.9 mb 0.00 in0.0 mm 0.00 in0.0 mm 0.16 in4.1 mm
09:35 PM 43.7°F6.5°C 24.3°F-4.3°C 46% 1.1 mph N1.8 kmh N 1.1 mph1.8 kmh 29.91 in1012.9 mb 0.00 in0.0 mm 0.00 in0.0 mm 0.16 in4.1 mm
09:36 PM 43.7°F6.5°C 24.8°F-4.0°C 47% 1.3 mph N2.1 kmh N 2.2 mph3.5 kmh 29.91 in1012.9 mb 0.00 in0.0 mm 0.00 in0.0 mm 0.16 in4.1 mm
09:38 PM 43.5°F6.4°C 24.6°F-4.1°C 47% 0.9 mph NE1.4 kmh NE 1.1 mph1.8 kmh 29.91 in1012.9 mb 0.00 in0.0 mm 0.00 in0.0 mm 0.16 in4.1 mm
09:39 PM 43.3°F6.3°C 24.4°F-4.2°C 47% 0.9 mph NE1.4 kmh NE 1.1 mph1.8 kmh 29.91 in1012.9 mb 0.00 in0.0 mm 0.00 in0.0 mm 0.16 in4.1 mm
09:41 PM 43.2°F6.2°C 24.3°F-4.3°C 47% Calm Calm -- 29.92 in1013.2 mb 0.00 in0.0 mm 0.00 in0.0 mm 0.16 in4.1 mm
09:42 PM 43.0°F6.1°C 24.7°F-4.1°C 48% Calm Calm -- 29.92 in1013.2 mb 0.00 in0.0 mm 0.00 in0.0 mm 0.16 in4.1 mm
09:43 PM 43.0°F6.1°C 24.7°F-4.1°C 48% 0.2 mph NE0.3 kmh NE 1.1 mph1.8 kmh 29.92 in1013.2 mb 0.00 in0.0 mm 0.00 in0.0 mm 0.16 in4.1 mm
09:44 PM 42.8°F6.0°C 24.5°F-4.2°C 48% 1.1 mph NE1.8 kmh NE 1.1 mph1.8 kmh 29.92 in1013.2 mb 0.00 in0.0 mm 0.00 in0.0 mm 0.16 in4.1 mm
09:46 PM 42.6°F5.9°C 25.3°F-3.7°C 50% 1.1 mph NE1.8 kmh NE 1.1 mph1.8 kmh 29.92 in1013.2 mb 0.00 in0.0 mm 0.00 in0.0 mm 0.16 in4.1 mm
09:47 PM 42.6°F5.9°C 25.3°F-3.7°C 50% 1.1 mph ENE1.8 kmh ENE 1.1 mph1.8 kmh 29.92 in1013.2 mb 0.00 in0.0 mm 0.00 in0.0 mm 0.16 in4.1 mm
09:48 PM 42.4°F5.8°C 25.1°F-3.8°C 50% 0.9 mph NE1.4 kmh NE 1.1 mph1.8 kmh 29.91 in1012.9 mb 0.00 in0.0 mm 0.00 in0.0 mm 0.16 in4.1 mm
09:49 PM 42.4°F5.8°C 24.6°F-4.1°C 49% Calm Calm -- 29.92 in1013.2 mb 0.00 in0.0 mm 0.00 in0.0 mm 0.16 in4.1 mm
09:50 PM 42.4°F5.8°C 25.1°F-3.8°C 50% Calm Calm -- 29.92 in1013.2 mb 0.00 in0.0 mm 0.00 in0.0 mm 0.16 in4.1 mm
09:52 PM 42.4°F5.8°C 25.1°F-3.8°C 50% Calm Calm -- 29.91 in1012.9 mb 0.00 in0.0 mm 0.00 in0.0 mm 0.16 in4.1 mm
09:53 PM 42.3°F5.7°C 25.9°F-3.4°C 52% Calm Calm -- 29.91 in1012.9 mb 0.00 in0.0 mm 0.00 in0.0 mm 0.16 in4.1 mm
09:54 PM 42.1°F5.6°C 26.7°F-2.9°C 54% Calm Calm -- 29.91 in1012.9 mb 0.00 in0.0 mm 0.00 in0.0 mm 0.16 in4.1 mm
09:55 PM 41.9°F5.5°C 26.9°F-2.8°C 55% Calm Calm -- 29.91 in1012.9 mb 0.00 in0.0 mm 0.00 in0.0 mm 0.16 in4.1 mm
09:57 PM 41.5°F5.3°C 27.8°F-2.3°C 58% Calm Calm -- 29.91 in1012.9 mb 0.00 in0.0 mm 0.00 in0.0 mm 0.16 in4.1 mm
09:58 PM 41.4°F5.2°C 27.3°F-2.6°C 57% Calm Calm -- 29.91 in1012.9 mb 0.00 in0.0 mm 0.00 in0.0 mm 0.16 in4.1 mm
09:59 PM 41.0°F5.0°C 26.9°F-2.8°C 57% Calm Calm -- 29.91 in1012.9 mb 0.00 in0.0 mm 0.00 in0.0 mm 0.16 in4.1 mm
10:00 PM 41.0°F5.0°C 27.4°F-2.6°C 58% Calm Calm -- 29.91 in1012.9 mb 0.00 in0.0 mm 0.00 in0.0 mm 0.16 in4.1 mm
10:01 PM 40.6°F4.8°C 27.0°F-2.8°C 58% Calm Calm -- 29.91 in1012.9 mb 0.00 in0.0 mm 0.00 in0.0 mm 0.16 in4.1 mm
10:02 PM 40.5°F4.7°C 27.7°F-2.4°C 60% Calm Calm -- 29.92 in1013.2 mb 0.00 in0.0 mm 0.00 in0.0 mm 0.16 in4.1 mm
10:05 PM 40.3°F4.6°C 27.5°F-2.5°C 60% Calm Calm -- 29.92 in1013.2 mb 0.00 in0.0 mm 0.00 in0.0 mm 0.16 in4.1 mm
10:06 PM 40.1°F4.5°C 27.7°F-2.4°C 61% Calm Calm -- 29.92 in1013.2 mb 0.00 in0.0 mm 0.00 in0.0 mm 0.16 in4.1 mm
10:07 PM 40.1°F4.5°C 28.1°F-2.2°C 62% 0.7 mph NE1.1 kmh NE 1.1 mph1.8 kmh 29.92 in1013.2 mb 0.00 in0.0 mm 0.00 in0.0 mm 0.16 in4.1 mm
10:08 PM 40.1°F4.5°C 28.5°F-1.9°C 63% Calm Calm -- 29.92 in1013.2 mb 0.00 in0.0 mm 0.00 in0.0 mm 0.16 in4.1 mm
10:09 PM 39.9°F4.4°C 27.6°F-2.4°C 61% Calm Calm -- 29.91 in1012.9 mb 0.00 in0.0 mm 0.00 in0.0 mm 0.16 in4.1 mm
10:10 PM 39.7°F4.3°C 27.8°F-2.3°C 62% Calm Calm -- 29.92 in1013.2 mb 0.00 in0.0 mm 0.00 in0.0 mm 0.16 in4.1 mm
10:11 PM 39.7°F4.3°C 27.8°F-2.3°C 62% Calm Calm -- 29.92 in1013.2 mb 0.00 in0.0 mm 0.00 in0.0 mm 0.16 in4.1 mm
10:12 PM 39.6°F4.2°C 27.7°F-2.4°C 62% Calm Calm -- 29.92 in1013.2 mb 0.00 in0.0 mm 0.00 in0.0 mm 0.16 in4.1 mm
10:14 PM 39.6°F4.2°C 28.4°F-2.0°C 64% Calm Calm -- 29.92 in1013.2 mb 0.00 in0.0 mm 0.00 in0.0 mm 0.16 in4.1 mm
10:17 PM 39.2°F4.0°C 29.2°F-1.6°C 67% Calm Calm -- 29.92 in1013.2 mb 0.00 in0.0 mm 0.00 in0.0 mm 0.16 in4.1 mm
10:18 PM 39.2°F4.0°C 28.4°F-2.0°C 65% Calm Calm -- 29.92 in1013.2 mb 0.00 in0.0 mm 0.00 in0.0 mm 0.16 in4.1 mm
10:19 PM 39.2°F4.0°C 28.4°F-2.0°C 65% Calm Calm -- 29.92 in1013.2 mb 0.00 in0.0 mm 0.00 in0.0 mm 0.16 in4.1 mm
10:20 PM 39.0°F3.9°C 28.6°F-1.9°C 66% Calm Calm -- 29.93 in1013.5 mb 0.00 in0.0 mm 0.00 in0.0 mm 0.16 in4.1 mm
10:21 PM 38.8°F3.8°C 28.8°F-1.8°C 67% Calm Calm -- 29.92 in1013.2 mb 0.00 in0.0 mm 0.00 in0.0 mm 0.16 in4.1 mm
10:22 PM 38.8°F3.8°C 29.2°F-1.6°C 68% Calm Calm -- 29.92 in1013.2 mb 0.00 in0.0 mm 0.00 in0.0 mm 0.16 in4.1 mm
10:23 PM 38.7°F3.7°C 29.1°F-1.6°C 68% Calm Calm -- 29.92 in1013.2 mb 0.00 in0.0 mm 0.00 in0.0 mm 0.16 in4.1 mm
10:24 PM 38.7°F3.7°C 29.8°F-1.2°C 70% Calm Calm -- 29.92 in1013.2 mb 0.00 in0.0 mm 0.00 in0.0 mm 0.16 in4.1 mm
10:25 PM 38.5°F3.6°C 28.9°F-1.7°C 68% 0.7 mph NE1.1 kmh NE 1.1 mph1.8 kmh 29.92 in1013.2 mb 0.00 in0.0 mm 0.00 in0.0 mm 0.16 in4.1 mm
10:26 PM 38.3°F3.5°C 28.7°F-1.8°C 68% Calm Calm -- 29.93 in1013.5 mb 0.00 in0.0 mm 0.00 in0.0 mm 0.16 in4.1 mm
10:27 PM 38.3°F3.5°C 29.0°F-1.7°C 69% Calm Calm -- 29.93 in1013.5 mb 0.00 in0.0 mm 0.00 in0.0 mm 0.16 in4.1 mm
10:28 PM 38.1°F3.4°C 28.8°F-1.8°C 69% Calm Calm -- 29.92 in1013.2 mb 0.00 in0.0 mm 0.00 in0.0 mm 0.16 in4.1 mm
10:29 PM 37.9°F3.3°C 28.7°F-1.8°C 69% Calm Calm -- 29.92 in1013.2 mb 0.00 in0.0 mm 0.00 in0.0 mm 0.16 in4.1 mm
10:30 PM 37.9°F3.3°C 29.0°F-1.7°C 70% Calm Calm -- 29.93 in1013.5 mb 0.00 in0.0 mm 0.00 in0.0 mm 0.16 in4.1 mm
10:31 PM 37.8°F3.2°C 28.2°F-2.1°C 68% Calm Calm -- 29.92 in1013.2 mb 0.00 in0.0 mm 0.00 in0.0 mm 0.16 in4.1 mm
10:32 PM 37.8°F3.2°C 27.8°F-2.3°C 67% Calm Calm -- 29.93 in1013.5 mb 0.00 in0.0 mm 0.00 in0.0 mm 0.16 in4.1 mm
10:33 PM 37.6°F3.1°C 28.0°F-2.2°C 68% Calm Calm -- 29.92 in1013.2 mb 0.00 in0.0 mm 0.00 in0.0 mm 0.16 in4.1 mm
10:35 PM 37.6°F3.1°C 28.0°F-2.2°C 68% 0.2 mph NE0.3 kmh NE 1.1 mph1.8 kmh 29.93 in1013.5 mb 0.00 in0.0 mm 0.00 in0.0 mm 0.16 in4.1 mm
10:37 PM 37.4°F3.0°C 28.2°F-2.1°C 69% Calm Calm -- 29.92 in1013.2 mb 0.00 in0.0 mm 0.00 in0.0 mm 0.16 in4.1 mm
10:38 PM 37.4°F3.0°C 28.2°F-2.1°C 69% Calm Calm -- 29.93 in1013.5 mb 0.00 in0.0 mm 0.00 in0.0 mm 0.16 in4.1 mm
10:39 PM 37.4°F3.0°C 28.2°F-2.1°C 69% Calm Calm -- 29.93 in1013.5 mb 0.00 in0.0 mm 0.00 in0.0 mm 0.16 in4.1 mm
10:40 PM 37.4°F3.0°C 28.2°F-2.1°C 69% Calm Calm -- 29.93 in1013.5 mb 0.00 in0.0 mm 0.00 in0.0 mm 0.16 in4.1 mm
10:41 PM 37.2°F2.9°C 28.3°F-2.1°C 70% Calm Calm -- 29.93 in1013.5 mb 0.00 in0.0 mm 0.00 in0.0 mm 0.16 in4.1 mm
10:43 PM 37.2°F2.9°C 28.0°F-2.2°C 69% Calm Calm -- 29.92 in1013.2 mb 0.00 in0.0 mm 0.00 in0.0 mm 0.16 in4.1 mm
10:44 PM 37.0°F2.8°C 28.1°F-2.2°C 70% Calm Calm -- 29.93 in1013.5 mb 0.00 in0.0 mm 0.00 in0.0 mm 0.16 in4.1 mm
10:47 PM 37.0°F2.8°C 27.8°F-2.3°C 69% Calm Calm -- 29.92 in1013.2 mb 0.00 in0.0 mm 0.00 in0.0 mm 0.16 in4.1 mm
10:48 PM 37.2°F2.9°C 28.0°F-2.2°C 69% Calm Calm -- 29.93 in1013.5 mb 0.00 in0.0 mm 0.00 in0.0 mm 0.16 in4.1 mm
10:50 PM 37.4°F3.0°C 28.2°F-2.1°C 69% Calm Calm -- 29.92 in1013.2 mb 0.00 in0.0 mm 0.00 in0.0 mm 0.16 in4.1 mm
10:51 PM 37.4°F3.0°C 28.2°F-2.1°C 69% Calm Calm -- 29.93 in